id=664477 time=19.07.2019 09:28:35 Vmax=0 Vmin=0 Vmid=0 Napr=279 uakb=14.08 usb=14.4 temp=19.66 hum=90.61 prs=994.91 Log=754 Err=0
id=664476 time=19.07.2019 09:18:32 Vmax=0 Vmin=0 Vmid=0 Napr=293 uakb=14.1 usb=14.4 temp=19.43 hum=90.57 prs=994.86 Log=746 Err=0
id=664475 time=19.07.2019 09:17:22 Vmax=0 Vmin=0 Vmid=0 Napr=290 uakb=14.08 usb=14.4 temp=19.45 hum=90.58 prs=994.85 Log=745 Err=0
id=664474 time=19.07.2019 09:12:43 Vmax=0 Vmin=0 Vmid=0 Napr=287 uakb=14.1 usb=14.4 temp=19.48 hum=90.54 prs=994.88 Log=741 Err=0
id=664473 time=19.07.2019 09:10:23 Vmax=0 Vmin=0 Vmid=0 Napr=287 uakb=14.08 usb=14.4 temp=19.55 hum=90.54 prs=994.87 Log=739 Err=0
id=664472 time=19.07.2019 08:50:08 Vmax=0 Vmin=0 Vmid=0 Napr=279 uakb=14.08 usb=14.4 temp=19.6 hum=90.44 prs=994.88 Log=723 Err=0
id=664471 time=19.07.2019 08:47:44 Vmax=0 Vmin=0 Vmid=0 Napr=270 uakb=14.08 usb=14.4 temp=19.59 hum=90.43 prs=994.87 Log=721 Err=0
id=664470 time=19.07.2019 08:44:14 Vmax=0 Vmin=0 Vmid=0 Napr=270 uakb=14.08 usb=14.4 temp=19.53 hum=90.42 prs=994.83 Log=718 Err=0
id=664469 time=19.07.2019 08:41:55 Vmax=0 Vmin=0 Vmid=0 Napr=272 uakb=14.08 usb=14.4 temp=19.47 hum=90.39 prs=994.77 Log=716 Err=0
id=664468 time=19.07.2019 08:39:39 Vmax=0 Vmin=0 Vmid=0 Napr=270 uakb=14.08 usb=14.4 temp=19.42 hum=90.4 prs=994.82 Log=714 Err=0
id=664467 time=19.07.2019 08:36:04 Vmax=0 Vmin=0 Vmid=0 Napr=271 uakb=14.08 usb=14.4 temp=19.39 hum=90.37 prs=994.83 Log=711 Err=0
id=664466 time=19.07.2019 08:33:44 Vmax=0 Vmin=0 Vmid=0 Napr=271 uakb=14.08 usb=14.38 temp=19.43 hum=90.36 prs=994.83 Log=709 Err=0
id=664465 time=19.07.2019 08:32:40 Vmax=0 Vmin=0 Vmid=0 Napr=269 uakb=14.06 usb=14.38 temp=19.44 hum=90.35 prs=994.82 Log=708 Err=0
id=664464 time=19.07.2019 08:30:13 Vmax=0 Vmin=0 Vmid=0 Napr=279 uakb=14.08 usb=14.4 temp=19.46 hum=90.33 prs=994.82 Log=706 Err=0
id=664463 time=19.07.2019 08:24:27 Vmax=0 Vmin=0 Vmid=0 Napr=289 uakb=14.08 usb=14.38 temp=19.48 hum=90.3 prs=994.84 Log=701 Err=0
id=664462 time=19.07.2019 08:19:46 Vmax=0 Vmin=0 Vmid=0 Napr=288 uakb=14.06 usb=14.4 temp=19.47 hum=90.25 prs=994.79 Log=697 Err=0
id=664461 time=19.07.2019 08:13:58 Vmax=0 Vmin=0 Vmid=0 Napr=282 uakb=14.06 usb=14.38 temp=19.38 hum=90.25 prs=994.8 Log=692 Err=0
id=664460 time=19.07.2019 08:12:47 Vmax=0 Vmin=0 Vmid=0 Napr=276 uakb=14.06 usb=14.4 temp=19.35 hum=90.23 prs=994.8 Log=691 Err=0
id=664459 time=19.07.2019 08:11:37 Vmax=0 Vmin=0 Vmid=0 Napr=284 uakb=14.06 usb=14.4 temp=19.33 hum=90.24 prs=994.81 Log=690 Err=0
id=664458 time=19.07.2019 08:10:26 Vmax=0 Vmin=0 Vmid=0 Napr=283 uakb=14.06 usb=14.4 temp=19.31 hum=90.23 prs=994.83 Log=689 Err=0
id=664457 time=19.07.2019 08:09:16 Vmax=0 Vmin=0 Vmid=0 Napr=287 uakb=14 usb=14.36 temp=19.3 hum=90.21 prs=994.78 Log=688 Err=0
id=664456 time=19.07.2019 08:08:05 Vmax=0 Vmin=0 Vmid=0 Napr=288 uakb=14.04 usb=14.38 temp=19.25 hum=90.21 prs=994.78 Log=687 Err=0
id=664455 time=19.07.2019 08:06:57 Vmax=0 Vmin=0 Vmid=0 Napr=288 uakb=14.04 usb=14.4 temp=19.21 hum=90.21 prs=994.78 Log=686 Err=0
id=664454 time=19.07.2019 08:05:45 Vmax=0 Vmin=0 Vmid=0 Napr=288 uakb=14.04 usb=14.38 temp=19.18 hum=90.19 prs=994.74 Log=685 Err=0
id=664453 time=19.07.2019 08:04:34 Vmax=0 Vmin=0 Vmid=0 Napr=288 uakb=13.96 usb=14.32 temp=19.14 hum=90.16 prs=994.76 Log=684 Err=0
id=664452 time=19.07.2019 08:03:24 Vmax=0 Vmin=0 Vmid=0 Napr=288 uakb=13.86 usb=14.2 temp=19.13 hum=90.16 prs=994.73 Log=683 Err=0
id=664451 time=19.07.2019 08:02:13 Vmax=0 Vmin=0 Vmid=0 Napr=288 uakb=13.82 usb=14.14 temp=19.12 hum=90.17 prs=994.74 Log=682 Err=0
id=664450 time=19.07.2019 08:01:02 Vmax=0 Vmin=0 Vmid=0 Napr=288 uakb=13.74 usb=14.08 temp=19.11 hum=90.17 prs=994.74 Log=681 Err=0
id=664449 time=19.07.2019 07:59:53 Vmax=0 Vmin=0 Vmid=0 Napr=288 uakb=13.7 usb=14.02 temp=19.09 hum=90.15 prs=994.77 Log=680 Err=0
id=664448 time=19.07.2019 07:58:42 Vmax=0 Vmin=0 Vmid=0 Napr=288 uakb=13.68 usb=14 temp=19.07 hum=90.17 prs=994.79 Log=679 Err=0
id=664447 time=19.07.2019 07:57:31 Vmax=0 Vmin=0 Vmid=0 Napr=288 uakb=13.66 usb=13.98 temp=19.04 hum=90.15 prs=994.77 Log=678 Err=0
id=664446 time=19.07.2019 07:56:21 Vmax=0 Vmin=0 Vmid=0 Napr=288 uakb=13.62 usb=13.94 temp=19.04 hum=90.14 prs=994.76 Log=677 Err=0
id=664445 time=19.07.2019 07:55:10 Vmax=0 Vmin=0 Vmid=0 Napr=288 uakb=13.58 usb=13.9 temp=19.05 hum=90.12 prs=994.77 Log=676 Err=0
id=664444 time=19.07.2019 07:51:41 Vmax=0 Vmin=0 Vmid=0 Napr=285 uakb=13.4 usb=13.48 temp=19.08 hum=90.11 prs=994.72 Log=673 Err=0
id=664443 time=19.07.2019 07:50:30 Vmax=0 Vmin=0 Vmid=0 Napr=279 uakb=13.38 usb=13.37 temp=19.11 hum=90.1 prs=994.71 Log=672 Err=0
id=664442 time=19.07.2019 07:49:20 Vmax=0 Vmin=0 Vmid=0 Napr=262 uakb=13.4 usb=13.48 temp=19.15 hum=90.09 prs=994.7 Log=671 Err=0
id=664441 time=19.07.2019 07:48:08 Vmax=0 Vmin=0 Vmid=0 Napr=235 uakb=13.4 usb=13.48 temp=19.16 hum=90.09 prs=994.72 Log=670 Err=0
id=664440 time=19.07.2019 07:46:58 Vmax=0 Vmin=0 Vmid=0 Napr=228 uakb=13.38 usb=13.41 temp=19.16 hum=90.09 prs=994.69 Log=669 Err=0
id=664439 time=19.07.2019 07:45:48 Vmax=0 Vmin=0 Vmid=0 Napr=228 uakb=13.38 usb=13.37 temp=19.16 hum=90.09 prs=994.66 Log=668 Err=0
id=664438 time=19.07.2019 07:44:38 Vmax=0 Vmin=0 Vmid=0 Napr=228 uakb=13.38 usb=13.35 temp=19.15 hum=90.06 prs=994.65 Log=667 Err=0
id=664437 time=19.07.2019 07:43:28 Vmax=0 Vmin=0 Vmid=0 Napr=228 uakb=13.38 usb=13.35 temp=19.14 hum=90.06 prs=994.66 Log=666 Err=0
id=664436 time=19.07.2019 07:42:18 Vmax=0 Vmin=0 Vmid=0 Napr=228 uakb=13.38 usb=13.33 temp=19.13 hum=90.06 prs=994.62 Log=665 Err=0
id=664435 time=19.07.2019 07:41:07 Vmax=0 Vmin=0 Vmid=0 Napr=228 uakb=13.38 usb=13.35 temp=19.1 hum=90.04 prs=994.65 Log=664 Err=0
id=664434 time=19.07.2019 07:39:56 Vmax=0 Vmin=0 Vmid=0 Napr=228 uakb=13.38 usb=13.37 temp=19.07 hum=90.05 prs=994.63 Log=663 Err=0
id=664433 time=19.07.2019 07:38:45 Vmax=0 Vmin=0 Vmid=0 Napr=228 uakb=13.38 usb=13.35 temp=19.04 hum=90.03 prs=994.62 Log=662 Err=0
id=664432 time=19.07.2019 07:37:35 Vmax=0 Vmin=0 Vmid=0 Napr=228 uakb=13.42 usb=13.35 temp=19.03 hum=90.02 prs=994.66 Log=661 Err=0
id=664431 time=19.07.2019 07:36:25 Vmax=0 Vmin=0 Vmid=0 Napr=228 uakb=13.44 usb=13.72 temp=19.02 hum=90.03 prs=994.64 Log=660 Err=0
id=664430 time=19.07.2019 07:35:14 Vmax=0 Vmin=0 Vmid=0 Napr=228 uakb=13.42 usb=13.72 temp=19.01 hum=90.01 prs=994.68 Log=659 Err=0
id=664429 time=19.07.2019 07:34:03 Vmax=0 Vmin=0 Vmid=0 Napr=228 uakb=13.42 usb=13.64 temp=18.99 hum=90 prs=994.63 Log=658 Err=0
id=664428 time=19.07.2019 07:30:34 Vmax=0 Vmin=0 Vmid=0 Napr=228 uakb=13.4 usb=13.7 temp=18.89 hum=89.99 prs=994.6 Log=655 Err=0
id=664427 time=19.07.2019 07:29:23 Vmax=0 Vmin=0 Vmid=0 Napr=228 uakb=13.38 usb=13.68 temp=18.86 hum=89.99 prs=994.6 Log=654 Err=0
id=664426 time=19.07.2019 07:28:13 Vmax=0 Vmin=0 Vmid=0 Napr=228 uakb=13.36 usb=13.64 temp=18.82 hum=89.95 prs=994.55 Log=653 Err=0
id=664425 time=19.07.2019 07:27:04 Vmax=0 Vmin=0 Vmid=0 Napr=228 uakb=13.38 usb=13.68 temp=18.78 hum=89.95 prs=994.52 Log=652 Err=0
id=664424 time=19.07.2019 07:25:51 Vmax=0 Vmin=0 Vmid=0 Napr=228 uakb=13.36 usb=13.68 temp=18.75 hum=89.93 prs=994.48 Log=651 Err=0
id=664423 time=19.07.2019 07:23:31 Vmax=0 Vmin=0 Vmid=0 Napr=228 uakb=13.34 usb=13.64 temp=18.67 hum=89.91 prs=994.47 Log=649 Err=0
id=664422 time=19.07.2019 07:22:22 Vmax=0 Vmin=0 Vmid=0 Napr=228 uakb=13.3 usb=13.64 temp=18.65 hum=89.93 prs=994.42 Log=648 Err=0
id=664421 time=19.07.2019 07:21:12 Vmax=0 Vmin=0 Vmid=0 Napr=228 uakb=13.3 usb=13.6 temp=18.6 hum=89.92 prs=994.41 Log=647 Err=0
id=664420 time=19.07.2019 07:20:01 Vmax=0 Vmin=0 Vmid=0 Napr=228 uakb=13.26 usb=13.58 temp=18.56 hum=89.91 prs=994.44 Log=646 Err=0
id=664419 time=19.07.2019 07:18:50 Vmax=0 Vmin=0 Vmid=0 Napr=228 uakb=13.24 usb=13.54 temp=18.52 hum=89.92 prs=994.39 Log=645 Err=0
id=664418 time=19.07.2019 07:17:43 Vmax=0 Vmin=0 Vmid=0 Napr=228 uakb=13.22 usb=13.54 temp=18.48 hum=89.9 prs=994.34 Log=644 Err=0
id=664417 time=19.07.2019 07:16:29 Vmax=0 Vmin=0 Vmid=0 Napr=228 uakb=13.2 usb=13.48 temp=18.46 hum=89.88 prs=994.31 Log=643 Err=0
id=664416 time=19.07.2019 07:15:19 Vmax=0 Vmin=0 Vmid=0 Napr=228 uakb=13.18 usb=13.25 temp=18.43 hum=89.86 prs=994.28 Log=642 Err=0
id=664415 time=19.07.2019 07:14:08 Vmax=0 Vmin=0 Vmid=0 Napr=228 uakb=13.16 usb=13.29 temp=18.4 hum=89.88 prs=994.29 Log=641 Err=0
id=664414 time=19.07.2019 07:12:58 Vmax=0 Vmin=0 Vmid=0 Napr=228 uakb=13.12 usb=13.21 temp=18.38 hum=89.89 prs=994.26 Log=640 Err=0
id=664413 time=19.07.2019 07:11:48 Vmax=0 Vmin=0 Vmid=0 Napr=228 uakb=13.1 usb=13.13 temp=18.35 hum=89.85 prs=994.29 Log=639 Err=0
id=664412 time=19.07.2019 07:10:37 Vmax=0 Vmin=0 Vmid=0 Napr=228 uakb=13.08 usb=13.31 temp=18.33 hum=89.84 prs=994.32 Log=638 Err=0
id=664411 time=19.07.2019 07:09:28 Vmax=0 Vmin=0 Vmid=0 Napr=228 uakb=13.06 usb=13.07 temp=18.32 hum=89.83 prs=994.36 Log=637 Err=0
id=664410 time=19.07.2019 07:08:16 Vmax=0 Vmin=0 Vmid=0 Napr=228 uakb=13.04 usb=12.95 temp=18.33 hum=89.83 prs=994.37 Log=636 Err=0
id=664409 time=19.07.2019 07:07:07 Vmax=0 Vmin=0 Vmid=0 Napr=227 uakb=13.02 usb=12.95 temp=18.35 hum=89.8 prs=994.39 Log=635 Err=0
id=664408 time=19.07.2019 07:05:56 Vmax=0 Vmin=0 Vmid=0 Napr=227 uakb=12.98 usb=12.85 temp=18.37 hum=89.8 prs=994.39 Log=634 Err=0
id=664407 time=19.07.2019 07:04:45 Vmax=0 Vmin=0 Vmid=0 Napr=227 uakb=13 usb=12.93 temp=18.39 hum=89.81 prs=994.4 Log=633 Err=0
id=664406 time=19.07.2019 07:03:35 Vmax=0 Vmin=0 Vmid=0 Napr=227 uakb=12.98 usb=12.91 temp=18.41 hum=89.79 prs=994.4 Log=632 Err=0
id=664405 time=19.07.2019 07:02:24 Vmax=0 Vmin=0 Vmid=0 Napr=225 uakb=12.98 usb=12.85 temp=18.39 hum=89.79 prs=994.38 Log=631 Err=0
id=664404 time=19.07.2019 07:01:15 Vmax=0 Vmin=0 Vmid=0 Napr=229 uakb=12.96 usb=12.81 temp=18.37 hum=89.79 prs=994.39 Log=630 Err=0
id=664403 time=19.07.2019 07:00:04 Vmax=0 Vmin=0 Vmid=0 Napr=233 uakb=12.96 usb=12.79 temp=18.36 hum=89.78 prs=994.36 Log=629 Err=0
id=664402 time=19.07.2019 06:56:34 Vmax=0 Vmin=0 Vmid=0 Napr=222 uakb=12.92 usb=12.73 temp=18.3 hum=89.76 prs=994.32 Log=626 Err=0
id=664401 time=19.07.2019 06:55:24 Vmax=0 Vmin=0 Vmid=0 Napr=222 uakb=12.9 usb=12.85 temp=18.28 hum=89.73 prs=994.31 Log=625 Err=0
id=664400 time=19.07.2019 06:54:14 Vmax=0 Vmin=0 Vmid=0 Napr=221 uakb=12.88 usb=12.71 temp=18.27 hum=89.74 prs=994.32 Log=624 Err=0
id=664399 time=19.07.2019 06:51:53 Vmax=0 Vmin=0 Vmid=0 Napr=222 uakb=12.86 usb=12.79 temp=18.21 hum=89.71 prs=994.32 Log=622 Err=0
id=664398 time=19.07.2019 06:50:43 Vmax=0 Vmin=0 Vmid=0 Napr=221 uakb=12.86 usb=12.73 temp=18.19 hum=89.7 prs=994.32 Log=621 Err=0
id=664397 time=19.07.2019 06:49:33 Vmax=0 Vmin=0 Vmid=0 Napr=215 uakb=12.84 usb=12.55 temp=18.16 hum=89.73 prs=994.28 Log=620 Err=0
id=664396 time=19.07.2019 06:48:22 Vmax=0 Vmin=0 Vmid=0 Napr=215 uakb=12.82 usb=12.67 temp=18.14 hum=89.69 prs=994.22 Log=619 Err=0
id=664395 time=19.07.2019 06:47:11 Vmax=0 Vmin=0 Vmid=0 Napr=217 uakb=12.8 usb=12.67 temp=18.13 hum=89.7 prs=994.24 Log=618 Err=0
id=664394 time=19.07.2019 06:43:41 Vmax=0 Vmin=0 Vmid=0 Napr=224 uakb=12.76 usb=12.53 temp=18.09 hum=89.67 prs=994.26 Log=615 Err=0
id=664393 time=19.07.2019 06:42:31 Vmax=0 Vmin=0 Vmid=0 Napr=226 uakb=12.74 usb=12.27 temp=18.07 hum=89.67 prs=994.27 Log=614 Err=0
id=664392 time=19.07.2019 06:41:20 Vmax=0 Vmin=0 Vmid=0 Napr=229 uakb=12.74 usb=12.37 temp=18.04 hum=89.64 prs=994.27 Log=613 Err=0
id=664391 time=19.07.2019 06:40:10 Vmax=0 Vmin=0 Vmid=0 Napr=233 uakb=12.76 usb=12.25 temp=18.03 hum=89.64 prs=994.27 Log=612 Err=0
id=664390 time=19.07.2019 06:39:00 Vmax=0 Vmin=0 Vmid=0 Napr=233 uakb=12.76 usb=12.59 temp=18.01 hum=89.64 prs=994.27 Log=611 Err=0
id=664389 time=19.07.2019 06:37:49 Vmax=0 Vmin=0 Vmid=0 Napr=233 uakb=12.74 usb=12.59 temp=18 hum=89.64 prs=994.26 Log=610 Err=0
id=664388 time=19.07.2019 06:36:39 Vmax=0 Vmin=0 Vmid=0 Napr=233 uakb=12.72 usb=12.51 temp=17.98 hum=89.62 prs=994.31 Log=609 Err=0
id=664387 time=19.07.2019 06:35:32 Vmax=0 Vmin=0 Vmid=0 Napr=233 uakb=12.72 usb=12.31 temp=17.97 hum=89.61 prs=994.28 Log=608 Err=0
id=664386 time=19.07.2019 06:34:18 Vmax=0 Vmin=0 Vmid=0 Napr=233 uakb=12.7 usb=12.29 temp=17.95 hum=89.6 prs=994.32 Log=607 Err=0
id=664385 time=19.07.2019 06:33:08 Vmax=0 Vmin=0 Vmid=0 Napr=233 uakb=12.7 usb=12.43 temp=17.94 hum=89.6 prs=994.33 Log=606 Err=0
id=664384 time=19.07.2019 06:30:48 Vmax=0 Vmin=0 Vmid=0 Napr=233 uakb=12.68 usb=12.18 temp=17.91 hum=89.58 prs=994.34 Log=604 Err=0
id=664383 time=19.07.2019 06:29:38 Vmax=0 Vmin=0 Vmid=0 Napr=233 uakb=12.7 usb=12.29 temp=17.9 hum=89.56 prs=994.36 Log=603 Err=0
id=664382 time=19.07.2019 06:28:27 Vmax=0 Vmin=0 Vmid=0 Napr=233 uakb=12.68 usb=12.24 temp=17.89 hum=89.56 prs=994.35 Log=602 Err=0
id=664381 time=19.07.2019 06:27:17 Vmax=0 Vmin=0 Vmid=0 Napr=236 uakb=12.68 usb=12.27 temp=17.89 hum=89.54 prs=994.37 Log=601 Err=0
id=664380 time=19.07.2019 06:26:06 Vmax=0 Vmin=0 Vmid=0 Napr=244 uakb=12.68 usb=12.29 temp=17.89 hum=89.54 prs=994.37 Log=600 Err=0
id=664379 time=19.07.2019 06:24:56 Vmax=0 Vmin=0 Vmid=0 Napr=263 uakb=12.68 usb=12.25 temp=17.88 hum=89.54 prs=994.42 Log=599 Err=0
id=664378 time=19.07.2019 06:23:46 Vmax=0 Vmin=0 Vmid=0 Napr=268 uakb=12.68 usb=12.33 temp=17.87 hum=89.53 prs=994.41 Log=598 Err=0
id=664377 time=19.07.2019 06:22:35 Vmax=0 Vmin=0 Vmid=0 Napr=268 uakb=12.68 usb=12.18 temp=17.87 hum=89.52 prs=994.42 Log=597 Err=0
id=664376 time=19.07.2019 06:21:25 Vmax=0 Vmin=0 Vmid=0 Napr=268 uakb=12.68 usb=12.33 temp=17.86 hum=89.51 prs=994.47 Log=596 Err=0
id=664375 time=19.07.2019 06:20:16 Vmax=0 Vmin=0 Vmid=0 Napr=268 uakb=12.68 usb=12.22 temp=17.86 hum=89.51 prs=994.5 Log=595 Err=0
id=664374 time=19.07.2019 06:16:45 Vmax=0 Vmin=0 Vmid=0 Napr=268 uakb=12.66 usb=12.14 temp=17.79 hum=89.49 prs=994.54 Log=592 Err=0
id=664373 time=19.07.2019 06:15:34 Vmax=0 Vmin=0 Vmid=0 Napr=268 uakb=12.64 usb=12.29 temp=17.76 hum=89.49 prs=994.58 Log=591 Err=0
id=664372 time=19.07.2019 06:14:24 Vmax=0 Vmin=0 Vmid=0 Napr=268 uakb=12.66 usb=12.24 temp=17.73 hum=89.49 prs=994.61 Log=590 Err=0
id=664371 time=19.07.2019 06:13:14 Vmax=0 Vmin=0 Vmid=0 Napr=268 uakb=12.66 usb=12.24 temp=17.67 hum=89.46 prs=994.62 Log=589 Err=0
id=664370 time=19.07.2019 06:12:02 Vmax=0 Vmin=0 Vmid=0 Napr=268 uakb=12.66 usb=12.08 temp=17.61 hum=89.47 prs=994.61 Log=588 Err=0
id=664369 time=19.07.2019 06:10:53 Vmax=0 Vmin=0 Vmid=0 Napr=268 uakb=12.64 usb=12.22 temp=17.54 hum=89.46 prs=994.6 Log=587 Err=0
id=664368 time=19.07.2019 06:09:42 Vmax=0 Vmin=0 Vmid=0 Napr=268 uakb=12.64 usb=11.74 temp=17.48 hum=89.43 prs=994.56 Log=586 Err=0
id=664367 time=19.07.2019 06:08:32 Vmax=0 Vmin=0 Vmid=0 Napr=268 uakb=12.62 usb=12 temp=17.47 hum=89.43 prs=994.58 Log=585 Err=0
id=664366 time=19.07.2019 06:07:22 Vmax=0 Vmin=0 Vmid=0 Napr=268 uakb=12.64 usb=11.8 temp=17.45 hum=89.41 prs=994.6 Log=584 Err=0
id=664365 time=19.07.2019 06:06:11 Vmax=0 Vmin=0 Vmid=0 Napr=268 uakb=12.64 usb=12.02 temp=17.45 hum=89.42 prs=994.61 Log=583 Err=0
id=664364 time=19.07.2019 06:02:41 Vmax=0 Vmin=0 Vmid=0 Napr=268 uakb=12.64 usb=11.8 temp=17.42 hum=89.39 prs=994.61 Log=580 Err=0
id=664363 time=19.07.2019 06:01:32 Vmax=0 Vmin=0 Vmid=0 Napr=268 uakb=12.64 usb=12.1 temp=17.41 hum=89.38 prs=994.63 Log=579 Err=0
id=664362 time=19.07.2019 06:00:22 Vmax=0 Vmin=0 Vmid=0 Napr=268 uakb=12.64 usb=11.98 temp=17.4 hum=89.37 prs=994.62 Log=578 Err=0
id=664361 time=19.07.2019 05:59:10 Vmax=0 Vmin=0 Vmid=0 Napr=268 uakb=12.64 usb=11.96 temp=17.39 hum=89.36 prs=994.64 Log=577 Err=0
id=664360 time=19.07.2019 05:58:00 Vmax=0 Vmin=0 Vmid=0 Napr=268 uakb=12.64 usb=11.46 temp=17.39 hum=89.35 prs=994.63 Log=576 Err=0
id=664359 time=19.07.2019 05:56:49 Vmax=0 Vmin=0 Vmid=0 Napr=268 uakb=12.64 usb=11.82 temp=17.39 hum=89.34 prs=994.61 Log=575 Err=0
id=664358 time=19.07.2019 05:55:39 Vmax=0 Vmin=0 Vmid=0 Napr=268 uakb=12.64 usb=12.08 temp=17.39 hum=89.33 prs=994.59 Log=574 Err=0
id=664357 time=19.07.2019 05:54:30 Vmax=0 Vmin=0 Vmid=0 Napr=268 uakb=12.64 usb=11.58 temp=17.4 hum=89.33 prs=994.59 Log=573 Err=0
id=664356 time=19.07.2019 05:53:18 Vmax=0 Vmin=0 Vmid=0 Napr=268 uakb=12.64 usb=11.68 temp=17.4 hum=89.31 prs=994.57 Log=572 Err=0
id=664355 time=19.07.2019 05:52:08 Vmax=0 Vmin=0 Vmid=0 Napr=268 uakb=12.64 usb=11.94 temp=17.41 hum=89.31 prs=994.6 Log=571 Err=0
id=664354 time=19.07.2019 05:50:58 Vmax=0 Vmin=0 Vmid=0 Napr=268 uakb=12.64 usb=12.06 temp=17.41 hum=89.3 prs=994.58 Log=570 Err=0
id=664353 time=19.07.2019 05:49:47 Vmax=0 Vmin=0 Vmid=0 Napr=268 uakb=12.64 usb=12.1 temp=17.42 hum=89.29 prs=994.59 Log=569 Err=0
id=664352 time=19.07.2019 05:48:38 Vmax=0 Vmin=0 Vmid=0 Napr=268 uakb=12.64 usb=11.72 temp=17.42 hum=89.28 prs=994.57 Log=568 Err=0
id=664351 time=19.07.2019 05:47:29 Vmax=0 Vmin=0 Vmid=0 Napr=268 uakb=12.64 usb=12.04 temp=17.42 hum=89.26 prs=994.57 Log=567 Err=0
id=664350 time=19.07.2019 05:46:17 Vmax=0 Vmin=0 Vmid=0 Napr=268 uakb=12.64 usb=12.04 temp=17.41 hum=89.27 prs=994.58 Log=566 Err=0
id=664349 time=19.07.2019 05:45:06 Vmax=0 Vmin=0 Vmid=0 Napr=268 uakb=12.64 usb=11.42 temp=17.4 hum=89.24 prs=994.59 Log=565 Err=0
id=664348 time=19.07.2019 05:43:56 Vmax=0 Vmin=0 Vmid=0 Napr=268 uakb=12.64 usb=11.88 temp=17.39 hum=89.23 prs=994.59 Log=564 Err=0
id=664347 time=19.07.2019 05:42:45 Vmax=0 Vmin=0 Vmid=0 Napr=268 uakb=12.64 usb=11.86 temp=17.38 hum=89.24 prs=994.59 Log=563 Err=0
id=664346 time=19.07.2019 05:41:35 Vmax=0 Vmin=0 Vmid=0 Napr=268 uakb=12.64 usb=11.2 temp=17.37 hum=89.22 prs=994.61 Log=562 Err=0
id=664345 time=19.07.2019 05:40:25 Vmax=0 Vmin=0 Vmid=0 Napr=268 uakb=12.66 usb=10.99 temp=17.36 hum=89.21 prs=994.6 Log=561 Err=0
id=664344 time=19.07.2019 05:39:15 Vmax=0 Vmin=0 Vmid=0 Napr=268 uakb=12.64 usb=11.34 temp=17.36 hum=89.21 prs=994.62 Log=560 Err=0
id=664343 time=19.07.2019 05:38:04 Vmax=0 Vmin=0 Vmid=0 Napr=268 uakb=12.64 usb=10.93 temp=17.35 hum=89.2 prs=994.65 Log=559 Err=0
id=664342 time=19.07.2019 05:36:54 Vmax=0 Vmin=0 Vmid=0 Napr=268 uakb=12.64 usb=9.9 temp=17.35 hum=89.19 prs=994.67 Log=558 Err=0
id=664341 time=19.07.2019 05:35:43 Vmax=0 Vmin=0 Vmid=0 Napr=268 uakb=12.64 usb=9.46 temp=17.34 hum=89.16 prs=994.66 Log=557 Err=0
id=664340 time=19.07.2019 05:34:33 Vmax=0 Vmin=0 Vmid=0 Napr=268 uakb=12.66 usb=8.39 temp=17.34 hum=89.16 prs=994.69 Log=556 Err=0
id=664339 time=19.07.2019 05:33:24 Vmax=0 Vmin=0 Vmid=0 Napr=268 uakb=12.64 usb=8.11 temp=17.34 hum=89.15 prs=994.68 Log=555 Err=0
id=664338 time=19.07.2019 05:32:12 Vmax=0 Vmin=0 Vmid=0 Napr=268 uakb=12.64 usb=8.25 temp=17.35 hum=89.14 prs=994.68 Log=554 Err=0
id=664337 time=19.07.2019 05:31:02 Vmax=0 Vmin=0 Vmid=0 Napr=268 uakb=12.64 usb=9 temp=17.35 hum=89.14 prs=994.66 Log=553 Err=0
id=664336 time=19.07.2019 05:29:51 Vmax=0 Vmin=0 Vmid=0 Napr=268 uakb=12.64 usb=8.59 temp=17.35 hum=89.13 prs=994.68 Log=552 Err=0
id=664335 time=19.07.2019 05:28:41 Vmax=0 Vmin=0 Vmid=0 Napr=268 uakb=12.64 usb=7.99 temp=17.35 hum=89.11 prs=994.67 Log=551 Err=0
id=664334 time=19.07.2019 05:27:30 Vmax=0 Vmin=0 Vmid=0 Napr=268 uakb=12.64 usb=7.12 temp=17.35 hum=89.11 prs=994.66 Log=550 Err=0
id=664333 time=19.07.2019 05:26:20 Vmax=0 Vmin=0 Vmid=0 Napr=268 uakb=12.64 usb=7.08 temp=17.35 hum=89.1 prs=994.68 Log=549 Err=0
id=664332 time=19.07.2019 05:25:10 Vmax=0 Vmin=0 Vmid=0 Napr=268 uakb=12.64 usb=5.43 temp=17.35 hum=89.09 prs=994.65 Log=548 Err=0
id=664331 time=19.07.2019 05:21:40 Vmax=0 Vmin=0 Vmid=0 Napr=268 uakb=12.64 usb=4.18 temp=17.36 hum=89.07 prs=994.68 Log=545 Err=0
id=664330 time=19.07.2019 05:20:30 Vmax=0 Vmin=0 Vmid=0 Napr=268 uakb=12.64 usb=2.44 temp=17.36 hum=89.05 prs=994.68 Log=544 Err=0
id=664329 time=19.07.2019 05:19:19 Vmax=0 Vmin=0 Vmid=0 Napr=268 uakb=12.64 usb=2.86 temp=17.35 hum=89.05 prs=994.67 Log=543 Err=0
id=664328 time=19.07.2019 05:18:09 Vmax=0 Vmin=0 Vmid=0 Napr=268 uakb=12.64 usb=1.51 temp=17.35 hum=89.04 prs=994.64 Log=542 Err=0
id=664327 time=19.07.2019 05:16:58 Vmax=0 Vmin=0 Vmid=0 Napr=268 uakb=12.64 usb=2.82 temp=17.34 hum=89.03 prs=994.66 Log=541 Err=0
id=664326 time=19.07.2019 05:15:48 Vmax=0 Vmin=0 Vmid=0 Napr=268 uakb=12.64 usb=2.82 temp=17.33 hum=89.01 prs=994.68 Log=540 Err=0
id=664325 time=19.07.2019 05:14:37 Vmax=0 Vmin=0 Vmid=0 Napr=268 uakb=12.66 usb=2.7 temp=17.34 hum=89.01 prs=994.68 Log=539 Err=0
id=664324 time=19.07.2019 05:13:27 Vmax=0 Vmin=0 Vmid=0 Napr=268 uakb=12.64 usb=1.86 temp=17.34 hum=89 prs=994.7 Log=538 Err=0
id=664323 time=19.07.2019 05:12:17 Vmax=0 Vmin=0 Vmid=0 Napr=268 uakb=12.64 usb=2.68 temp=17.35 hum=88.99 prs=994.7 Log=537 Err=0
id=664322 time=19.07.2019 05:11:06 Vmax=0 Vmin=0 Vmid=0 Napr=268 uakb=12.64 usb=2.48 temp=17.37 hum=88.97 prs=994.7 Log=536 Err=0
id=664321 time=19.07.2019 05:09:56 Vmax=0 Vmin=0 Vmid=0 Napr=268 uakb=12.64 usb=1.05 temp=17.38 hum=88.97 prs=994.71 Log=535 Err=0
id=664320 time=19.07.2019 05:08:46 Vmax=0 Vmin=0 Vmid=0 Napr=268 uakb=12.66 usb=1.51 temp=17.38 hum=88.95 prs=994.7 Log=534 Err=0
id=664319 time=19.07.2019 05:07:36 Vmax=0 Vmin=0 Vmid=0 Napr=268 uakb=12.64 usb=2.62 temp=17.39 hum=88.95 prs=994.71 Log=533 Err=0
id=664318 time=19.07.2019 05:06:25 Vmax=0 Vmin=0 Vmid=0 Napr=268 uakb=12.64 usb=2.02 temp=17.39 hum=88.92 prs=994.72 Log=532 Err=0
id=664317 time=19.07.2019 05:05:15 Vmax=0 Vmin=0 Vmid=0 Napr=268 uakb=12.66 usb=2.1 temp=17.4 hum=88.94 prs=994.69 Log=531 Err=0
id=664316 time=19.07.2019 05:04:04 Vmax=0 Vmin=0 Vmid=0 Napr=268 uakb=12.66 usb=2.28 temp=17.41 hum=88.92 prs=994.7 Log=530 Err=0
id=664315 time=19.07.2019 05:02:55 Vmax=0 Vmin=0 Vmid=0 Napr=268 uakb=12.64 usb=2.42 temp=17.42 hum=88.91 prs=994.69 Log=529 Err=0
id=664314 time=19.07.2019 05:01:44 Vmax=0 Vmin=0 Vmid=0 Napr=268 uakb=12.64 usb=0.71 temp=17.43 hum=88.92 prs=994.7 Log=528 Err=0
id=664313 time=19.07.2019 05:00:34 Vmax=0 Vmin=0 Vmid=0 Napr=268 uakb=12.66 usb=2 temp=17.44 hum=88.89 prs=994.72 Log=527 Err=0
id=664312 time=19.07.2019 04:59:23 Vmax=0 Vmin=0 Vmid=0 Napr=268 uakb=12.66 usb=0.08 temp=17.45 hum=88.88 prs=994.69 Log=526 Err=0
id=664311 time=19.07.2019 04:58:13 Vmax=0 Vmin=0 Vmid=0 Napr=268 uakb=12.66 usb=0.08 temp=17.46 hum=88.87 prs=994.7 Log=525 Err=0
id=664310 time=19.07.2019 04:57:03 Vmax=0 Vmin=0 Vmid=0 Napr=268 uakb=12.64 usb=0.08 temp=17.48 hum=88.87 prs=994.68 Log=524 Err=0
id=664309 time=19.07.2019 04:55:52 Vmax=0 Vmin=0 Vmid=0 Napr=268 uakb=12.66 usb=0.08 temp=17.48 hum=88.84 prs=994.72 Log=523 Err=0
id=664308 time=19.07.2019 04:54:41 Vmax=0 Vmin=0 Vmid=0 Napr=268 uakb=12.64 usb=0.06 temp=17.49 hum=88.83 prs=994.71 Log=522 Err=0
id=664307 time=19.07.2019 04:53:31 Vmax=0 Vmin=0 Vmid=0 Napr=268 uakb=12.66 usb=0.08 temp=17.5 hum=88.83 prs=994.7 Log=521 Err=0
id=664306 time=19.07.2019 04:52:20 Vmax=0 Vmin=0 Vmid=0 Napr=268 uakb=12.66 usb=0.08 temp=17.51 hum=88.81 prs=994.73 Log=520 Err=0
id=664305 time=19.07.2019 04:51:11 Vmax=0 Vmin=0 Vmid=0 Napr=268 uakb=12.66 usb=0.06 temp=17.53 hum=88.81 prs=994.72 Log=519 Err=0
id=664304 time=19.07.2019 04:50:00 Vmax=0 Vmin=0 Vmid=0 Napr=268 uakb=12.66 usb=0.08 temp=17.54 hum=88.79 prs=994.7 Log=518 Err=0
id=664303 time=19.07.2019 04:48:49 Vmax=0 Vmin=0 Vmid=0 Napr=268 uakb=12.66 usb=0.06 temp=17.54 hum=88.79 prs=994.7 Log=517 Err=0
id=664302 time=19.07.2019 04:47:39 Vmax=0 Vmin=0 Vmid=0 Napr=268 uakb=12.66 usb=0.08 temp=17.55 hum=88.77 prs=994.7 Log=516 Err=0
id=664301 time=19.07.2019 04:46:29 Vmax=0 Vmin=0 Vmid=0 Napr=268 uakb=12.66 usb=0.08 temp=17.55 hum=88.76 prs=994.7 Log=515 Err=0
id=664300 time=19.07.2019 04:42:59 Vmax=0 Vmin=0 Vmid=0 Napr=267 uakb=12.66 usb=0.08 temp=17.62 hum=88.73 prs=994.69 Log=512 Err=0
id=664299 time=19.07.2019 04:41:49 Vmax=0 Vmin=0 Vmid=0 Napr=267 uakb=12.66 usb=0.08 temp=17.65 hum=88.72 prs=994.67 Log=511 Err=0
id=664298 time=19.07.2019 04:40:38 Vmax=0 Vmin=0 Vmid=0 Napr=267 uakb=12.64 usb=0.08 temp=17.67 hum=88.71 prs=994.7 Log=510 Err=0
id=664297 time=19.07.2019 04:39:28 Vmax=0 Vmin=0 Vmid=0 Napr=267 uakb=12.66 usb=0.08 temp=17.7 hum=88.7 prs=994.7 Log=509 Err=0
id=664296 time=19.07.2019 04:38:18 Vmax=0 Vmin=0 Vmid=0 Napr=267 uakb=12.66 usb=0.06 temp=17.72 hum=88.7 prs=994.71 Log=508 Err=0
id=664295 time=19.07.2019 04:37:07 Vmax=0 Vmin=0 Vmid=0 Napr=267 uakb=12.66 usb=0.08 temp=17.74 hum=88.68 prs=994.69 Log=507 Err=0
id=664294 time=19.07.2019 04:35:57 Vmax=0 Vmin=0 Vmid=0 Napr=267 uakb=12.64 usb=0.06 temp=17.76 hum=88.65 prs=994.68 Log=506 Err=0
id=664293 time=19.07.2019 04:34:46 Vmax=0 Vmin=0 Vmid=0 Napr=267 uakb=12.66 usb=0.08 temp=17.78 hum=88.64 prs=994.7 Log=505 Err=0
id=664292 time=19.07.2019 04:33:37 Vmax=0 Vmin=0 Vmid=0 Napr=267 uakb=12.64 usb=0.08 temp=17.8 hum=88.65 prs=994.64 Log=504 Err=0
id=664291 time=19.07.2019 04:32:26 Vmax=0 Vmin=0 Vmid=0 Napr=267 uakb=12.66 usb=0.08 temp=17.81 hum=88.65 prs=994.65 Log=503 Err=0
id=664290 time=19.07.2019 04:28:55 Vmax=0 Vmin=0 Vmid=0 Napr=267 uakb=12.66 usb=0.08 temp=17.84 hum=88.6 prs=994.68 Log=500 Err=0
id=664289 time=19.07.2019 04:27:44 Vmax=0 Vmin=0 Vmid=0 Napr=267 uakb=12.64 usb=0.08 temp=17.84 hum=88.59 prs=994.7 Log=499 Err=0
id=664288 time=19.07.2019 04:25:25 Vmax=0 Vmin=0 Vmid=0 Napr=267 uakb=12.66 usb=0.08 temp=17.85 hum=88.55 prs=994.7 Log=497 Err=0
id=664287 time=19.07.2019 04:24:14 Vmax=0 Vmin=0 Vmid=0 Napr=267 uakb=12.66 usb=0.08 temp=17.85 hum=88.55 prs=994.69 Log=496 Err=0
id=664286 time=19.07.2019 04:23:04 Vmax=0 Vmin=0 Vmid=0 Napr=267 uakb=12.66 usb=0.08 temp=17.87 hum=88.56 prs=994.74 Log=495 Err=0
id=664285 time=19.07.2019 04:21:53 Vmax=0 Vmin=0 Vmid=0 Napr=267 uakb=12.66 usb=0.08 temp=17.88 hum=88.53 prs=994.74 Log=494 Err=0
id=664284 time=19.07.2019 04:20:43 Vmax=0 Vmin=0 Vmid=0 Napr=267 uakb=12.66 usb=0.06 temp=17.88 hum=88.52 prs=994.75 Log=493 Err=0
id=664283 time=19.07.2019 04:19:34 Vmax=0 Vmin=0 Vmid=0 Napr=267 uakb=12.66 usb=0.08 temp=17.88 hum=88.51 prs=994.74 Log=492 Err=0
id=664282 time=19.07.2019 04:18:23 Vmax=0 Vmin=0 Vmid=0 Napr=266 uakb=12.66 usb=0.08 temp=17.88 hum=88.5 prs=994.76 Log=491 Err=0
id=664281 time=19.07.2019 04:17:14 Vmax=0 Vmin=0 Vmid=0 Napr=266 uakb=12.66 usb=0.08 temp=17.88 hum=88.49 prs=994.78 Log=490 Err=0
id=664280 time=19.07.2019 04:14:52 Vmax=0 Vmin=0 Vmid=0 Napr=266 uakb=12.66 usb=0.08 temp=17.89 hum=88.46 prs=994.77 Log=488 Err=0
id=664279 time=19.07.2019 04:13:42 Vmax=0 Vmin=0 Vmid=0 Napr=266 uakb=12.66 usb=0.08 temp=17.88 hum=88.46 prs=994.79 Log=487 Err=0
id=664278 time=19.07.2019 04:12:31 Vmax=0 Vmin=0 Vmid=0 Napr=266 uakb=12.66 usb=0.08 temp=17.88 hum=88.45 prs=994.83 Log=486 Err=0
id=664277 time=19.07.2019 04:11:20 Vmax=0 Vmin=0 Vmid=0 Napr=266 uakb=12.66 usb=0.08 temp=17.88 hum=88.43 prs=994.85 Log=485 Err=0
id=664276 time=19.07.2019 04:10:10 Vmax=0 Vmin=0 Vmid=0 Napr=266 uakb=12.66 usb=0.06 temp=17.88 hum=88.44 prs=994.84 Log=484 Err=0
id=664275 time=19.07.2019 04:09:00 Vmax=0 Vmin=0 Vmid=0 Napr=266 uakb=12.66 usb=0.08 temp=17.88 hum=88.42 prs=994.85 Log=483 Err=0
id=664274 time=19.07.2019 04:07:50 Vmax=0 Vmin=0 Vmid=0 Napr=266 uakb=12.66 usb=0.08 temp=17.88 hum=88.4 prs=994.89 Log=482 Err=0
id=664273 time=19.07.2019 04:06:39 Vmax=0 Vmin=0 Vmid=0 Napr=265 uakb=12.66 usb=0.08 temp=17.86 hum=88.4 prs=994.88 Log=481 Err=0
id=664272 time=19.07.2019 04:05:29 Vmax=0 Vmin=0 Vmid=0 Napr=263 uakb=12.66 usb=0.06 temp=17.86 hum=88.4 prs=994.88 Log=480 Err=0
id=664271 time=19.07.2019 04:04:19 Vmax=0 Vmin=0 Vmid=0 Napr=263 uakb=12.66 usb=0.06 temp=17.85 hum=88.38 prs=994.89 Log=479 Err=0
id=664270 time=19.07.2019 04:03:10 Vmax=0 Vmin=0 Vmid=0 Napr=263 uakb=12.66 usb=0.08 temp=17.84 hum=88.37 prs=994.91 Log=478 Err=0
id=664269 time=19.07.2019 04:01:58 Vmax=0 Vmin=0 Vmid=0 Napr=263 uakb=12.66 usb=0.08 temp=17.83 hum=88.37 prs=994.89 Log=477 Err=0
id=664268 time=19.07.2019 04:00:47 Vmax=0 Vmin=0 Vmid=0 Napr=263 uakb=12.66 usb=0.08 temp=17.83 hum=88.34 prs=994.88 Log=476 Err=0
id=664267 time=19.07.2019 03:59:38 Vmax=0 Vmin=0 Vmid=0 Napr=263 uakb=12.66 usb=0.08 temp=17.83 hum=88.33 prs=994.88 Log=475 Err=0
id=664266 time=19.07.2019 03:58:27 Vmax=0 Vmin=0 Vmid=0 Napr=263 uakb=12.66 usb=0.08 temp=17.83 hum=88.32 prs=994.87 Log=474 Err=0
id=664265 time=19.07.2019 03:57:17 Vmax=0 Vmin=0 Vmid=0 Napr=263 uakb=12.66 usb=0.08 temp=17.84 hum=88.31 prs=994.88 Log=473 Err=0
id=664264 time=19.07.2019 03:56:06 Vmax=0 Vmin=0 Vmid=0 Napr=263 uakb=12.66 usb=0.08 temp=17.85 hum=88.29 prs=994.86 Log=472 Err=0
id=664263 time=19.07.2019 03:54:56 Vmax=0 Vmin=0 Vmid=0 Napr=263 uakb=12.66 usb=0.08 temp=17.85 hum=88.29 prs=994.85 Log=471 Err=0
id=664262 time=19.07.2019 03:53:45 Vmax=0 Vmin=0 Vmid=0 Napr=263 uakb=12.66 usb=0.08 temp=17.84 hum=88.27 prs=994.85 Log=470 Err=0
id=664261 time=19.07.2019 03:52:35 Vmax=0 Vmin=0 Vmid=0 Napr=263 uakb=12.66 usb=0.08 temp=17.84 hum=88.27 prs=994.83 Log=469 Err=0
id=664260 time=19.07.2019 03:51:24 Vmax=0 Vmin=0 Vmid=0 Napr=263 uakb=12.66 usb=0.08 temp=17.82 hum=88.25 prs=994.81 Log=468 Err=0
id=664259 time=19.07.2019 03:50:15 Vmax=0 Vmin=0 Vmid=0 Napr=263 uakb=12.66 usb=0.08 temp=17.81 hum=88.24 prs=994.79 Log=467 Err=0
id=664258 time=19.07.2019 03:49:04 Vmax=0 Vmin=0 Vmid=0 Napr=261 uakb=12.66 usb=0.08 temp=17.79 hum=88.23 prs=994.77 Log=466 Err=0
id=664257 time=19.07.2019 03:47:54 Vmax=0 Vmin=0 Vmid=0 Napr=257 uakb=12.66 usb=0.08 temp=17.79 hum=88.2 prs=994.74 Log=465 Err=0
id=664256 time=19.07.2019 03:46:43 Vmax=0 Vmin=0 Vmid=0 Napr=255 uakb=12.64 usb=0.08 temp=17.78 hum=88.21 prs=994.71 Log=464 Err=0
id=664255 time=19.07.2019 03:45:33 Vmax=0 Vmin=0 Vmid=0 Napr=255 uakb=12.66 usb=0.06 temp=17.77 hum=88.18 prs=994.67 Log=463 Err=0
id=664254 time=19.07.2019 03:44:22 Vmax=0 Vmin=0 Vmid=0 Napr=255 uakb=12.66 usb=0.08 temp=17.76 hum=88.19 prs=994.63 Log=462 Err=0
id=664253 time=19.07.2019 03:43:12 Vmax=0 Vmin=0 Vmid=0 Napr=255 uakb=12.66 usb=0.08 temp=17.75 hum=88.15 prs=994.63 Log=461 Err=0
id=664252 time=19.07.2019 03:42:02 Vmax=0 Vmin=0 Vmid=0 Napr=255 uakb=12.66 usb=0.06 temp=17.74 hum=88.14 prs=994.61 Log=460 Err=0
id=664251 time=19.07.2019 03:40:51 Vmax=0 Vmin=0 Vmid=0 Napr=255 uakb=12.66 usb=0.08 temp=17.74 hum=88.12 prs=994.58 Log=459 Err=0
id=664250 time=19.07.2019 03:38:31 Vmax=0 Vmin=0 Vmid=0 Napr=255 uakb=12.68 usb=0.08 temp=17.74 hum=88.12 prs=994.52 Log=457 Err=0
id=664249 time=19.07.2019 03:37:21 Vmax=0 Vmin=0 Vmid=0 Napr=255 uakb=12.66 usb=0.08 temp=17.72 hum=88.11 prs=994.52 Log=456 Err=0
id=664248 time=19.07.2019 03:36:10 Vmax=0 Vmin=0 Vmid=0 Napr=255 uakb=12.66 usb=0.06 temp=17.71 hum=88.09 prs=994.5 Log=455 Err=0
id=664247 time=19.07.2019 03:35:00 Vmax=0 Vmin=0 Vmid=0 Napr=255 uakb=12.66 usb=0.08 temp=17.69 hum=88.08 prs=994.5 Log=454 Err=0
id=664246 time=19.07.2019 03:32:40 Vmax=0 Vmin=0 Vmid=0 Napr=255 uakb=12.66 usb=0.08 temp=17.65 hum=88.07 prs=994.47 Log=452 Err=0
id=664245 time=19.07.2019 03:31:31 Vmax=0 Vmin=0 Vmid=0 Napr=255 uakb=12.66 usb=0.08 temp=17.63 hum=88.04 prs=994.42 Log=451 Err=0
id=664244 time=19.07.2019 03:30:19 Vmax=0 Vmin=0 Vmid=0 Napr=255 uakb=12.66 usb=0.08 temp=17.62 hum=88.02 prs=994.41 Log=450 Err=0
id=664243 time=19.07.2019 03:27:59 Vmax=0 Vmin=0 Vmid=0 Napr=256 uakb=12.66 usb=0.06 temp=17.57 hum=88 prs=994.37 Log=448 Err=0
id=664242 time=19.07.2019 03:26:48 Vmax=0 Vmin=0 Vmid=0 Napr=256 uakb=12.66 usb=0.08 temp=17.53 hum=87.99 prs=994.38 Log=447 Err=0
id=664241 time=19.07.2019 03:25:38 Vmax=0 Vmin=0 Vmid=0 Napr=256 uakb=12.66 usb=0.08 temp=17.51 hum=87.98 prs=994.39 Log=446 Err=0
id=664240 time=19.07.2019 03:24:28 Vmax=0 Vmin=0 Vmid=0 Napr=256 uakb=12.66 usb=0.06 temp=17.49 hum=87.97 prs=994.38 Log=445 Err=0
id=664239 time=19.07.2019 03:23:18 Vmax=0 Vmin=0 Vmid=0 Napr=259 uakb=12.66 usb=0.06 temp=17.46 hum=87.95 prs=994.38 Log=444 Err=0
id=664238 time=19.07.2019 03:22:07 Vmax=0 Vmin=0 Vmid=0 Napr=266 uakb=12.66 usb=0.08 temp=17.42 hum=87.95 prs=994.37 Log=443 Err=0
id=664237 time=19.07.2019 03:20:57 Vmax=0 Vmin=0 Vmid=0 Napr=283 uakb=12.66 usb=0.08 temp=17.35 hum=87.95 prs=994.39 Log=442 Err=0
id=664236 time=19.07.2019 03:19:47 Vmax=0 Vmin=0 Vmid=0 Napr=329 uakb=12.66 usb=0.08 temp=17.25 hum=87.94 prs=994.35 Log=441 Err=0
id=664235 time=19.07.2019 03:18:37 Vmax=0 Vmin=0 Vmid=0 Napr=57 uakb=12.66 usb=0.06 temp=17.17 hum=87.91 prs=994.33 Log=440 Err=0
id=664234 time=19.07.2019 03:17:26 Vmax=0 Vmin=0 Vmid=0 Napr=57 uakb=12.66 usb=0.06 temp=17.16 hum=87.89 prs=994.29 Log=439 Err=0
id=664233 time=19.07.2019 03:16:16 Vmax=0 Vmin=0 Vmid=0 Napr=57 uakb=12.66 usb=0.06 temp=17.16 hum=87.85 prs=994.27 Log=438 Err=0
id=664232 time=19.07.2019 03:15:06 Vmax=0 Vmin=0 Vmid=0 Napr=57 uakb=12.66 usb=0.08 temp=17.18 hum=87.87 prs=994.23 Log=437 Err=0
id=664231 time=19.07.2019 03:13:55 Vmax=0 Vmin=0 Vmid=0 Napr=57 uakb=12.66 usb=0.06 temp=17.19 hum=87.85 prs=994.2 Log=436 Err=0
id=664230 time=19.07.2019 03:12:45 Vmax=0 Vmin=0 Vmid=0 Napr=57 uakb=12.68 usb=0.06 temp=17.21 hum=87.84 prs=994.2 Log=435 Err=0
id=664229 time=19.07.2019 03:06:55 Vmax=0 Vmin=0 Vmid=0 Napr=57 uakb=12.66 usb=0.08 temp=17.33 hum=87.75 prs=994.22 Log=430 Err=0
id=664228 time=19.07.2019 03:05:44 Vmax=0 Vmin=0 Vmid=0 Napr=57 uakb=12.66 usb=0.06 temp=17.35 hum=87.75 prs=994.23 Log=429 Err=0
id=664227 time=19.07.2019 03:04:34 Vmax=0 Vmin=0 Vmid=0 Napr=57 uakb=12.68 usb=0.06 temp=17.39 hum=87.73 prs=994.22 Log=428 Err=0
id=664226 time=19.07.2019 03:03:23 Vmax=0 Vmin=0 Vmid=0 Napr=57 uakb=12.66 usb=0.06 temp=17.42 hum=87.72 prs=994.22 Log=427 Err=0
id=664225 time=19.07.2019 03:02:15 Vmax=0 Vmin=0 Vmid=0 Napr=57 uakb=12.68 usb=0.06 temp=17.44 hum=87.72 prs=994.21 Log=426 Err=0
id=664224 time=19.07.2019 03:01:02 Vmax=0 Vmin=0 Vmid=0 Napr=57 uakb=12.66 usb=0.06 temp=17.45 hum=87.7 prs=994.21 Log=425 Err=0
id=664223 time=19.07.2019 02:59:53 Vmax=0 Vmin=0 Vmid=0 Napr=57 uakb=12.68 usb=0.06 temp=17.46 hum=87.69 prs=994.23 Log=424 Err=0
id=664222 time=19.07.2019 02:58:43 Vmax=0 Vmin=0 Vmid=0 Napr=57 uakb=12.66 usb=0.08 temp=17.45 hum=87.68 prs=994.25 Log=423 Err=0
id=664221 time=19.07.2019 02:57:32 Vmax=0 Vmin=0 Vmid=0 Napr=57 uakb=12.66 usb=0.06 temp=17.44 hum=87.68 prs=994.25 Log=422 Err=0
id=664220 time=19.07.2019 02:56:22 Vmax=0 Vmin=0 Vmid=0 Napr=57 uakb=12.68 usb=0.06 temp=17.42 hum=87.68 prs=994.25 Log=421 Err=0
id=664219 time=19.07.2019 02:55:12 Vmax=0 Vmin=0 Vmid=0 Napr=57 uakb=12.68 usb=0.08 temp=17.4 hum=87.65 prs=994.23 Log=420 Err=0
id=664218 time=19.07.2019 02:54:01 Vmax=0 Vmin=0 Vmid=0 Napr=57 uakb=12.66 usb=0.06 temp=17.37 hum=87.65 prs=994.24 Log=419 Err=0
id=664217 time=19.07.2019 02:52:51 Vmax=0 Vmin=0 Vmid=0 Napr=57 uakb=12.68 usb=0.06 temp=17.35 hum=87.62 prs=994.19 Log=418 Err=0
id=664216 time=19.07.2019 02:51:39 Vmax=0 Vmin=0 Vmid=0 Napr=57 uakb=12.66 usb=0.06 temp=17.33 hum=87.63 prs=994.22 Log=417 Err=0
id=664215 time=19.07.2019 02:50:30 Vmax=0 Vmin=0 Vmid=0 Napr=57 uakb=12.68 usb=0.06 temp=17.3 hum=87.6 prs=994.21 Log=416 Err=0
id=664214 time=19.07.2019 02:49:19 Vmax=0 Vmin=0 Vmid=0 Napr=57 uakb=12.68 usb=0.06 temp=17.28 hum=87.61 prs=994.22 Log=415 Err=0
id=664213 time=19.07.2019 02:46:59 Vmax=0 Vmin=0 Vmid=0 Napr=57 uakb=12.68 usb=0.06 temp=17.14 hum=87.58 prs=994.22 Log=413 Err=0
id=664212 time=19.07.2019 02:45:49 Vmax=0 Vmin=0 Vmid=0 Napr=57 uakb=12.68 usb=0.06 temp=17.1 hum=87.55 prs=994.23 Log=412 Err=0
id=664211 time=19.07.2019 02:44:38 Vmax=0 Vmin=0 Vmid=0 Napr=57 uakb=12.68 usb=0.06 temp=17.1 hum=87.54 prs=994.26 Log=411 Err=0
id=664210 time=19.07.2019 02:43:28 Vmax=0 Vmin=0 Vmid=0 Napr=57 uakb=12.66 usb=0.06 temp=17.09 hum=87.51 prs=994.26 Log=410 Err=0
id=664209 time=19.07.2019 02:42:17 Vmax=0 Vmin=0 Vmid=0 Napr=57 uakb=12.68 usb=0.08 temp=17.07 hum=87.51 prs=994.27 Log=409 Err=0
id=664208 time=19.07.2019 02:41:08 Vmax=0 Vmin=0 Vmid=0 Napr=57 uakb=12.68 usb=0.08 temp=17.05 hum=87.51 prs=994.27 Log=408 Err=0
id=664207 time=19.07.2019 02:38:47 Vmax=0 Vmin=0 Vmid=0 Napr=57 uakb=12.68 usb=0.06 temp=16.99 hum=87.47 prs=994.24 Log=406 Err=0
id=664206 time=19.07.2019 02:37:37 Vmax=0 Vmin=0 Vmid=0 Napr=57 uakb=12.68 usb=0.06 temp=16.97 hum=87.46 prs=994.26 Log=405 Err=0
id=664205 time=19.07.2019 02:36:27 Vmax=0 Vmin=0 Vmid=0 Napr=57 uakb=12.66 usb=0.06 temp=16.93 hum=87.44 prs=994.25 Log=404 Err=0
id=664204 time=19.07.2019 02:35:16 Vmax=0 Vmin=0 Vmid=0 Napr=57 uakb=12.68 usb=0.06 temp=16.89 hum=87.43 prs=994.23 Log=403 Err=0
id=664203 time=19.07.2019 02:31:47 Vmax=0 Vmin=0 Vmid=0 Napr=57 uakb=12.68 usb=0.06 temp=16.86 hum=87.36 prs=994.21 Log=400 Err=0
id=664202 time=19.07.2019 02:30:36 Vmax=0 Vmin=0 Vmid=0 Napr=57 uakb=12.68 usb=0.06 temp=16.85 hum=87.36 prs=994.18 Log=399 Err=0
id=664201 time=19.07.2019 02:29:27 Vmax=0 Vmin=0 Vmid=0 Napr=57 uakb=12.68 usb=0.08 temp=16.85 hum=87.35 prs=994.18 Log=398 Err=0
id=664200 time=19.07.2019 02:28:15 Vmax=0 Vmin=0 Vmid=0 Napr=57 uakb=12.66 usb=0.06 temp=16.85 hum=87.33 prs=994.19 Log=397 Err=0
id=664199 time=19.07.2019 02:24:45 Vmax=0 Vmin=0 Vmid=0 Napr=57 uakb=12.68 usb=0.08 temp=16.84 hum=87.29 prs=994.22 Log=394 Err=0
id=664198 time=19.07.2019 02:23:35 Vmax=0 Vmin=0 Vmid=0 Napr=57 uakb=12.68 usb=0.06 temp=16.84 hum=87.27 prs=994.23 Log=393 Err=0
id=664197 time=19.07.2019 02:22:25 Vmax=0 Vmin=0 Vmid=0 Napr=57 uakb=12.66 usb=0.06 temp=16.83 hum=87.27 prs=994.24 Log=392 Err=0
id=664196 time=19.07.2019 02:21:15 Vmax=0 Vmin=0 Vmid=0 Napr=57 uakb=12.66 usb=0.06 temp=16.82 hum=87.24 prs=994.22 Log=391 Err=0
id=664195 time=19.07.2019 02:20:04 Vmax=0 Vmin=0 Vmid=0 Napr=57 uakb=12.68 usb=0.06 temp=16.82 hum=87.21 prs=994.23 Log=390 Err=0
id=664194 time=19.07.2019 02:18:53 Vmax=0 Vmin=0 Vmid=0 Napr=57 uakb=12.68 usb=0.06 temp=16.82 hum=87.21 prs=994.28 Log=389 Err=0
id=664193 time=19.07.2019 02:17:43 Vmax=0 Vmin=0 Vmid=0 Napr=57 uakb=12.68 usb=0.08 temp=16.82 hum=87.21 prs=994.31 Log=388 Err=0
id=664192 time=19.07.2019 02:16:33 Vmax=0 Vmin=0 Vmid=0 Napr=57 uakb=12.68 usb=0.06 temp=16.83 hum=87.19 prs=994.34 Log=387 Err=0
id=664191 time=19.07.2019 02:14:12 Vmax=0 Vmin=0 Vmid=0 Napr=57 uakb=12.68 usb=0.08 temp=16.84 hum=87.15 prs=994.42 Log=385 Err=0
id=664190 time=19.07.2019 02:13:03 Vmax=0 Vmin=0 Vmid=0 Napr=57 uakb=12.66 usb=0.06 temp=16.84 hum=87.13 prs=994.46 Log=384 Err=0
id=664189 time=19.07.2019 02:11:52 Vmax=0 Vmin=0 Vmid=0 Napr=57 uakb=12.68 usb=0.08 temp=16.86 hum=87.12 prs=994.46 Log=383 Err=0
id=664188 time=19.07.2019 02:10:41 Vmax=0 Vmin=0 Vmid=0 Napr=57 uakb=12.68 usb=0.08 temp=16.86 hum=87.1 prs=994.49 Log=382 Err=0
id=664187 time=19.07.2019 02:09:31 Vmax=0 Vmin=0 Vmid=0 Napr=57 uakb=12.68 usb=0.08 temp=16.87 hum=87.09 prs=994.5 Log=381 Err=0
id=664186 time=19.07.2019 02:08:21 Vmax=0 Vmin=0 Vmid=0 Napr=57 uakb=12.68 usb=0.06 temp=16.9 hum=87.06 prs=994.53 Log=380 Err=0
id=664185 time=19.07.2019 02:07:11 Vmax=0 Vmin=0 Vmid=0 Napr=57 uakb=12.68 usb=0.08 temp=16.91 hum=87.04 prs=994.54 Log=379 Err=0
id=664184 time=19.07.2019 02:03:40 Vmax=0 Vmin=0 Vmid=0 Napr=57 uakb=12.68 usb=0.06 temp=16.96 hum=87.01 prs=994.58 Log=376 Err=0
id=664183 time=19.07.2019 02:02:31 Vmax=0 Vmin=0 Vmid=0 Napr=57 uakb=12.68 usb=0.06 temp=16.97 hum=86.98 prs=994.54 Log=375 Err=0
id=664182 time=19.07.2019 02:01:20 Vmax=0 Vmin=0 Vmid=0 Napr=57 uakb=12.68 usb=0.08 temp=16.98 hum=86.97 prs=994.56 Log=374 Err=0
id=664181 time=19.07.2019 02:00:09 Vmax=0 Vmin=0 Vmid=0 Napr=57 uakb=12.68 usb=0.08 temp=16.99 hum=86.96 prs=994.56 Log=373 Err=0
id=664180 time=19.07.2019 01:56:40 Vmax=0 Vmin=0 Vmid=0 Napr=57 uakb=12.68 usb=0.06 temp=17.02 hum=86.91 prs=994.63 Log=370 Err=0
id=664179 time=19.07.2019 01:55:29 Vmax=0 Vmin=0 Vmid=0 Napr=57 uakb=12.68 usb=0.06 temp=17.02 hum=86.89 prs=994.65 Log=369 Err=0
id=664178 time=19.07.2019 01:54:19 Vmax=0 Vmin=0 Vmid=0 Napr=57 uakb=12.68 usb=0.06 temp=17.03 hum=86.87 prs=994.67 Log=368 Err=0
id=664177 time=19.07.2019 01:50:48 Vmax=0 Vmin=0 Vmid=0 Napr=57 uakb=12.68 usb=0.08 temp=17.05 hum=86.82 prs=994.71 Log=365 Err=0
id=664176 time=19.07.2019 01:49:38 Vmax=0 Vmin=0 Vmid=0 Napr=57 uakb=12.66 usb=0.06 temp=17.06 hum=86.81 prs=994.71 Log=364 Err=0
id=664175 time=19.07.2019 01:48:27 Vmax=0 Vmin=0 Vmid=0 Napr=57 uakb=12.68 usb=0.08 temp=17.07 hum=86.79 prs=994.75 Log=363 Err=0
id=664174 time=19.07.2019 01:47:18 Vmax=0 Vmin=0 Vmid=0 Napr=57 uakb=12.68 usb=0.08 temp=17.09 hum=86.77 prs=994.74 Log=362 Err=0
id=664173 time=19.07.2019 01:46:06 Vmax=0 Vmin=0 Vmid=0 Napr=57 uakb=12.68 usb=0.08 temp=17.1 hum=86.75 prs=994.73 Log=361 Err=0
id=664172 time=19.07.2019 01:44:56 Vmax=0 Vmin=0 Vmid=0 Napr=57 uakb=12.68 usb=0.06 temp=17.12 hum=86.72 prs=994.71 Log=360 Err=0
id=664171 time=19.07.2019 01:43:47 Vmax=0 Vmin=0 Vmid=0 Napr=57 uakb=12.68 usb=0.06 temp=17.14 hum=86.73 prs=994.75 Log=359 Err=0
id=664170 time=19.07.2019 01:42:37 Vmax=0 Vmin=0 Vmid=0 Napr=57 uakb=12.68 usb=0.08 temp=17.17 hum=86.71 prs=994.73 Log=358 Err=0
id=664169 time=19.07.2019 01:41:26 Vmax=0 Vmin=0 Vmid=0 Napr=57 uakb=12.68 usb=0.06 temp=17.2 hum=86.67 prs=994.73 Log=357 Err=0
id=664168 time=19.07.2019 01:40:15 Vmax=0 Vmin=0 Vmid=0 Napr=57 uakb=12.68 usb=0.06 temp=17.23 hum=86.66 prs=994.69 Log=356 Err=0
id=664167 time=19.07.2019 01:39:06 Vmax=0 Vmin=0 Vmid=0 Napr=57 uakb=12.66 usb=0.08 temp=17.25 hum=86.65 prs=994.66 Log=355 Err=0
id=664166 time=19.07.2019 01:37:55 Vmax=0 Vmin=0 Vmid=0 Napr=57 uakb=12.66 usb=0.06 temp=17.27 hum=86.64 prs=994.65 Log=354 Err=0
id=664165 time=19.07.2019 01:36:44 Vmax=0 Vmin=0 Vmid=0 Napr=57 uakb=12.68 usb=0.06 temp=17.29 hum=86.61 prs=994.64 Log=353 Err=0
id=664164 time=19.07.2019 01:35:35 Vmax=0 Vmin=0 Vmid=0 Napr=57 uakb=12.68 usb=0.08 temp=17.3 hum=86.61 prs=994.64 Log=352 Err=0
id=664163 time=19.07.2019 01:34:24 Vmax=0 Vmin=0 Vmid=0 Napr=57 uakb=12.68 usb=0.06 temp=17.31 hum=86.58 prs=994.63 Log=351 Err=0
id=664162 time=19.07.2019 01:33:13 Vmax=0 Vmin=0 Vmid=0 Napr=57 uakb=12.68 usb=0.06 temp=17.31 hum=86.56 prs=994.63 Log=350 Err=0
id=664161 time=19.07.2019 01:32:02 Vmax=0 Vmin=0 Vmid=0 Napr=57 uakb=12.68 usb=0.08 temp=17.31 hum=86.55 prs=994.71 Log=349 Err=0
id=664160 time=19.07.2019 01:30:52 Vmax=0 Vmin=0 Vmid=0 Napr=57 uakb=12.68 usb=0.06 temp=17.3 hum=86.55 prs=994.66 Log=348 Err=0
id=664159 time=19.07.2019 01:29:42 Vmax=0 Vmin=0 Vmid=0 Napr=57 uakb=12.66 usb=0.06 temp=17.28 hum=86.53 prs=994.67 Log=347 Err=0
id=664158 time=19.07.2019 01:27:22 Vmax=0 Vmin=0 Vmid=0 Napr=57 uakb=12.68 usb=0.08 temp=17.27 hum=86.48 prs=994.66 Log=345 Err=0
id=664157 time=19.07.2019 01:26:12 Vmax=0 Vmin=0 Vmid=0 Napr=57 uakb=12.68 usb=0.08 temp=17.25 hum=86.46 prs=994.65 Log=344 Err=0
id=664156 time=19.07.2019 01:25:02 Vmax=0 Vmin=0 Vmid=0 Napr=57 uakb=12.68 usb=0.08 temp=17.25 hum=86.44 prs=994.65 Log=343 Err=0
id=664155 time=19.07.2019 01:23:50 Vmax=0 Vmin=0 Vmid=0 Napr=57 uakb=12.68 usb=0.08 temp=17.24 hum=86.43 prs=994.66 Log=342 Err=0
id=664154 time=19.07.2019 01:22:41 Vmax=0 Vmin=0 Vmid=0 Napr=57 uakb=12.68 usb=0.06 temp=17.24 hum=86.42 prs=994.68 Log=341 Err=0
id=664153 time=19.07.2019 01:21:31 Vmax=0 Vmin=0 Vmid=0 Napr=57 uakb=12.68 usb=0.06 temp=17.24 hum=86.41 prs=994.69 Log=340 Err=0
id=664152 time=19.07.2019 01:20:20 Vmax=0 Vmin=0 Vmid=0 Napr=57 uakb=12.68 usb=0.06 temp=17.23 hum=86.38 prs=994.68 Log=339 Err=0
id=664151 time=19.07.2019 01:19:11 Vmax=0 Vmin=0 Vmid=0 Napr=57 uakb=12.68 usb=0.06 temp=17.23 hum=86.36 prs=994.73 Log=338 Err=0
id=664150 time=19.07.2019 01:17:59 Vmax=0 Vmin=0 Vmid=0 Napr=57 uakb=12.68 usb=0.06 temp=17.22 hum=86.34 prs=994.75 Log=337 Err=0
id=664149 time=19.07.2019 01:16:49 Vmax=0 Vmin=0 Vmid=0 Napr=57 uakb=12.68 usb=0.06 temp=17.21 hum=86.32 prs=994.79 Log=336 Err=0
id=664148 time=19.07.2019 01:15:38 Vmax=0 Vmin=0 Vmid=0 Napr=57 uakb=12.68 usb=0.06 temp=17.19 hum=86.31 prs=994.8 Log=335 Err=0
id=664147 time=19.07.2019 01:14:28 Vmax=0 Vmin=0 Vmid=0 Napr=57 uakb=12.68 usb=0.06 temp=17.19 hum=86.29 prs=994.82 Log=334 Err=0
id=664146 time=19.07.2019 01:13:18 Vmax=0 Vmin=0 Vmid=0 Napr=57 uakb=12.68 usb=0.08 temp=17.18 hum=86.26 prs=994.85 Log=333 Err=0
id=664145 time=19.07.2019 01:12:08 Vmax=0 Vmin=0 Vmid=0 Napr=57 uakb=12.68 usb=0.08 temp=17.19 hum=86.25 prs=994.88 Log=332 Err=0
id=664144 time=19.07.2019 01:10:58 Vmax=0 Vmin=0 Vmid=0 Napr=57 uakb=12.68 usb=0.08 temp=17.18 hum=86.23 prs=994.9 Log=331 Err=0
id=664143 time=19.07.2019 01:05:07 Vmax=0 Vmin=0 Vmid=0 Napr=57 uakb=12.66 usb=0.06 temp=17.19 hum=86.12 prs=994.93 Log=326 Err=0
id=664142 time=19.07.2019 01:03:57 Vmax=0 Vmin=0 Vmid=0 Napr=57 uakb=12.68 usb=0.06 temp=17.19 hum=86.1 prs=994.93 Log=325 Err=0
id=664141 time=19.07.2019 01:02:46 Vmax=0 Vmin=0 Vmid=0 Napr=57 uakb=12.68 usb=0.06 temp=17.18 hum=86.1 prs=994.93 Log=324 Err=0
id=664140 time=19.07.2019 01:01:36 Vmax=0 Vmin=0 Vmid=0 Napr=57 uakb=12.68 usb=0.08 temp=17.19 hum=86.06 prs=994.93 Log=323 Err=0
id=664139 time=19.07.2019 01:00:26 Vmax=0 Vmin=0 Vmid=0 Napr=57 uakb=12.68 usb=0.06 temp=17.21 hum=86.04 prs=994.95 Log=322 Err=0
id=664138 time=19.07.2019 00:58:06 Vmax=0 Vmin=0 Vmid=0 Napr=57 uakb=12.68 usb=0.08 temp=17.24 hum=86 prs=995.01 Log=320 Err=0
id=664137 time=19.07.2019 00:56:56 Vmax=0 Vmin=0 Vmid=0 Napr=57 uakb=12.68 usb=0.08 temp=17.25 hum=85.99 prs=995 Log=319 Err=0
id=664136 time=19.07.2019 00:55:45 Vmax=0 Vmin=0 Vmid=0 Napr=57 uakb=12.68 usb=0.08 temp=17.26 hum=85.95 prs=995.01 Log=318 Err=0
id=664135 time=19.07.2019 00:54:35 Vmax=0 Vmin=0 Vmid=0 Napr=57 uakb=12.68 usb=0.08 temp=17.28 hum=85.93 prs=995.02 Log=317 Err=0
id=664134 time=19.07.2019 00:53:24 Vmax=0 Vmin=0 Vmid=0 Napr=57 uakb=12.68 usb=0.06 temp=17.3 hum=85.92 prs=995.05 Log=316 Err=0
id=664133 time=19.07.2019 00:52:14 Vmax=0 Vmin=0 Vmid=0 Napr=57 uakb=12.68 usb=0.08 temp=17.31 hum=85.88 prs=995.08 Log=315 Err=0
id=664132 time=19.07.2019 00:51:04 Vmax=0 Vmin=0 Vmid=0 Napr=57 uakb=12.68 usb=0.06 temp=17.33 hum=85.87 prs=995.06 Log=314 Err=0
id=664131 time=19.07.2019 00:49:55 Vmax=0 Vmin=0 Vmid=0 Napr=57 uakb=12.68 usb=0.08 temp=17.34 hum=85.85 prs=995.06 Log=313 Err=0
id=664130 time=19.07.2019 00:48:43 Vmax=0 Vmin=0 Vmid=0 Napr=57 uakb=12.68 usb=0.08 temp=17.36 hum=85.83 prs=995.09 Log=312 Err=0
id=664129 time=19.07.2019 00:47:32 Vmax=0 Vmin=0 Vmid=0 Napr=57 uakb=12.66 usb=0.06 temp=17.38 hum=85.8 prs=995.08 Log=311 Err=0
id=664128 time=19.07.2019 00:46:22 Vmax=0 Vmin=0 Vmid=0 Napr=57 uakb=12.66 usb=0.06 temp=17.39 hum=85.78 prs=995.07 Log=310 Err=0
id=664127 time=19.07.2019 00:45:12 Vmax=0 Vmin=0 Vmid=0 Napr=57 uakb=12.68 usb=0.08 temp=17.4 hum=85.75 prs=995.07 Log=309 Err=0
id=664126 time=19.07.2019 00:44:01 Vmax=0 Vmin=0 Vmid=0 Napr=57 uakb=12.68 usb=0.08 temp=17.41 hum=85.74 prs=995.11 Log=308 Err=0
id=664125 time=19.07.2019 00:42:52 Vmax=0 Vmin=0 Vmid=0 Napr=57 uakb=12.68 usb=0.08 temp=17.43 hum=85.7 prs=995.08 Log=307 Err=0
id=664124 time=19.07.2019 00:41:41 Vmax=0 Vmin=0 Vmid=0 Napr=57 uakb=12.68 usb=0.08 temp=17.47 hum=85.68 prs=995.08 Log=306 Err=0
id=664123 time=19.07.2019 00:39:21 Vmax=0 Vmin=0 Vmid=0 Napr=57 uakb=12.68 usb=0.06 temp=17.56 hum=85.64 prs=995.17 Log=304 Err=0
id=664122 time=19.07.2019 00:38:10 Vmax=0 Vmin=0 Vmid=0 Napr=57 uakb=12.66 usb=0.08 temp=17.58 hum=85.61 prs=995.19 Log=303 Err=0
id=664121 time=19.07.2019 00:37:00 Vmax=0 Vmin=0 Vmid=0 Napr=57 uakb=12.68 usb=0.06 temp=17.61 hum=85.57 prs=995.22 Log=302 Err=0
id=664120 time=19.07.2019 00:35:50 Vmax=0 Vmin=0 Vmid=0 Napr=57 uakb=12.68 usb=0.08 temp=17.64 hum=85.54 prs=995.25 Log=301 Err=0
id=664119 time=19.07.2019 00:34:38 Vmax=0 Vmin=0 Vmid=0 Napr=57 uakb=12.66 usb=0.08 temp=17.67 hum=85.53 prs=995.27 Log=300 Err=0
id=664118 time=19.07.2019 00:33:29 Vmax=0 Vmin=0 Vmid=0 Napr=57 uakb=12.66 usb=0.08 temp=17.7 hum=85.51 prs=995.28 Log=299 Err=0
id=664117 time=19.07.2019 00:32:18 Vmax=0 Vmin=0 Vmid=0 Napr=57 uakb=12.66 usb=0.08 temp=17.73 hum=85.49 prs=995.28 Log=298 Err=0
id=664116 time=19.07.2019 00:31:07 Vmax=0 Vmin=0 Vmid=0 Napr=57 uakb=12.66 usb=0.08 temp=17.76 hum=85.46 prs=995.28 Log=297 Err=0
id=664115 time=19.07.2019 00:29:57 Vmax=0 Vmin=0 Vmid=0 Napr=56 uakb=12.66 usb=0.06 temp=17.8 hum=85.42 prs=995.28 Log=296 Err=0
id=664114 time=19.07.2019 00:28:47 Vmax=0 Vmin=0 Vmid=0 Napr=53 uakb=12.66 usb=0.08 temp=17.84 hum=85.39 prs=995.33 Log=295 Err=0
id=664113 time=19.07.2019 00:27:36 Vmax=0 Vmin=0 Vmid=0 Napr=46 uakb=12.66 usb=0.08 temp=17.88 hum=85.37 prs=995.32 Log=294 Err=0
id=664112 time=19.07.2019 00:24:08 Vmax=0 Vmin=0 Vmid=0 Napr=35 uakb=12.68 usb=0.08 temp=18.01 hum=85.3 prs=995.23 Log=291 Err=0
id=664111 time=19.07.2019 00:22:58 Vmax=0 Vmin=0 Vmid=0 Napr=35 uakb=12.66 usb=0.08 temp=18.04 hum=85.29 prs=995.21 Log=290 Err=0
id=664110 time=19.07.2019 00:21:47 Vmax=0 Vmin=0 Vmid=0 Napr=35 uakb=12.66 usb=0.08 temp=18.07 hum=85.26 prs=995.19 Log=289 Err=0
id=664109 time=19.07.2019 00:20:37 Vmax=0 Vmin=0 Vmid=0 Napr=35 uakb=12.68 usb=0.08 temp=18.12 hum=85.22 prs=995.17 Log=288 Err=0
id=664108 time=19.07.2019 00:19:25 Vmax=0 Vmin=0 Vmid=0 Napr=35 uakb=12.66 usb=0.08 temp=18.14 hum=85.19 prs=995.25 Log=287 Err=0
id=664107 time=19.07.2019 00:18:15 Vmax=0 Vmin=0 Vmid=0 Napr=35 uakb=12.66 usb=0.08 temp=18.16 hum=85.19 prs=995.23 Log=286 Err=0
id=664106 time=19.07.2019 00:17:05 Vmax=0 Vmin=0 Vmid=0 Napr=35 uakb=12.66 usb=0.08 temp=18.15 hum=85.16 prs=995.25 Log=285 Err=0
id=664105 time=19.07.2019 00:15:54 Vmax=0 Vmin=0 Vmid=0 Napr=35 uakb=12.66 usb=0.08 temp=18.14 hum=85.12 prs=995.29 Log=284 Err=0
id=664104 time=19.07.2019 00:14:44 Vmax=0 Vmin=0 Vmid=0 Napr=35 uakb=12.66 usb=0.08 temp=18.15 hum=85.08 prs=995.32 Log=283 Err=0
id=664103 time=19.07.2019 00:13:33 Vmax=0 Vmin=0 Vmid=0 Napr=36 uakb=12.66 usb=0.08 temp=18.18 hum=85.03 prs=995.33 Log=282 Err=0
id=664102 time=19.07.2019 00:12:23 Vmax=0 Vmin=0 Vmid=0 Napr=36 uakb=12.66 usb=0.08 temp=18.19 hum=85.07 prs=995.39 Log=281 Err=0
id=664101 time=19.07.2019 00:10:03 Vmax=0 Vmin=0 Vmid=0 Napr=37 uakb=12.66 usb=0.08 temp=18.2 hum=84.98 prs=995.43 Log=279 Err=0
id=664100 time=19.07.2019 00:08:53 Vmax=0 Vmin=0 Vmid=0 Napr=38 uakb=12.66 usb=0.08 temp=18.2 hum=84.97 prs=995.42 Log=278 Err=0
id=664099 time=19.07.2019 00:07:41 Vmax=0 Vmin=0 Vmid=0 Napr=37 uakb=12.66 usb=0.08 temp=18.21 hum=84.91 prs=995.39 Log=277 Err=0
id=664098 time=19.07.2019 00:05:22 Vmax=0 Vmin=0 Vmid=0 Napr=44 uakb=12.66 usb=0.08 temp=18.12 hum=84.87 prs=995.38 Log=275 Err=0
id=664097 time=19.07.2019 00:04:11 Vmax=0 Vmin=0 Vmid=0 Napr=43 uakb=12.66 usb=0.08 temp=18.11 hum=84.83 prs=995.38 Log=274 Err=0
id=664096 time=19.07.2019 00:03:01 Vmax=0 Vmin=0 Vmid=0 Napr=35 uakb=12.66 usb=0.08 temp=18.11 hum=84.82 prs=995.37 Log=273 Err=0
id=664095 time=19.07.2019 00:01:51 Vmax=0 Vmin=0 Vmid=0 Napr=46 uakb=12.66 usb=0.08 temp=18.12 hum=84.76 prs=995.34 Log=272 Err=0
id=664094 time=19.07.2019 00:00:42 Vmax=0 Vmin=0 Vmid=0 Napr=44 uakb=12.66 usb=0.08 temp=18.19 hum=84.71 prs=995.35 Log=271 Err=0
id=664093 time=18.07.2019 23:59:30 Vmax=0 Vmin=0 Vmid=0 Napr=39 uakb=12.66 usb=0.08 temp=18.27 hum=84.68 prs=995.32 Log=270 Err=0
id=664092 time=18.07.2019 23:57:09 Vmax=0 Vmin=0 Vmid=0 Napr=348 uakb=12.66 usb=0.08 temp=18.29 hum=84.66 prs=995.32 Log=268 Err=0
id=664091 time=18.07.2019 23:55:59 Vmax=0 Vmin=0 Vmid=0 Napr=291 uakb=12.66 usb=0.08 temp=18.27 hum=84.63 prs=995.18 Log=267 Err=0
id=664090 time=18.07.2019 23:54:48 Vmax=0 Vmin=0 Vmid=0 Napr=291 uakb=12.66 usb=0.08 temp=18.26 hum=84.59 prs=995.19 Log=266 Err=0
id=664089 time=18.07.2019 23:53:38 Vmax=0 Vmin=0 Vmid=0 Napr=291 uakb=12.66 usb=0.08 temp=18.25 hum=84.57 prs=995.16 Log=265 Err=0
id=664088 time=18.07.2019 23:52:27 Vmax=0 Vmin=0 Vmid=0 Napr=291 uakb=12.66 usb=0.08 temp=18.24 hum=84.51 prs=995.18 Log=264 Err=0
id=664087 time=18.07.2019 23:51:18 Vmax=0 Vmin=0 Vmid=0 Napr=291 uakb=12.66 usb=0.08 temp=18.23 hum=84.49 prs=995.2 Log=263 Err=0
id=664086 time=18.07.2019 23:50:07 Vmax=0 Vmin=0 Vmid=0 Napr=291 uakb=12.66 usb=0.08 temp=18.23 hum=84.46 prs=995.2 Log=262 Err=0
id=664085 time=18.07.2019 23:48:57 Vmax=0 Vmin=0 Vmid=0 Napr=291 uakb=12.66 usb=0.08 temp=18.22 hum=84.43 prs=995.23 Log=261 Err=0
id=664084 time=18.07.2019 23:47:47 Vmax=0 Vmin=0 Vmid=0 Napr=291 uakb=12.66 usb=0.08 temp=18.21 hum=84.39 prs=995.23 Log=260 Err=0
id=664083 time=18.07.2019 23:45:26 Vmax=0 Vmin=0 Vmid=0 Napr=291 uakb=12.66 usb=0.08 temp=18.21 hum=84.33 prs=995.21 Log=258 Err=0
id=664082 time=18.07.2019 23:44:15 Vmax=0 Vmin=0 Vmid=0 Napr=291 uakb=12.66 usb=0.08 temp=18.22 hum=84.27 prs=995.23 Log=257 Err=0
id=664081 time=18.07.2019 23:43:05 Vmax=0 Vmin=0 Vmid=0 Napr=291 uakb=12.66 usb=0.08 temp=18.21 hum=84.25 prs=995.23 Log=256 Err=0
id=664080 time=18.07.2019 23:41:54 Vmax=0 Vmin=0 Vmid=0 Napr=291 uakb=12.66 usb=0.08 temp=18.2 hum=84.24 prs=995.26 Log=255 Err=0
id=664079 time=18.07.2019 23:40:44 Vmax=0 Vmin=0 Vmid=0 Napr=291 uakb=12.66 usb=0.08 temp=18.2 hum=84.2 prs=995.3 Log=254 Err=0
id=664078 time=18.07.2019 23:39:34 Vmax=0 Vmin=0 Vmid=0 Napr=291 uakb=12.66 usb=0.08 temp=18.18 hum=84.17 prs=995.32 Log=253 Err=0
id=664077 time=18.07.2019 23:38:24 Vmax=0 Vmin=0 Vmid=0 Napr=291 uakb=12.66 usb=0.08 temp=18.18 hum=84.13 prs=995.3 Log=252 Err=0
id=664076 time=18.07.2019 23:36:03 Vmax=0 Vmin=0 Vmid=0 Napr=291 uakb=12.64 usb=0.08 temp=18.18 hum=84.08 prs=995.32 Log=250 Err=0
id=664075 time=18.07.2019 23:33:43 Vmax=0 Vmin=0 Vmid=0 Napr=291 uakb=12.66 usb=0.08 temp=18.2 hum=84 prs=995.39 Log=248 Err=0
id=664074 time=18.07.2019 23:32:33 Vmax=0 Vmin=0 Vmid=0 Napr=291 uakb=12.66 usb=0.08 temp=18.22 hum=83.96 prs=995.38 Log=247 Err=0
id=664073 time=18.07.2019 23:31:22 Vmax=0 Vmin=0 Vmid=0 Napr=291 uakb=12.66 usb=0.08 temp=18.23 hum=83.91 prs=995.39 Log=246 Err=0
id=664072 time=18.07.2019 23:30:12 Vmax=0 Vmin=0 Vmid=0 Napr=291 uakb=12.66 usb=0.08 temp=18.23 hum=83.89 prs=995.38 Log=245 Err=0
id=664071 time=18.07.2019 23:29:01 Vmax=0 Vmin=0 Vmid=0 Napr=291 uakb=12.66 usb=0.08 temp=18.24 hum=83.87 prs=995.38 Log=244 Err=0
id=664070 time=18.07.2019 23:27:51 Vmax=0 Vmin=0 Vmid=0 Napr=291 uakb=12.66 usb=0.08 temp=18.26 hum=83.83 prs=995.36 Log=243 Err=0
id=664069 time=18.07.2019 23:26:40 Vmax=0 Vmin=0 Vmid=0 Napr=291 uakb=12.66 usb=0.08 temp=18.28 hum=83.79 prs=995.36 Log=242 Err=0
id=664068 time=18.07.2019 23:25:30 Vmax=0 Vmin=0 Vmid=0 Napr=291 uakb=12.66 usb=0.08 temp=18.29 hum=83.76 prs=995.37 Log=241 Err=0
id=664067 time=18.07.2019 23:24:20 Vmax=0 Vmin=0 Vmid=0 Napr=290 uakb=12.66 usb=0.08 temp=18.29 hum=83.73 prs=995.36 Log=240 Err=0
id=664066 time=18.07.2019 23:23:10 Vmax=0 Vmin=0 Vmid=0 Napr=290 uakb=12.66 usb=0.08 temp=18.31 hum=83.67 prs=995.38 Log=239 Err=0
id=664065 time=18.07.2019 23:21:59 Vmax=0 Vmin=0 Vmid=0 Napr=290 uakb=12.66 usb=0.08 temp=18.33 hum=83.63 prs=995.36 Log=238 Err=0
id=664064 time=18.07.2019 23:20:49 Vmax=0 Vmin=0 Vmid=0 Napr=290 uakb=12.66 usb=0.08 temp=18.3 hum=83.62 prs=995.34 Log=237 Err=0
id=664063 time=18.07.2019 23:19:39 Vmax=0 Vmin=0 Vmid=0 Napr=288 uakb=12.68 usb=0.08 temp=18.23 hum=83.63 prs=995.35 Log=236 Err=0
id=664062 time=18.07.2019 23:18:28 Vmax=0 Vmin=0 Vmid=0 Napr=285 uakb=12.66 usb=0.08 temp=18.19 hum=83.55 prs=995.35 Log=235 Err=0
id=664061 time=18.07.2019 23:17:18 Vmax=0 Vmin=0 Vmid=0 Napr=284 uakb=12.66 usb=0.08 temp=18.17 hum=83.53 prs=995.36 Log=234 Err=0
id=664060 time=18.07.2019 23:14:58 Vmax=0 Vmin=0 Vmid=0 Napr=281 uakb=12.66 usb=0.08 temp=18.14 hum=83.44 prs=995.3 Log=232 Err=0
id=664059 time=18.07.2019 23:13:47 Vmax=0 Vmin=0 Vmid=0 Napr=271 uakb=12.66 usb=0.08 temp=18.11 hum=83.41 prs=995.32 Log=231 Err=0
id=664058 time=18.07.2019 23:12:37 Vmax=0 Vmin=0 Vmid=0 Napr=269 uakb=12.66 usb=0.08 temp=18.09 hum=83.38 prs=995.3 Log=230 Err=0
id=664057 time=18.07.2019 23:11:26 Vmax=0 Vmin=0 Vmid=0 Napr=268 uakb=12.68 usb=0.08 temp=18.06 hum=83.35 prs=995.3 Log=229 Err=0
id=664056 time=18.07.2019 23:10:16 Vmax=0 Vmin=0 Vmid=0 Napr=263 uakb=12.66 usb=0.08 temp=18.04 hum=83.31 prs=995.32 Log=228 Err=0
id=664055 time=18.07.2019 23:09:06 Vmax=0 Vmin=0 Vmid=0 Napr=259 uakb=12.68 usb=0.08 temp=18.02 hum=83.27 prs=995.29 Log=227 Err=0
id=664054 time=18.07.2019 23:07:55 Vmax=0 Vmin=0 Vmid=0 Napr=260 uakb=12.66 usb=0.08 temp=18.01 hum=83.22 prs=995.28 Log=226 Err=0
id=664053 time=18.07.2019 23:06:47 Vmax=0 Vmin=0 Vmid=0 Napr=262 uakb=12.66 usb=0.08 temp=18.01 hum=83.19 prs=995.23 Log=225 Err=0
id=664052 time=18.07.2019 23:05:35 Vmax=0 Vmin=0 Vmid=0 Napr=264 uakb=12.66 usb=0.08 temp=18 hum=83.14 prs=995.26 Log=224 Err=0
id=664051 time=18.07.2019 23:04:24 Vmax=0 Vmin=0 Vmid=0 Napr=270 uakb=12.66 usb=0.08 temp=17.98 hum=83.11 prs=995.29 Log=223 Err=0
id=664050 time=18.07.2019 23:03:13 Vmax=0 Vmin=0 Vmid=0 Napr=278 uakb=12.66 usb=0.08 temp=17.95 hum=83.07 prs=995.31 Log=222 Err=0
id=664049 time=18.07.2019 23:02:04 Vmax=0 Vmin=0 Vmid=0 Napr=280 uakb=12.68 usb=0.08 temp=17.92 hum=83.05 prs=995.34 Log=221 Err=0
id=664048 time=18.07.2019 22:58:33 Vmax=0 Vmin=0 Vmid=0 Napr=279 uakb=12.68 usb=0.08 temp=17.9 hum=82.91 prs=995.33 Log=218 Err=0
id=664047 time=18.07.2019 22:57:23 Vmax=0 Vmin=0 Vmid=0 Napr=274 uakb=12.68 usb=0.08 temp=17.89 hum=82.86 prs=995.3 Log=217 Err=0
id=664046 time=18.07.2019 22:56:12 Vmax=0 Vmin=0 Vmid=0 Napr=278 uakb=12.68 usb=0.08 temp=17.88 hum=82.84 prs=995.33 Log=216 Err=0
id=664045 time=18.07.2019 22:55:02 Vmax=0 Vmin=0 Vmid=0 Napr=289 uakb=12.68 usb=0.08 temp=17.84 hum=82.8 prs=995.35 Log=215 Err=0
id=664044 time=18.07.2019 22:53:52 Vmax=0 Vmin=0 Vmid=0 Napr=300 uakb=12.68 usb=0.08 temp=17.82 hum=82.75 prs=995.31 Log=214 Err=0
id=664043 time=18.07.2019 22:52:42 Vmax=0 Vmin=0 Vmid=0 Napr=303 uakb=12.68 usb=0.08 temp=17.8 hum=82.72 prs=995.3 Log=213 Err=0
id=664042 time=18.07.2019 22:51:31 Vmax=0 Vmin=0 Vmid=0 Napr=303 uakb=12.68 usb=0.08 temp=17.77 hum=82.69 prs=995.33 Log=212 Err=0
id=664041 time=18.07.2019 22:50:21 Vmax=0 Vmin=0 Vmid=0 Napr=303 uakb=12.68 usb=0.08 temp=17.75 hum=82.65 prs=995.39 Log=211 Err=0
id=664040 time=18.07.2019 22:49:10 Vmax=0 Vmin=0 Vmid=0 Napr=306 uakb=12.68 usb=0.08 temp=17.73 hum=82.62 prs=995.44 Log=210 Err=0
id=664039 time=18.07.2019 22:48:00 Vmax=0 Vmin=0 Vmid=0 Napr=313 uakb=12.68 usb=0.08 temp=17.72 hum=82.57 prs=995.44 Log=209 Err=0
id=664038 time=18.07.2019 22:46:49 Vmax=0 Vmin=0 Vmid=0 Napr=330 uakb=12.68 usb=0.08 temp=17.71 hum=82.52 prs=995.42 Log=208 Err=0
id=664037 time=18.07.2019 22:45:39 Vmax=0 Vmin=0 Vmid=0 Napr=344 uakb=12.68 usb=0.08 temp=17.7 hum=82.5 prs=995.44 Log=207 Err=0
id=664036 time=18.07.2019 22:44:28 Vmax=0 Vmin=0 Vmid=0 Napr=344 uakb=12.7 usb=0.08 temp=17.7 hum=82.45 prs=995.43 Log=206 Err=0
id=664035 time=18.07.2019 22:43:18 Vmax=0 Vmin=0 Vmid=0 Napr=344 uakb=12.68 usb=0.08 temp=17.71 hum=82.39 prs=995.45 Log=205 Err=0
id=664034 time=18.07.2019 22:42:09 Vmax=0 Vmin=0 Vmid=0 Napr=344 uakb=12.68 usb=0.08 temp=17.73 hum=82.36 prs=995.49 Log=204 Err=0
id=664033 time=18.07.2019 22:39:49 Vmax=0 Vmin=0 Vmid=0 Napr=344 uakb=12.7 usb=0.08 temp=17.7 hum=82.28 prs=995.54 Log=202 Err=0
id=664032 time=18.07.2019 22:36:19 Vmax=0 Vmin=0 Vmid=0 Napr=344 uakb=12.7 usb=0.08 temp=17.59 hum=82.18 prs=995.52 Log=199 Err=0
id=664031 time=18.07.2019 22:35:08 Vmax=0 Vmin=0 Vmid=0 Napr=344 uakb=12.7 usb=0.08 temp=17.59 hum=82.12 prs=995.44 Log=198 Err=0
id=664030 time=18.07.2019 22:33:58 Vmax=0 Vmin=0 Vmid=0 Napr=344 uakb=12.7 usb=0.08 temp=17.61 hum=82.08 prs=995.46 Log=197 Err=0
id=664029 time=18.07.2019 22:32:48 Vmax=0 Vmin=0 Vmid=0 Napr=344 uakb=12.7 usb=0.08 temp=17.64 hum=82.03 prs=995.47 Log=196 Err=0
id=664028 time=18.07.2019 22:31:37 Vmax=0 Vmin=0 Vmid=0 Napr=344 uakb=12.7 usb=0.08 temp=17.66 hum=82.01 prs=995.49 Log=195 Err=0
id=664027 time=18.07.2019 22:30:27 Vmax=0 Vmin=0 Vmid=0 Napr=344 uakb=12.68 usb=0.08 temp=17.69 hum=81.96 prs=995.49 Log=194 Err=0
id=664026 time=18.07.2019 22:24:37 Vmax=0 Vmin=0 Vmid=0 Napr=344 uakb=12.72 usb=0.08 temp=17.86 hum=81.77 prs=995.51 Log=189 Err=0
id=664025 time=18.07.2019 22:23:27 Vmax=0 Vmin=0 Vmid=0 Napr=344 uakb=12.72 usb=0.08 temp=17.87 hum=81.74 prs=995.51 Log=188 Err=0
id=664024 time=18.07.2019 22:22:16 Vmax=0 Vmin=0 Vmid=0 Napr=344 uakb=12.72 usb=0.08 temp=17.9 hum=81.69 prs=995.54 Log=187 Err=0
id=664023 time=18.07.2019 22:21:06 Vmax=0 Vmin=0 Vmid=0 Napr=344 uakb=12.72 usb=0.08 temp=17.89 hum=81.65 prs=995.53 Log=186 Err=0
id=664022 time=18.07.2019 22:19:55 Vmax=0 Vmin=0 Vmid=0 Napr=344 uakb=12.74 usb=0.08 temp=17.88 hum=81.65 prs=995.55 Log=185 Err=0
id=664021 time=18.07.2019 22:18:45 Vmax=0 Vmin=0 Vmid=0 Napr=344 uakb=12.74 usb=0.08 temp=17.91 hum=81.58 prs=995.55 Log=184 Err=0
id=664020 time=18.07.2019 22:17:34 Vmax=0 Vmin=0 Vmid=0 Napr=344 uakb=12.74 usb=0.08 temp=17.95 hum=81.53 prs=995.56 Log=183 Err=0
id=664019 time=18.07.2019 22:16:24 Vmax=0 Vmin=0 Vmid=0 Napr=344 uakb=12.74 usb=0.08 temp=17.99 hum=81.5 prs=995.62 Log=182 Err=0
id=664018 time=18.07.2019 22:15:14 Vmax=0 Vmin=0 Vmid=0 Napr=343 uakb=12.74 usb=0.08 temp=18.02 hum=81.46 prs=995.59 Log=181 Err=0
id=664017 time=18.07.2019 22:14:03 Vmax=0 Vmin=0 Vmid=0 Napr=341 uakb=12.76 usb=0.08 temp=18.06 hum=81.43 prs=995.58 Log=180 Err=0
id=664016 time=18.07.2019 22:12:53 Vmax=0 Vmin=0 Vmid=0 Napr=341 uakb=12.76 usb=0.1 temp=18.1 hum=81.4 prs=995.56 Log=179 Err=0
id=664015 time=18.07.2019 22:11:42 Vmax=0 Vmin=0 Vmid=0 Napr=341 uakb=12.76 usb=0.08 temp=18.14 hum=81.36 prs=995.59 Log=178 Err=0
id=664014 time=18.07.2019 22:10:32 Vmax=0 Vmin=0 Vmid=0 Napr=340 uakb=12.78 usb=0.1 temp=18.15 hum=81.32 prs=995.56 Log=177 Err=0
id=664013 time=18.07.2019 22:09:22 Vmax=0 Vmin=0 Vmid=0 Napr=337 uakb=12.78 usb=0.2 temp=18.19 hum=81.29 prs=995.56 Log=176 Err=0
id=664012 time=18.07.2019 22:08:11 Vmax=0 Vmin=0 Vmid=0 Napr=334 uakb=12.78 usb=2.48 temp=18.23 hum=81.25 prs=995.56 Log=175 Err=0
id=664011 time=18.07.2019 22:07:01 Vmax=0 Vmin=0 Vmid=0 Napr=337 uakb=12.78 usb=2 temp=18.27 hum=81.21 prs=995.59 Log=174 Err=0
id=664010 time=18.07.2019 22:05:50 Vmax=0 Vmin=0 Vmid=0 Napr=337 uakb=12.8 usb=1.35 temp=18.34 hum=81.19 prs=995.59 Log=173 Err=0
id=664009 time=18.07.2019 22:00:08 Vmax=0 Vmin=0 Vmid=0 Napr=1 uakb=12.86 usb=1.96 temp=18.56 hum=81 prs=995.67 Log=169 Err=0
id=664008 time=18.07.2019 21:58:57 Vmax=0 Vmin=0 Vmid=0 Napr=355 uakb=12.86 usb=1.78 temp=18.54 hum=80.97 prs=995.6 Log=168 Err=0
id=664007 time=18.07.2019 21:57:46 Vmax=0 Vmin=0 Vmid=0 Napr=340 uakb=12.86 usb=1.75 temp=18.53 hum=80.93 prs=995.58 Log=167 Err=0
id=664006 time=18.07.2019 21:55:28 Vmax=0 Vmin=0 Vmid=0 Napr=317 uakb=12.9 usb=4.3 temp=18.48 hum=80.84 prs=995.54 Log=165 Err=0
id=664005 time=18.07.2019 21:49:39 Vmax=0 Vmin=0 Vmid=0 Napr=312 uakb=12.94 usb=7.91 temp=18.44 hum=80.69 prs=995.37 Log=160 Err=0
id=664004 time=18.07.2019 21:43:50 Vmax=0 Vmin=0 Vmid=0 Napr=312 uakb=13 usb=10.17 temp=18.4 hum=80.48 prs=995.22 Log=155 Err=0
id=664003 time=18.07.2019 21:42:40 Vmax=0 Vmin=0 Vmid=0 Napr=312 uakb=13.02 usb=10.41 temp=18.4 hum=80.43 prs=995.22 Log=154 Err=0
id=664002 time=18.07.2019 21:41:28 Vmax=0 Vmin=0 Vmid=0 Napr=312 uakb=13.04 usb=10.23 temp=18.39 hum=80.39 prs=995.23 Log=153 Err=0
id=664001 time=18.07.2019 21:39:08 Vmax=0 Vmin=0 Vmid=0 Napr=312 uakb=13.04 usb=10.61 temp=18.39 hum=80.31 prs=995.26 Log=151 Err=0
id=664000 time=18.07.2019 21:35:38 Vmax=0 Vmin=0 Vmid=0 Napr=312 uakb=13.08 usb=12.02 temp=18.38 hum=80.2 prs=995.25 Log=148 Err=0
id=663999 time=18.07.2019 21:34:27 Vmax=0 Vmin=0 Vmid=0 Napr=312 uakb=13.08 usb=12.1 temp=18.39 hum=80.15 prs=995.24 Log=147 Err=0
id=663998 time=18.07.2019 21:33:17 Vmax=0 Vmin=0 Vmid=0 Napr=312 uakb=13.08 usb=11.9 temp=18.37 hum=80.11 prs=995.25 Log=146 Err=0
id=663997 time=18.07.2019 21:31:03 Vmax=0 Vmin=0 Vmid=0 Napr=312 uakb=13.1 usb=12.43 temp=18.3 hum=80.04 prs=995.25 Log=144 Err=0
id=663996 time=18.07.2019 21:27:29 Vmax=0 Vmin=0 Vmid=0 Napr=312 uakb=13.14 usb=12.47 temp=18.32 hum=79.89 prs=995.14 Log=141 Err=0
id=663995 time=18.07.2019 21:23:57 Vmax=0 Vmin=0 Vmid=0 Napr=312 uakb=13.18 usb=12.57 temp=18.4 hum=79.74 prs=995.15 Log=138 Err=0
id=663994 time=18.07.2019 21:21:37 Vmax=0 Vmin=0 Vmid=0 Napr=312 uakb=13.18 usb=12.45 temp=18.44 hum=79.67 prs=995.16 Log=136 Err=0
id=663993 time=18.07.2019 21:20:27 Vmax=0 Vmin=0 Vmid=0 Napr=312 uakb=13.2 usb=12.61 temp=18.44 hum=79.62 prs=995.18 Log=135 Err=0
id=663992 time=18.07.2019 21:19:19 Vmax=0 Vmin=0 Vmid=0 Napr=312 uakb=13.2 usb=12.49 temp=18.43 hum=79.57 prs=995.19 Log=134 Err=0
id=663991 time=18.07.2019 21:18:06 Vmax=0 Vmin=0 Vmid=0 Napr=312 uakb=13.22 usb=12.27 temp=18.45 hum=79.47 prs=995.19 Log=133 Err=0
id=663990 time=18.07.2019 21:16:55 Vmax=0 Vmin=0 Vmid=0 Napr=314 uakb=13.22 usb=12.35 temp=18.46 hum=79.48 prs=995.17 Log=132 Err=0
id=663989 time=18.07.2019 21:15:48 Vmax=0 Vmin=0 Vmid=0 Napr=319 uakb=13.22 usb=12.51 temp=18.48 hum=79.43 prs=995.24 Log=131 Err=0
id=663988 time=18.07.2019 21:14:36 Vmax=0 Vmin=0 Vmid=0 Napr=331 uakb=13.24 usb=12.77 temp=18.5 hum=79.37 prs=995.24 Log=130 Err=0
id=663987 time=18.07.2019 21:13:24 Vmax=0 Vmin=0 Vmid=0 Napr=355 uakb=13.26 usb=12.35 temp=18.51 hum=79.33 prs=995.19 Log=129 Err=0
id=663986 time=18.07.2019 21:12:16 Vmax=0 Vmin=0 Vmid=0 Napr=355 uakb=13.26 usb=12.31 temp=18.53 hum=79.28 prs=995.2 Log=128 Err=0
id=663985 time=18.07.2019 21:11:04 Vmax=0 Vmin=0 Vmid=0 Napr=355 uakb=13.26 usb=12.71 temp=18.56 hum=79.25 prs=995.23 Log=127 Err=0
id=663984 time=18.07.2019 21:09:53 Vmax=0 Vmin=0 Vmid=0 Napr=355 uakb=13.28 usb=12.71 temp=18.59 hum=79.19 prs=995.21 Log=126 Err=0
id=663983 time=18.07.2019 21:08:43 Vmax=0 Vmin=0 Vmid=0 Napr=355 uakb=13.3 usb=12.59 temp=18.62 hum=79.15 prs=995.24 Log=125 Err=0
id=663982 time=18.07.2019 21:04:03 Vmax=0 Vmin=0 Vmid=0 Napr=355 uakb=13.32 usb=12.81 temp=18.7 hum=78.98 prs=995.25 Log=121 Err=0
id=663981 time=18.07.2019 21:02:53 Vmax=0 Vmin=0 Vmid=0 Napr=355 uakb=13.34 usb=12.73 temp=18.71 hum=78.94 prs=995.23 Log=120 Err=0
id=663980 time=18.07.2019 21:01:42 Vmax=0 Vmin=0 Vmid=0 Napr=355 uakb=13.34 usb=12.91 temp=18.73 hum=78.88 prs=995.2 Log=119 Err=0
id=663979 time=18.07.2019 21:00:32 Vmax=0 Vmin=0 Vmid=0 Napr=355 uakb=13.34 usb=12.83 temp=18.75 hum=78.84 prs=995.18 Log=118 Err=0
id=663978 time=18.07.2019 20:58:12 Vmax=0 Vmin=0 Vmid=0 Napr=355 uakb=13.36 usb=12.67 temp=18.8 hum=78.75 prs=995.16 Log=116 Err=0
id=663977 time=18.07.2019 20:57:01 Vmax=0 Vmin=0 Vmid=0 Napr=355 uakb=13.36 usb=12.71 temp=18.83 hum=78.7 prs=995.14 Log=115 Err=0
id=663976 time=18.07.2019 20:55:52 Vmax=0 Vmin=0 Vmid=0 Napr=355 uakb=13.36 usb=12.67 temp=18.84 hum=78.64 prs=995.15 Log=114 Err=0
id=663975 time=18.07.2019 20:54:41 Vmax=0 Vmin=0 Vmid=0 Napr=355 uakb=13.38 usb=12.89 temp=18.86 hum=78.61 prs=995.14 Log=113 Err=0
id=663974 time=18.07.2019 20:53:32 Vmax=0 Vmin=0 Vmid=0 Napr=355 uakb=13.38 usb=12.81 temp=18.88 hum=78.55 prs=995.09 Log=112 Err=0
id=663973 time=18.07.2019 20:52:19 Vmax=0 Vmin=0 Vmid=0 Napr=355 uakb=13.38 usb=12.67 temp=18.9 hum=78.52 prs=995.05 Log=111 Err=0
id=663972 time=18.07.2019 20:50:00 Vmax=0 Vmin=0 Vmid=0 Napr=355 uakb=13.4 usb=13.05 temp=18.93 hum=78.44 prs=994.98 Log=109 Err=0
id=663971 time=18.07.2019 20:47:38 Vmax=0 Vmin=0 Vmid=0 Napr=355 uakb=13.42 usb=13.07 temp=18.95 hum=78.36 prs=994.91 Log=107 Err=0
id=663970 time=18.07.2019 20:46:28 Vmax=0 Vmin=0 Vmid=0 Napr=355 uakb=13.42 usb=13.11 temp=18.98 hum=78.28 prs=994.89 Log=106 Err=0
id=663969 time=18.07.2019 20:45:17 Vmax=0 Vmin=0 Vmid=0 Napr=355 uakb=13.42 usb=12.97 temp=19 hum=78.25 prs=994.87 Log=105 Err=0
id=663968 time=18.07.2019 20:42:56 Vmax=0 Vmin=0 Vmid=0 Napr=355 uakb=13.44 usb=13.11 temp=19.06 hum=78.16 prs=994.83 Log=103 Err=0
id=663967 time=18.07.2019 20:41:46 Vmax=0 Vmin=0 Vmid=0 Napr=355 uakb=13.44 usb=13.17 temp=19.08 hum=78.11 prs=994.83 Log=102 Err=0
id=663966 time=18.07.2019 20:39:28 Vmax=0 Vmin=0 Vmid=0 Napr=355 uakb=13.44 usb=13.05 temp=19.16 hum=78.01 prs=994.85 Log=100 Err=0
id=663965 time=18.07.2019 20:35:55 Vmax=0 Vmin=0 Vmid=0 Napr=355 uakb=13.44 usb=13.01 temp=19.28 hum=77.89 prs=994.83 Log=97 Err=0
id=663964 time=18.07.2019 20:33:36 Vmax=0 Vmin=0 Vmid=0 Napr=355 uakb=13.46 usb=13.19 temp=19.35 hum=77.79 prs=994.86 Log=95 Err=0
id=663963 time=18.07.2019 20:32:24 Vmax=0 Vmin=0 Vmid=0 Napr=354 uakb=13.46 usb=12.95 temp=19.39 hum=77.75 prs=994.9 Log=94 Err=0
id=663962 time=18.07.2019 20:31:18 Vmax=0 Vmin=0 Vmid=0 Napr=350 uakb=13.46 usb=12.87 temp=19.44 hum=77.69 prs=994.91 Log=93 Err=0
id=663961 time=18.07.2019 20:28:54 Vmax=0 Vmin=0 Vmid=0 Napr=332 uakb=13.46 usb=12.85 temp=19.51 hum=77.64 prs=994.97 Log=91 Err=0
id=663960 time=18.07.2019 20:24:14 Vmax=0 Vmin=0 Vmid=0 Napr=324 uakb=13.48 usb=13.17 temp=19.56 hum=77.45 prs=994.96 Log=87 Err=0
id=663959 time=18.07.2019 20:23:04 Vmax=0 Vmin=0 Vmid=0 Napr=324 uakb=13.5 usb=13.01 temp=19.58 hum=77.41 prs=994.97 Log=86 Err=0
id=663958 time=18.07.2019 20:21:56 Vmax=0 Vmin=0 Vmid=0 Napr=324 uakb=13.5 usb=13.09 temp=19.59 hum=77.38 prs=994.94 Log=85 Err=0
id=663957 time=18.07.2019 20:20:43 Vmax=1.9 Vmin=0 Vmid=0.5 Napr=324 uakb=13.52 usb=13.13 temp=19.6 hum=77.34 prs=994.9 Log=84 Err=0
id=663956 time=18.07.2019 20:19:32 Vmax=1.9 Vmin=1.5 Vmid=1.6 Napr=324 uakb=13.52 usb=12.89 temp=19.6 hum=77.3 prs=994.88 Log=83 Err=0
id=663955 time=18.07.2019 20:18:21 Vmax=1.8 Vmin=1.4 Vmid=1.5 Napr=324 uakb=13.54 usb=13.01 temp=19.61 hum=77.26 prs=994.86 Log=82 Err=0
id=663954 time=18.07.2019 20:17:12 Vmax=1.5 Vmin=1.3 Vmid=1.4 Napr=324 uakb=13.56 usb=13.13 temp=19.64 hum=77.22 prs=994.86 Log=81 Err=0
id=663953 time=18.07.2019 20:16:01 Vmax=1.5 Vmin=1.1 Vmid=1.3 Napr=324 uakb=13.56 usb=13.15 temp=19.64 hum=77.19 prs=994.82 Log=80 Err=0
id=663952 time=18.07.2019 20:14:50 Vmax=1.5 Vmin=1.2 Vmid=1.3 Napr=324 uakb=13.58 usb=13.11 temp=19.66 hum=77.16 prs=994.81 Log=79 Err=0
id=663951 time=18.07.2019 20:13:40 Vmax=1.8 Vmin=1.3 Vmid=1.4 Napr=324 uakb=13.6 usb=12.93 temp=19.66 hum=77.13 prs=994.79 Log=78 Err=0
id=663950 time=18.07.2019 20:12:31 Vmax=1.9 Vmin=1.5 Vmid=1.6 Napr=324 uakb=13.62 usb=13.31 temp=19.67 hum=77.09 prs=994.8 Log=77 Err=0
id=663949 time=18.07.2019 20:11:19 Vmax=2 Vmin=1.6 Vmid=1.8 Napr=324 uakb=13.62 usb=13.03 temp=19.7 hum=77.06 prs=994.76 Log=76 Err=0
id=663948 time=18.07.2019 20:10:08 Vmax=1.5 Vmin=1.3 Vmid=1.4 Napr=324 uakb=13.66 usb=13.27 temp=19.7 hum=77.02 prs=994.75 Log=75 Err=0
id=663947 time=18.07.2019 20:08:58 Vmax=1.8 Vmin=1.3 Vmid=1.5 Napr=324 uakb=13.66 usb=13.35 temp=19.71 hum=77 prs=994.74 Log=74 Err=0
id=663946 time=18.07.2019 20:07:48 Vmax=1.5 Vmin=1.3 Vmid=1.3 Napr=324 uakb=13.68 usb=13.39 temp=19.71 hum=76.95 prs=994.73 Log=73 Err=0
id=663945 time=18.07.2019 20:04:20 Vmax=1.8 Vmin=1.4 Vmid=1.5 Napr=324 uakb=13.72 usb=13.5 temp=19.74 hum=76.86 prs=994.7 Log=70 Err=0
id=663944 time=18.07.2019 20:03:08 Vmax=1.9 Vmin=1.1 Vmid=1.5 Napr=324 uakb=13.72 usb=13.5 temp=19.77 hum=76.84 prs=994.71 Log=69 Err=0
id=663943 time=18.07.2019 20:01:56 Vmax=2.2 Vmin=1.9 Vmid=1.9 Napr=324 uakb=13.74 usb=13.46 temp=19.77 hum=76.81 prs=994.74 Log=68 Err=0
id=663942 time=18.07.2019 20:00:45 Vmax=1.8 Vmin=1.5 Vmid=1.5 Napr=324 uakb=13.74 usb=13.56 temp=19.79 hum=76.78 prs=994.73 Log=67 Err=0
id=663941 time=18.07.2019 19:59:35 Vmax=1.5 Vmin=1.2 Vmid=1.4 Napr=324 uakb=13.76 usb=13.52 temp=19.8 hum=76.76 prs=994.73 Log=66 Err=0
id=663940 time=18.07.2019 19:58:26 Vmax=1.9 Vmin=1.2 Vmid=1.4 Napr=324 uakb=13.78 usb=13.39 temp=19.81 hum=76.73 prs=994.7 Log=65 Err=0
id=663939 time=18.07.2019 19:54:54 Vmax=2 Vmin=1.5 Vmid=1.8 Napr=324 uakb=13.82 usb=13.62 temp=19.89 hum=76.64 prs=994.7 Log=62 Err=0
id=663938 time=18.07.2019 19:53:45 Vmax=1.9 Vmin=0.5 Vmid=1.2 Napr=324 uakb=13.82 usb=13.68 temp=19.92 hum=76.63 prs=994.71 Log=61 Err=0
id=663937 time=18.07.2019 19:52:33 Vmax=1.2 Vmin=0.7 Vmid=0.9 Napr=324 uakb=13.86 usb=13.56 temp=19.94 hum=76.6 prs=994.72 Log=60 Err=0
id=663936 time=18.07.2019 19:51:23 Vmax=1.1 Vmin=0.9 Vmid=0.9 Napr=324 uakb=13.88 usb=13.76 temp=19.97 hum=76.61 prs=994.75 Log=59 Err=0
id=663935 time=18.07.2019 19:50:13 Vmax=1.9 Vmin=1.1 Vmid=1.4 Napr=324 uakb=13.9 usb=13.78 temp=20.01 hum=76.56 prs=994.75 Log=58 Err=0
id=663934 time=18.07.2019 19:49:02 Vmax=2 Vmin=0.8 Vmid=1.2 Napr=324 uakb=13.92 usb=13.8 temp=20.05 hum=76.54 prs=994.73 Log=57 Err=0
id=663933 time=18.07.2019 19:47:52 Vmax=1.2 Vmin=1.1 Vmid=1.1 Napr=324 uakb=13.94 usb=13.8 temp=20.08 hum=76.54 prs=994.66 Log=56 Err=0
id=663932 time=18.07.2019 19:45:31 Vmax=1.3 Vmin=0.7 Vmid=0.9 Napr=324 uakb=14 usb=13.96 temp=20.14 hum=76.47 prs=994.61 Log=54 Err=0
id=663931 time=18.07.2019 19:43:12 Vmax=0.8 Vmin=0.5 Vmid=0.6 Napr=324 uakb=14.08 usb=14.38 temp=20.16 hum=76.45 prs=994.59 Log=52 Err=0
id=663930 time=18.07.2019 19:40:50 Vmax=1.3 Vmin=0.9 Vmid=1.1 Napr=323 uakb=14.08 usb=14.4 temp=20.17 hum=76.39 prs=994.55 Log=50 Err=0
id=663929 time=18.07.2019 19:39:41 Vmax=1.6 Vmin=1.2 Vmid=1.4 Napr=323 uakb=14.08 usb=14.4 temp=20.17 hum=76.34 prs=994.55 Log=49 Err=0
id=663928 time=18.07.2019 19:38:31 Vmax=1.6 Vmin=1.3 Vmid=1.4 Napr=323 uakb=14.08 usb=14.4 temp=20.14 hum=76.35 prs=994.55 Log=48 Err=0
id=663927 time=18.07.2019 19:37:18 Vmax=1.8 Vmin=1.1 Vmid=1.4 Napr=323 uakb=14.1 usb=14.38 temp=20.12 hum=76.32 prs=994.5 Log=47 Err=0
id=663926 time=18.07.2019 19:34:58 Vmax=1.8 Vmin=1.2 Vmid=1.4 Napr=323 uakb=14.08 usb=14.4 temp=20.09 hum=76.24 prs=994.48 Log=45 Err=0
id=663925 time=18.07.2019 19:33:47 Vmax=1.5 Vmin=1.2 Vmid=1.3 Napr=323 uakb=14.08 usb=14.4 temp=20.09 hum=76.22 prs=994.47 Log=44 Err=0
id=663924 time=18.07.2019 19:32:37 Vmax=1.5 Vmin=1.3 Vmid=1.3 Napr=323 uakb=14.1 usb=14.4 temp=20.09 hum=76.19 prs=994.45 Log=43 Err=0
id=663923 time=18.07.2019 19:30:16 Vmax=2.6 Vmin=1.8 Vmid=2 Napr=323 uakb=14.08 usb=14.4 temp=20.12 hum=76.11 prs=994.44 Log=41 Err=0
id=663922 time=18.07.2019 19:29:05 Vmax=2.5 Vmin=2 Vmid=2.2 Napr=323 uakb=14.1 usb=14.4 temp=20.13 hum=76.07 prs=994.4 Log=40 Err=0
id=663921 time=18.07.2019 19:27:57 Vmax=2.9 Vmin=2.5 Vmid=2.6 Napr=323 uakb=14.08 usb=14.38 temp=20.15 hum=76.04 prs=994.45 Log=39 Err=0
id=663920 time=18.07.2019 19:26:45 Vmax=2.8 Vmin=2.1 Vmid=2.5 Napr=322 uakb=14.08 usb=14.38 temp=20.17 hum=76.01 prs=994.41 Log=38 Err=0
id=663919 time=18.07.2019 19:24:25 Vmax=2.5 Vmin=2.2 Vmid=2.3 Napr=317 uakb=14.08 usb=14.4 temp=20.18 hum=75.91 prs=994.35 Log=36 Err=0
id=663918 time=18.07.2019 19:23:15 Vmax=2.6 Vmin=2 Vmid=2.2 Napr=317 uakb=14.08 usb=14.4 temp=20.18 hum=75.87 prs=994.34 Log=35 Err=0
id=663917 time=18.07.2019 19:22:04 Vmax=2.3 Vmin=1.8 Vmid=2 Napr=317 uakb=14.1 usb=14.38 temp=20.19 hum=75.82 prs=994.29 Log=34 Err=0
id=663916 time=18.07.2019 19:20:54 Vmax=2.3 Vmin=1.5 Vmid=1.8 Napr=317 uakb=14.1 usb=14.4 temp=20.19 hum=75.78 prs=994.26 Log=33 Err=0
id=663915 time=18.07.2019 19:18:34 Vmax=1.8 Vmin=1.5 Vmid=1.6 Napr=317 uakb=14.08 usb=14.38 temp=20.2 hum=75.69 prs=994.28 Log=31 Err=0
id=663914 time=18.07.2019 19:13:54 Vmax=2.5 Vmin=2 Vmid=2.1 Napr=317 uakb=14.08 usb=14.4 temp=20.22 hum=75.4 prs=994.33 Log=27 Err=0
id=663913 time=18.07.2019 19:12:45 Vmax=2.9 Vmin=2.3 Vmid=2.6 Napr=317 uakb=14.08 usb=14.38 temp=20.22 hum=75.34 prs=994.33 Log=26 Err=0
id=663912 time=18.07.2019 18:54:41 Vmax=3.9 Vmin=3 Vmid=3.3 Napr=310 uakb=14.08 usb=14.4 temp=20.92 hum=74.48 prs=994.42 Log=12 Err=0
id=663911 time=18.07.2019 18:53:30 Vmax=3.6 Vmin=3.3 Vmid=3.4 Napr=303 uakb=14.08 usb=14.38 temp=21.01 hum=74.43 prs=994.41 Log=11 Err=0
id=663910 time=18.07.2019 18:51:12 Vmax=2.8 Vmin=2.3 Vmid=2.6 Napr=308 uakb=14.08 usb=14.38 temp=21.13 hum=74.37 prs=994.4 Log=9 Err=0
id=663909 time=18.07.2019 18:47:51 Vmax=2.2 Vmin=1.5 Vmid=1.8 Napr=313 uakb=14.08 usb=14.4 temp=21.2 hum=74.28 prs=994.34 Log=6 Err=0
id=663908 time=18.07.2019 18:44:09 Vmax=2.2 Vmin=1.4 Vmid=1.9 Napr=311 uakb=14.08 usb=14.38 temp=21.31 hum=74.11 prs=994.35 Log=3 Err=0
id=663907 time=18.07.2019 18:43:01 Vmax=2.1 Vmin=1.4 Vmid=1.8 Napr=314 uakb=14.08 usb=14.38 temp=21.35 hum=74.07 prs=994.36 Log=2 Err=0
id=663906 time=17.07.2019 20:48:20 Vmax=3.7 Vmin=2.9 Vmid=3.3 Napr=240 uakb=13.7 usb=13.27 temp=19.54 hum=80.51 prs=993.33 Log=290616 Err=0
id=663905 time=17.07.2019 20:47:10 Vmax=3.5 Vmin=2.7 Vmid=3.2 Napr=240 uakb=13.7 usb=13.39 temp=19.54 hum=80.49 prs=993.34 Log=290615 Err=0
id=663904 time=17.07.2019 20:43:39 Vmax=3.6 Vmin=3.2 Vmid=3.4 Napr=235 uakb=13.72 usb=13.46 temp=19.56 hum=80.46 prs=993.33 Log=290612 Err=0
id=663903 time=17.07.2019 20:42:28 Vmax=4 Vmin=3.2 Vmid=3.6 Napr=235 uakb=13.74 usb=13.44 temp=19.55 hum=80.46 prs=993.29 Log=290611 Err=0
id=663902 time=17.07.2019 20:41:18 Vmax=4.1 Vmin=3.5 Vmid=3.7 Napr=235 uakb=13.74 usb=13.52 temp=19.56 hum=80.46 prs=993.33 Log=290610 Err=0
id=663901 time=17.07.2019 20:37:47 Vmax=3.7 Vmin=3.2 Vmid=3.5 Napr=234 uakb=13.74 usb=13.6 temp=19.52 hum=80.42 prs=993.33 Log=290607 Err=0
id=663900 time=17.07.2019 20:36:37 Vmax=4.1 Vmin=3.5 Vmid=3.7 Napr=232 uakb=13.76 usb=13.64 temp=19.51 hum=80.39 prs=993.33 Log=290606 Err=0
id=663899 time=17.07.2019 20:35:27 Vmax=4.2 Vmin=3.7 Vmid=4 Napr=227 uakb=13.74 usb=13.54 temp=19.5 hum=80.39 prs=993.39 Log=290605 Err=0
id=663898 time=17.07.2019 20:34:16 Vmax=4.3 Vmin=3.3 Vmid=3.7 Napr=227 uakb=13.72 usb=13.44 temp=19.51 hum=80.38 prs=993.39 Log=290604 Err=0
id=663897 time=17.07.2019 20:33:06 Vmax=3.9 Vmin=3 Vmid=3.5 Napr=226 uakb=13.72 usb=13.48 temp=19.47 hum=80.38 prs=993.36 Log=290603 Err=0
id=663896 time=17.07.2019 20:31:56 Vmax=4.3 Vmin=3.9 Vmid=4.1 Napr=226 uakb=13.74 usb=13.62 temp=19.45 hum=80.35 prs=993.33 Log=290602 Err=0
id=663895 time=17.07.2019 20:30:45 Vmax=4.4 Vmin=3.7 Vmid=4 Napr=226 uakb=13.72 usb=13.5 temp=19.43 hum=80.35 prs=993.31 Log=290601 Err=0
id=663894 time=17.07.2019 20:29:35 Vmax=4.6 Vmin=4 Vmid=4.2 Napr=226 uakb=13.72 usb=13.41 temp=19.41 hum=80.33 prs=993.32 Log=290600 Err=0
id=663893 time=17.07.2019 20:28:24 Vmax=4.4 Vmin=3.9 Vmid=4.1 Napr=223 uakb=13.74 usb=13.6 temp=19.4 hum=80.31 prs=993.29 Log=290599 Err=0
id=663892 time=17.07.2019 20:27:13 Vmax=4.8 Vmin=4.2 Vmid=4.4 Napr=219 uakb=13.72 usb=13.58 temp=19.39 hum=80.31 prs=993.32 Log=290598 Err=0
id=663891 time=17.07.2019 20:26:03 Vmax=4.7 Vmin=4.2 Vmid=4.4 Napr=216 uakb=13.72 usb=13.5 temp=19.36 hum=80.29 prs=993.31 Log=290597 Err=0
id=663890 time=17.07.2019 20:24:53 Vmax=4.8 Vmin=4.4 Vmid=4.6 Napr=215 uakb=13.7 usb=13.33 temp=19.36 hum=80.26 prs=993.27 Log=290596 Err=0
id=663889 time=17.07.2019 20:23:42 Vmax=4.8 Vmin=4.4 Vmid=4.6 Napr=211 uakb=13.72 usb=13.54 temp=19.36 hum=80.27 prs=993.24 Log=290595 Err=0
id=663888 time=17.07.2019 20:22:32 Vmax=5.1 Vmin=4.1 Vmid=4.7 Napr=211 uakb=13.72 usb=13.37 temp=19.37 hum=80.22 prs=993.24 Log=290594 Err=0
id=663887 time=17.07.2019 20:21:21 Vmax=4.8 Vmin=4.1 Vmid=4.3 Napr=208 uakb=13.74 usb=13.54 temp=19.38 hum=80.19 prs=993.24 Log=290593 Err=0
id=663886 time=17.07.2019 20:20:11 Vmax=4.8 Vmin=4.2 Vmid=4.4 Napr=210 uakb=13.76 usb=13.54 temp=19.37 hum=80.21 prs=993.25 Log=290592 Err=0
id=663885 time=17.07.2019 20:16:41 Vmax=4.8 Vmin=4.1 Vmid=4.4 Napr=213 uakb=13.78 usb=13.56 temp=19.38 hum=80.17 prs=993.24 Log=290589 Err=0
id=663884 time=17.07.2019 20:15:30 Vmax=4.4 Vmin=3.5 Vmid=3.9 Napr=217 uakb=13.78 usb=13.31 temp=19.36 hum=80.17 prs=993.23 Log=290588 Err=0
id=663883 time=17.07.2019 20:13:09 Vmax=4.6 Vmin=4 Vmid=4.2 Napr=215 uakb=13.8 usb=13.54 temp=19.38 hum=80.16 prs=993.26 Log=290586 Err=0
id=663882 time=17.07.2019 20:11:59 Vmax=4.9 Vmin=4.2 Vmid=4.4 Napr=213 uakb=13.82 usb=13.5 temp=19.38 hum=80.13 prs=993.24 Log=290585 Err=0
id=663881 time=17.07.2019 20:10:49 Vmax=5 Vmin=4.3 Vmid=4.7 Napr=216 uakb=13.84 usb=13.6 temp=19.4 hum=80.13 prs=993.25 Log=290584 Err=0
id=663880 time=17.07.2019 20:08:29 Vmax=5.2 Vmin=4.2 Vmid=4.4 Napr=224 uakb=13.9 usb=13.74 temp=19.4 hum=80.11 prs=993.25 Log=290582 Err=0
id=663879 time=17.07.2019 20:07:18 Vmax=4.9 Vmin=4.2 Vmid=4.4 Napr=227 uakb=13.9 usb=13.8 temp=19.39 hum=80.1 prs=993.26 Log=290581 Err=0
id=663878 time=17.07.2019 20:03:47 Vmax=4.4 Vmin=3.6 Vmid=4.1 Napr=222 uakb=13.92 usb=13.78 temp=19.4 hum=80.07 prs=993.21 Log=290578 Err=0
id=663877 time=17.07.2019 20:02:37 Vmax=4.1 Vmin=3.6 Vmid=3.7 Napr=223 uakb=13.92 usb=13.88 temp=19.39 hum=80.09 prs=993.22 Log=290577 Err=0
id=663876 time=17.07.2019 20:01:26 Vmax=3.9 Vmin=3.2 Vmid=3.5 Napr=224 uakb=13.94 usb=13.86 temp=19.4 hum=80.1 prs=993.18 Log=290576 Err=0
id=663875 time=17.07.2019 20:00:16 Vmax=3.6 Vmin=3.3 Vmid=3.4 Napr=226 uakb=13.94 usb=13.78 temp=19.42 hum=80.09 prs=993.18 Log=290575 Err=0
id=663874 time=17.07.2019 19:59:06 Vmax=4.1 Vmin=3.3 Vmid=3.6 Napr=228 uakb=13.96 usb=13.92 temp=19.43 hum=80.1 prs=993.2 Log=290574 Err=0
id=663873 time=17.07.2019 19:57:55 Vmax=3.6 Vmin=3.4 Vmid=3.5 Napr=228 uakb=13.98 usb=13.9 temp=19.43 hum=80.1 prs=993.2 Log=290573 Err=0
id=663872 time=17.07.2019 19:56:45 Vmax=4.4 Vmin=3.9 Vmid=4.1 Napr=227 uakb=13.98 usb=13.92 temp=19.44 hum=80.1 prs=993.2 Log=290572 Err=0
id=663871 time=17.07.2019 19:55:35 Vmax=4.6 Vmin=4.2 Vmid=4.3 Napr=227 uakb=14 usb=14.04 temp=19.48 hum=80.09 prs=993.2 Log=290571 Err=0
id=663870 time=17.07.2019 19:54:24 Vmax=4.2 Vmin=3.9 Vmid=4.1 Napr=227 uakb=14 usb=14.04 temp=19.51 hum=80.1 prs=993.23 Log=290570 Err=0
id=663869 time=17.07.2019 19:53:14 Vmax=4.2 Vmin=2.9 Vmid=3.4 Napr=226 uakb=14.02 usb=14.04 temp=19.53 hum=80.1 prs=993.24 Log=290569 Err=0
id=663868 time=17.07.2019 19:52:03 Vmax=4.2 Vmin=3.6 Vmid=3.9 Napr=226 uakb=14.04 usb=14.12 temp=19.56 hum=80.12 prs=993.23 Log=290568 Err=0
id=663867 time=17.07.2019 19:50:52 Vmax=4.3 Vmin=3.6 Vmid=3.7 Napr=226 uakb=14.04 usb=14.16 temp=19.61 hum=80.13 prs=993.22 Log=290567 Err=0
id=663866 time=17.07.2019 19:49:42 Vmax=4.3 Vmin=3.6 Vmid=4 Napr=231 uakb=14.02 usb=14.04 temp=19.64 hum=80.13 prs=993.26 Log=290566 Err=0
id=663865 time=17.07.2019 19:20:44 Vmax=3.4 Vmin=2.8 Vmid=3 Napr=246 uakb=14.1 usb=14.4 temp=19.92 hum=80.55 prs=993.18 Log=290544 Err=0
id=663864 time=17.07.2019 19:19:35 Vmax=3.5 Vmin=2.9 Vmid=3.2 Napr=246 uakb=14.1 usb=14.4 temp=19.93 hum=80.56 prs=993.19 Log=290543 Err=0
id=663863 time=17.07.2019 19:08:23 Vmax=2.7 Vmin=1.9 Vmid=2.2 Napr=250 uakb=14.1 usb=14.4 temp=20.13 hum=80.66 prs=993.13 Log=290535 Err=0
id=663862 time=17.07.2019 19:07:11 Vmax=3 Vmin=2.5 Vmid=2.7 Napr=247 uakb=14.1 usb=14.4 temp=20.18 hum=80.67 prs=993.16 Log=290534 Err=0
id=663861 time=17.07.2019 19:06:01 Vmax=3.2 Vmin=2.2 Vmid=2.8 Napr=244 uakb=14.1 usb=14.4 temp=20.23 hum=80.67 prs=993.16 Log=290533 Err=0
id=663860 time=17.07.2019 19:04:51 Vmax=2.8 Vmin=2 Vmid=2.3 Napr=244 uakb=14.1 usb=14.4 temp=20.28 hum=80.65 prs=993.17 Log=290532 Err=0
id=663859 time=17.07.2019 19:03:40 Vmax=3.6 Vmin=2.8 Vmid=3.2 Napr=244 uakb=14.1 usb=14.38 temp=20.33 hum=80.68 prs=993.12 Log=290531 Err=0
id=663858 time=17.07.2019 19:02:30 Vmax=3.2 Vmin=2.3 Vmid=2.6 Napr=248 uakb=14.1 usb=14.4 temp=20.37 hum=80.68 prs=993.15 Log=290530 Err=0
id=663857 time=17.07.2019 19:01:19 Vmax=2.8 Vmin=2.5 Vmid=2.6 Napr=250 uakb=14.08 usb=14.4 temp=20.41 hum=80.64 prs=993.13 Log=290529 Err=0
id=663856 time=17.07.2019 18:57:50 Vmax=2.7 Vmin=2.5 Vmid=2.5 Napr=231 uakb=14.1 usb=14.38 temp=20.52 hum=80.63 prs=993.17 Log=290526 Err=0
id=663855 time=17.07.2019 18:40:19 Vmax=2.3 Vmin=2.1 Vmid=2.2 Napr=197 uakb=14.1 usb=14.4 temp=20.72 hum=80.42 prs=993.15 Log=290513 Err=0
id=663854 time=17.07.2019 18:39:09 Vmax=2.5 Vmin=2 Vmid=2.1 Napr=186 uakb=14.1 usb=14.38 temp=20.71 hum=80.42 prs=993.15 Log=290512 Err=0
id=663853 time=17.07.2019 18:37:57 Vmax=2 Vmin=1.6 Vmid=1.8 Napr=182 uakb=14.1 usb=14.4 temp=20.67 hum=80.39 prs=993.18 Log=290511 Err=0
id=663852 time=17.07.2019 18:36:48 Vmax=2.1 Vmin=1.8 Vmid=1.8 Napr=182 uakb=14.08 usb=14.4 temp=20.64 hum=80.39 prs=993.18 Log=290510 Err=0
id=663851 time=17.07.2019 18:33:17 Vmax=2.9 Vmin=2.1 Vmid=2.5 Napr=180 uakb=14.1 usb=14.4 temp=20.55 hum=80.28 prs=993.11 Log=290507 Err=0
id=663850 time=17.07.2019 18:32:06 Vmax=3.2 Vmin=2.2 Vmid=2.6 Napr=180 uakb=14.1 usb=14.4 temp=20.51 hum=80.26 prs=993.12 Log=290506 Err=0
id=663849 time=17.07.2019 18:30:57 Vmax=2.3 Vmin=2.1 Vmid=2.2 Napr=180 uakb=14.1 usb=14.4 temp=20.45 hum=80.25 prs=993.1 Log=290505 Err=0
id=663848 time=17.07.2019 18:29:45 Vmax=2.3 Vmin=1.9 Vmid=2.1 Napr=180 uakb=14.1 usb=14.4 temp=20.38 hum=80.22 prs=993.08 Log=290504 Err=0
id=663847 time=17.07.2019 18:28:37 Vmax=1.9 Vmin=1.8 Vmid=1.8 Napr=180 uakb=14.1 usb=14.4 temp=20.28 hum=80.19 prs=993.07 Log=290503 Err=0
id=663846 time=17.07.2019 18:27:25 Vmax=2.1 Vmin=1.8 Vmid=1.9 Napr=180 uakb=14.1 usb=14.4 temp=20.22 hum=80.15 prs=993.14 Log=290502 Err=0
id=663845 time=17.07.2019 18:26:14 Vmax=2.3 Vmin=2 Vmid=2.1 Napr=180 uakb=14.1 usb=14.4 temp=20.18 hum=80.11 prs=993.14 Log=290501 Err=0
id=663844 time=17.07.2019 18:25:04 Vmax=2.8 Vmin=2.3 Vmid=2.6 Napr=180 uakb=14.1 usb=14.4 temp=20.15 hum=80.08 prs=993.15 Log=290500 Err=0
id=663843 time=17.07.2019 18:23:54 Vmax=2.7 Vmin=2.3 Vmid=2.5 Napr=180 uakb=14.1 usb=14.42 temp=20.11 hum=80.05 prs=993.11 Log=290499 Err=0
id=663842 time=17.07.2019 18:22:42 Vmax=2.6 Vmin=2.2 Vmid=2.5 Napr=180 uakb=14.1 usb=14.4 temp=20.09 hum=79.99 prs=993.09 Log=290498 Err=0
id=663841 time=17.07.2019 18:21:31 Vmax=2.8 Vmin=2.3 Vmid=2.6 Napr=180 uakb=14.1 usb=14.4 temp=20.08 hum=80 prs=993.09 Log=290497 Err=0
id=663840 time=17.07.2019 18:18:02 Vmax=2.7 Vmin=2.2 Vmid=2.5 Napr=181 uakb=14.1 usb=14.4 temp=20.04 hum=79.86 prs=993.17 Log=290494 Err=0
id=663839 time=17.07.2019 18:16:51 Vmax=2.7 Vmin=2.3 Vmid=2.5 Napr=181 uakb=14.1 usb=14.4 temp=20.04 hum=79.82 prs=993.18 Log=290493 Err=0
id=663838 time=17.07.2019 18:15:40 Vmax=2.7 Vmin=2.6 Vmid=2.6 Napr=181 uakb=14.1 usb=14.4 temp=20.07 hum=79.77 prs=993.22 Log=290492 Err=0
id=663837 time=17.07.2019 18:14:29 Vmax=3 Vmin=2.7 Vmid=2.8 Napr=181 uakb=14.1 usb=14.4 temp=20.09 hum=79.75 prs=993.21 Log=290491 Err=0
id=663836 time=17.07.2019 18:13:20 Vmax=2.8 Vmin=2.6 Vmid=2.7 Napr=181 uakb=14.1 usb=14.4 temp=20.14 hum=79.67 prs=993.2 Log=290490 Err=0
id=663835 time=17.07.2019 18:10:59 Vmax=2.5 Vmin=2 Vmid=2.3 Napr=182 uakb=14.1 usb=14.4 temp=20.15 hum=79.63 prs=993.27 Log=290488 Err=0
id=663834 time=17.07.2019 18:09:48 Vmax=2.8 Vmin=2.5 Vmid=2.6 Napr=183 uakb=14.1 usb=14.4 temp=20.16 hum=79.57 prs=993.3 Log=290487 Err=0
id=663833 time=17.07.2019 18:08:38 Vmax=2.5 Vmin=2 Vmid=2.1 Napr=186 uakb=14.1 usb=14.4 temp=20.19 hum=79.53 prs=993.29 Log=290486 Err=0
id=663832 time=17.07.2019 18:07:27 Vmax=2.5 Vmin=1.9 Vmid=2.1 Napr=186 uakb=14.1 usb=14.4 temp=20.21 hum=79.5 prs=993.28 Log=290485 Err=0
id=663831 time=17.07.2019 18:06:17 Vmax=2.3 Vmin=2.1 Vmid=2.2 Napr=187 uakb=14.1 usb=14.4 temp=20.23 hum=79.46 prs=993.27 Log=290484 Err=0
id=663830 time=17.07.2019 18:05:06 Vmax=2.8 Vmin=2.5 Vmid=2.6 Napr=190 uakb=14.1 usb=14.4 temp=20.24 hum=79.42 prs=993.31 Log=290483 Err=0
id=663829 time=17.07.2019 18:03:56 Vmax=2.7 Vmin=2.2 Vmid=2.5 Napr=191 uakb=14.1 usb=14.4 temp=20.24 hum=79.37 prs=993.33 Log=290482 Err=0
id=663828 time=17.07.2019 18:02:45 Vmax=2.7 Vmin=2.2 Vmid=2.3 Napr=191 uakb=14.1 usb=14.4 temp=20.16 hum=79.34 prs=993.3 Log=290481 Err=0
id=663827 time=17.07.2019 18:01:35 Vmax=2.3 Vmin=2 Vmid=2.1 Napr=193 uakb=14.1 usb=14.4 temp=20.01 hum=79.3 prs=993.29 Log=290480 Err=0
id=663826 time=17.07.2019 18:00:25 Vmax=2.1 Vmin=1.8 Vmid=1.9 Napr=193 uakb=14.1 usb=14.4 temp=19.84 hum=79.26 prs=993.27 Log=290479 Err=0
id=663825 time=17.07.2019 17:56:54 Vmax=2.8 Vmin=2.3 Vmid=2.6 Napr=193 uakb=14.1 usb=14.4 temp=19.4 hum=79.08 prs=993.34 Log=290476 Err=0
id=663824 time=17.07.2019 17:55:44 Vmax=2.8 Vmin=2.1 Vmid=2.3 Napr=193 uakb=14.1 usb=14.4 temp=19.27 hum=79.03 prs=993.33 Log=290475 Err=0
id=663823 time=17.07.2019 17:54:33 Vmax=2.2 Vmin=2 Vmid=2.1 Napr=195 uakb=14.1 usb=14.42 temp=19.15 hum=78.94 prs=993.35 Log=290474 Err=0
id=663822 time=17.07.2019 17:53:23 Vmax=2 Vmin=1.8 Vmid=1.9 Napr=200 uakb=14.1 usb=14.4 temp=18.99 hum=78.89 prs=993.37 Log=290473 Err=0
id=663821 time=17.07.2019 17:52:12 Vmax=2.8 Vmin=2 Vmid=2.5 Napr=213 uakb=14.1 usb=14.42 temp=18.81 hum=78.85 prs=993.37 Log=290472 Err=0
id=663820 time=17.07.2019 17:51:02 Vmax=2.8 Vmin=2.6 Vmid=2.6 Napr=248 uakb=14.1 usb=14.4 temp=18.64 hum=78.77 prs=993.32 Log=290471 Err=0
id=663819 time=17.07.2019 17:49:51 Vmax=2.1 Vmin=1.6 Vmid=1.9 Napr=259 uakb=14.1 usb=14.4 temp=18.53 hum=78.69 prs=993.33 Log=290470 Err=0
id=663818 time=17.07.2019 17:48:41 Vmax=2.3 Vmin=2 Vmid=2.1 Napr=260 uakb=14.1 usb=14.4 temp=18.46 hum=78.62 prs=993.32 Log=290469 Err=0
id=663817 time=17.07.2019 17:47:30 Vmax=2.8 Vmin=2.6 Vmid=2.6 Napr=260 uakb=14.08 usb=14.4 temp=18.44 hum=78.55 prs=993.33 Log=290468 Err=0
id=663816 time=17.07.2019 17:46:20 Vmax=3 Vmin=2.7 Vmid=2.9 Napr=260 uakb=14.1 usb=14.4 temp=18.43 hum=78.49 prs=993.36 Log=290467 Err=0
id=663815 time=17.07.2019 17:45:10 Vmax=3.2 Vmin=2 Vmid=2.5 Napr=262 uakb=14.1 usb=14.4 temp=18.46 hum=78.44 prs=993.39 Log=290466 Err=0
id=663814 time=17.07.2019 17:44:00 Vmax=3.4 Vmin=2.3 Vmid=2.8 Napr=263 uakb=14.08 usb=14.4 temp=18.51 hum=78.39 prs=993.42 Log=290465 Err=0
id=663813 time=17.07.2019 17:42:49 Vmax=3.9 Vmin=3 Vmid=3.5 Napr=262 uakb=14.1 usb=14.4 temp=18.58 hum=78.32 prs=993.45 Log=290464 Err=0
id=663812 time=17.07.2019 17:41:38 Vmax=4.4 Vmin=2.8 Vmid=3.3 Napr=257 uakb=14.08 usb=14.4 temp=18.62 hum=78.28 prs=993.48 Log=290463 Err=0
id=663811 time=17.07.2019 17:40:28 Vmax=4.1 Vmin=3 Vmid=3.4 Napr=246 uakb=14.08 usb=14.4 temp=18.63 hum=78.23 prs=993.5 Log=290462 Err=0
id=663810 time=17.07.2019 17:39:18 Vmax=3 Vmin=0.7 Vmid=1.8 Napr=237 uakb=14.06 usb=14.4 temp=18.63 hum=78.18 prs=993.54 Log=290461 Err=0
id=663809 time=17.07.2019 17:38:07 Vmax=1.2 Vmin=0 Vmid=0.4 Napr=206 uakb=14.02 usb=14.32 temp=18.62 hum=78.13 prs=993.53 Log=290460 Err=0
id=663808 time=17.07.2019 17:36:58 Vmax=0 Vmin=0 Vmid=0 Napr=182 uakb=13.96 usb=14.28 temp=18.58 hum=78.07 prs=993.5 Log=290459 Err=0
id=663807 time=17.07.2019 17:35:46 Vmax=0 Vmin=0 Vmid=0 Napr=182 uakb=13.92 usb=14.22 temp=18.56 hum=78 prs=993.48 Log=290458 Err=0
id=663806 time=17.07.2019 17:34:36 Vmax=0 Vmin=0 Vmid=0 Napr=182 uakb=13.88 usb=14.12 temp=18.55 hum=77.95 prs=993.45 Log=290457 Err=0
id=663805 time=17.07.2019 17:31:06 Vmax=0.5 Vmin=0 Vmid=0.1 Napr=182 uakb=13.8 usb=13.6 temp=18.56 hum=77.78 prs=993.45 Log=290454 Err=0
id=663804 time=17.07.2019 17:29:55 Vmax=1.4 Vmin=0.7 Vmid=0.9 Napr=182 uakb=13.78 usb=13.72 temp=18.55 hum=77.71 prs=993.41 Log=290453 Err=0
id=663803 time=17.07.2019 17:28:45 Vmax=1.5 Vmin=1.3 Vmid=1.3 Napr=182 uakb=13.78 usb=13.72 temp=18.53 hum=77.65 prs=993.39 Log=290452 Err=0
id=663802 time=17.07.2019 17:27:34 Vmax=1.9 Vmin=1.3 Vmid=1.5 Napr=182 uakb=13.78 usb=13.7 temp=18.5 hum=77.58 prs=993.38 Log=290451 Err=0
id=663801 time=17.07.2019 17:25:14 Vmax=18.3 Vmin=1.9 Vmid=7.6 Napr=182 uakb=13.74 usb=13.52 temp=18.47 hum=77.43 prs=993.31 Log=290449 Err=0
id=663800 time=17.07.2019 17:24:04 Vmax=42.8 Vmin=24.9 Vmid=34.3 Napr=182 uakb=13.74 usb=13.44 temp=18.48 hum=77.36 prs=993.34 Log=290448 Err=0
id=663799 time=17.07.2019 17:22:54 Vmax=31.1 Vmin=18.5 Vmid=24.1 Napr=182 uakb=13.74 usb=13.58 temp=18.49 hum=77.28 prs=993.31 Log=290447 Err=0
id=663798 time=17.07.2019 17:21:43 Vmax=11.4 Vmin=2.2 Vmid=4.9 Napr=182 uakb=13.74 usb=13.42 temp=18.49 hum=77.22 prs=993.28 Log=290446 Err=0
id=663797 time=17.07.2019 17:20:33 Vmax=3.3 Vmin=2.8 Vmid=2.9 Napr=182 uakb=13.76 usb=13.58 temp=18.49 hum=77.15 prs=993.25 Log=290445 Err=0
id=663796 time=17.07.2019 17:19:22 Vmax=3.4 Vmin=3 Vmid=3.2 Napr=183 uakb=13.78 usb=13.64 temp=18.49 hum=77.09 prs=993.26 Log=290444 Err=0
id=663795 time=17.07.2019 17:17:02 Vmax=4.8 Vmin=4.3 Vmid=4.4 Napr=184 uakb=13.8 usb=13.64 temp=18.55 hum=76.93 prs=993.25 Log=290442 Err=0
id=663794 time=17.07.2019 17:15:51 Vmax=4.7 Vmin=3.9 Vmid=4.2 Napr=188 uakb=13.8 usb=13.62 temp=18.57 hum=76.85 prs=993.29 Log=290441 Err=0
id=663793 time=17.07.2019 17:14:40 Vmax=4.9 Vmin=4.2 Vmid=4.6 Napr=192 uakb=13.82 usb=13.6 temp=18.62 hum=76.77 prs=993.3 Log=290440 Err=0
id=663792 time=17.07.2019 17:13:31 Vmax=5.5 Vmin=4.9 Vmid=5.1 Napr=193 uakb=13.82 usb=13.66 temp=18.64 hum=76.71 prs=993.27 Log=290439 Err=0
id=663791 time=17.07.2019 17:12:20 Vmax=4.8 Vmin=4.4 Vmid=4.6 Napr=194 uakb=13.84 usb=13.54 temp=18.66 hum=76.63 prs=993.29 Log=290438 Err=0
id=663790 time=17.07.2019 17:11:10 Vmax=5.6 Vmin=4.9 Vmid=5.2 Napr=193 uakb=13.84 usb=13.66 temp=18.69 hum=76.54 prs=993.27 Log=290437 Err=0
id=663789 time=17.07.2019 17:08:50 Vmax=5.4 Vmin=4.9 Vmid=5 Napr=199 uakb=13.88 usb=13.66 temp=18.74 hum=76.38 prs=993.2 Log=290435 Err=0
id=663788 time=17.07.2019 17:07:39 Vmax=5.7 Vmin=4.6 Vmid=4.9 Napr=201 uakb=13.9 usb=13.88 temp=18.76 hum=76.32 prs=993.23 Log=290434 Err=0
id=663787 time=17.07.2019 17:05:20 Vmax=5.2 Vmin=4 Vmid=4.7 Napr=204 uakb=13.9 usb=13.9 temp=18.74 hum=76.12 prs=993.25 Log=290432 Err=0
id=663786 time=17.07.2019 17:04:09 Vmax=4.4 Vmin=3.9 Vmid=4.2 Napr=202 uakb=13.92 usb=13.98 temp=18.73 hum=76.05 prs=993.23 Log=290431 Err=0
id=663785 time=17.07.2019 17:02:58 Vmax=4.1 Vmin=4 Vmid=4 Napr=200 uakb=13.92 usb=13.82 temp=18.72 hum=75.97 prs=993.19 Log=290430 Err=0
id=663784 time=17.07.2019 17:01:48 Vmax=4.7 Vmin=4 Vmid=4.2 Napr=200 uakb=13.9 usb=13.98 temp=18.69 hum=75.88 prs=993.16 Log=290429 Err=0
id=663783 time=17.07.2019 16:59:27 Vmax=4.4 Vmin=3.9 Vmid=4.1 Napr=202 uakb=13.92 usb=13.86 temp=18.64 hum=75.71 prs=993.12 Log=290427 Err=0
id=663782 time=17.07.2019 16:58:19 Vmax=4.7 Vmin=4.1 Vmid=4.3 Napr=202 uakb=13.94 usb=13.92 temp=18.64 hum=75.63 prs=993.15 Log=290426 Err=0
id=663781 time=17.07.2019 16:57:07 Vmax=4.2 Vmin=3.6 Vmid=3.9 Napr=202 uakb=13.92 usb=13.78 temp=18.64 hum=75.53 prs=993.17 Log=290425 Err=0
id=663780 time=17.07.2019 16:55:56 Vmax=4.4 Vmin=4 Vmid=4.1 Napr=202 uakb=13.94 usb=13.98 temp=18.63 hum=75.41 prs=993.16 Log=290424 Err=0
id=663779 time=17.07.2019 16:54:46 Vmax=5.1 Vmin=4.9 Vmid=4.9 Napr=202 uakb=13.92 usb=13.82 temp=18.65 hum=75.3 prs=993.1 Log=290423 Err=0
id=663778 time=17.07.2019 16:53:35 Vmax=5.8 Vmin=5.5 Vmid=5.7 Napr=202 uakb=13.92 usb=13.94 temp=18.68 hum=75.2 prs=993.09 Log=290422 Err=0
id=663777 time=17.07.2019 16:52:26 Vmax=5.7 Vmin=5.2 Vmid=5.6 Napr=199 uakb=13.92 usb=14.2 temp=18.72 hum=75.08 prs=993.04 Log=290421 Err=0
id=663776 time=17.07.2019 16:51:15 Vmax=5.4 Vmin=5 Vmid=5.1 Napr=198 uakb=13.9 usb=13.86 temp=18.77 hum=74.98 prs=993.04 Log=290420 Err=0
id=663775 time=17.07.2019 16:50:04 Vmax=5.9 Vmin=5 Vmid=5.4 Napr=203 uakb=13.88 usb=13.78 temp=18.86 hum=74.83 prs=993.13 Log=290419 Err=0
id=663774 time=17.07.2019 16:47:44 Vmax=6.6 Vmin=4.9 Vmid=5.6 Napr=211 uakb=13.88 usb=13.72 temp=18.93 hum=74.64 prs=993.15 Log=290417 Err=0
id=663773 time=17.07.2019 16:46:34 Vmax=5.4 Vmin=4.3 Vmid=5 Napr=209 uakb=13.9 usb=13.8 temp=18.93 hum=74.54 prs=993.15 Log=290416 Err=0
id=663772 time=17.07.2019 16:45:23 Vmax=5.6 Vmin=4.6 Vmid=4.9 Napr=210 uakb=13.94 usb=13.9 temp=18.96 hum=74.43 prs=993.11 Log=290415 Err=0
id=663771 time=17.07.2019 16:44:13 Vmax=5.8 Vmin=5.1 Vmid=5.5 Napr=213 uakb=13.94 usb=13.82 temp=18.97 hum=74.31 prs=993.12 Log=290414 Err=0
id=663770 time=17.07.2019 16:43:03 Vmax=5.9 Vmin=5.2 Vmid=5.5 Napr=213 uakb=13.94 usb=13.8 temp=18.99 hum=74.21 prs=993.07 Log=290413 Err=0
id=663769 time=17.07.2019 16:41:52 Vmax=5.8 Vmin=4.8 Vmid=5.1 Napr=209 uakb=13.98 usb=13.98 temp=18.98 hum=74.1 prs=993 Log=290412 Err=0
id=663768 time=17.07.2019 16:40:41 Vmax=4.2 Vmin=4 Vmid=4.1 Napr=208 uakb=13.98 usb=14.02 temp=18.96 hum=74.02 prs=992.91 Log=290411 Err=0
id=663767 time=17.07.2019 16:39:30 Vmax=4.4 Vmin=4 Vmid=4.3 Napr=207 uakb=13.98 usb=13.88 temp=18.98 hum=73.87 prs=992.89 Log=290410 Err=0
id=663766 time=17.07.2019 16:38:21 Vmax=4.9 Vmin=4.2 Vmid=4.4 Napr=206 uakb=14.02 usb=14.1 temp=18.99 hum=73.77 prs=992.89 Log=290409 Err=0
id=663765 time=17.07.2019 16:37:10 Vmax=4.4 Vmin=4.1 Vmid=4.2 Napr=207 uakb=14.02 usb=14.12 temp=18.98 hum=73.63 prs=992.87 Log=290408 Err=0
id=663764 time=17.07.2019 16:35:59 Vmax=4.3 Vmin=3.3 Vmid=3.6 Napr=207 uakb=14.04 usb=14.1 temp=18.99 hum=73.51 prs=992.88 Log=290407 Err=0
id=663763 time=17.07.2019 16:34:50 Vmax=3.3 Vmin=2.9 Vmid=3 Napr=206 uakb=14.08 usb=14.38 temp=18.98 hum=73.39 prs=992.91 Log=290406 Err=0
id=663762 time=17.07.2019 16:32:28 Vmax=3.6 Vmin=3.4 Vmid=3.4 Napr=199 uakb=14.08 usb=14.4 temp=19 hum=73.13 prs=992.91 Log=290404 Err=0
id=663761 time=17.07.2019 16:31:18 Vmax=3.7 Vmin=2.8 Vmid=3.4 Napr=200 uakb=14.08 usb=14.4 temp=19.03 hum=72.98 prs=992.94 Log=290403 Err=0
id=663760 time=17.07.2019 16:30:08 Vmax=3.6 Vmin=3.5 Vmid=3.5 Napr=198 uakb=14.08 usb=14.4 temp=19.05 hum=72.84 prs=992.96 Log=290402 Err=0
id=663759 time=17.07.2019 16:28:57 Vmax=5.2 Vmin=4.1 Vmid=4.6 Napr=200 uakb=14.08 usb=14.4 temp=19.1 hum=72.68 prs=992.96 Log=290401 Err=0
id=663758 time=17.07.2019 16:27:47 Vmax=5.8 Vmin=3.6 Vmid=4.4 Napr=207 uakb=14.08 usb=14.4 temp=19.18 hum=72.52 prs=993.04 Log=290400 Err=0
id=663757 time=17.07.2019 16:24:16 Vmax=5.7 Vmin=5 Vmid=5.2 Napr=207 uakb=14.06 usb=14.38 temp=19.4 hum=72.05 prs=993.13 Log=290397 Err=0
id=663756 time=17.07.2019 16:23:05 Vmax=5.7 Vmin=4.7 Vmid=5.4 Napr=209 uakb=14.02 usb=14.12 temp=19.49 hum=71.93 prs=993.2 Log=290396 Err=0
id=663755 time=17.07.2019 16:19:35 Vmax=6.4 Vmin=4.8 Vmid=5.6 Napr=200 uakb=13.98 usb=14.3 temp=19.64 hum=71.62 prs=993.1 Log=290393 Err=0
id=663754 time=17.07.2019 16:18:26 Vmax=5.4 Vmin=4.7 Vmid=5 Napr=197 uakb=13.96 usb=14.06 temp=19.68 hum=71.49 prs=993.1 Log=290392 Err=0
id=663753 time=17.07.2019 16:17:14 Vmax=4.9 Vmin=4.4 Vmid=4.6 Napr=202 uakb=13.92 usb=13.96 temp=19.72 hum=71.38 prs=993.09 Log=290391 Err=0
id=663752 time=17.07.2019 16:16:04 Vmax=5.6 Vmin=4.7 Vmid=4.9 Napr=207 uakb=13.9 usb=13.86 temp=19.75 hum=71.29 prs=993.1 Log=290390 Err=0
id=663751 time=17.07.2019 16:14:53 Vmax=5.9 Vmin=4.9 Vmid=5.4 Napr=209 uakb=13.88 usb=14.18 temp=19.79 hum=71.2 prs=993.1 Log=290389 Err=0
id=663750 time=17.07.2019 16:13:42 Vmax=6.6 Vmin=5.4 Vmid=5.9 Napr=210 uakb=13.88 usb=13.94 temp=19.84 hum=71.08 prs=993.1 Log=290388 Err=0
id=663749 time=17.07.2019 16:12:32 Vmax=6.2 Vmin=5.2 Vmid=5.6 Napr=209 uakb=13.86 usb=13.92 temp=19.87 hum=70.95 prs=993.08 Log=290387 Err=0
id=663748 time=17.07.2019 16:11:22 Vmax=6.1 Vmin=5.6 Vmid=5.8 Napr=211 uakb=13.86 usb=13.76 temp=19.9 hum=70.87 prs=993.06 Log=290386 Err=0
id=663747 time=17.07.2019 16:10:11 Vmax=6.1 Vmin=5.4 Vmid=5.7 Napr=211 uakb=13.88 usb=13.88 temp=19.93 hum=70.79 prs=993.03 Log=290385 Err=0
id=663746 time=17.07.2019 16:09:01 Vmax=5.6 Vmin=5 Vmid=5.1 Napr=207 uakb=13.88 usb=14 temp=19.95 hum=70.7 prs=993.02 Log=290384 Err=0
id=663745 time=17.07.2019 16:06:41 Vmax=6.4 Vmin=4.7 Vmid=5.7 Napr=201 uakb=13.86 usb=13.88 temp=20.07 hum=70.5 prs=992.98 Log=290382 Err=0
id=663744 time=17.07.2019 16:02:02 Vmax=8.4 Vmin=7.1 Vmid=7.7 Napr=223 uakb=13.86 usb=13.78 temp=20.46 hum=70.09 prs=992.94 Log=290378 Err=0
id=663743 time=17.07.2019 16:00:50 Vmax=7.2 Vmin=6.5 Vmid=6.8 Napr=217 uakb=13.86 usb=13.68 temp=20.54 hum=70.03 prs=992.99 Log=290377 Err=0
id=663742 time=17.07.2019 15:59:40 Vmax=7.5 Vmin=4.8 Vmid=5.7 Napr=213 uakb=13.9 usb=13.82 temp=20.58 hum=69.93 prs=992.99 Log=290376 Err=0
id=663741 time=17.07.2019 15:58:30 Vmax=5.1 Vmin=4.2 Vmid=4.7 Napr=209 uakb=13.9 usb=13.68 temp=20.59 hum=69.83 prs=992.92 Log=290375 Err=0
id=663740 time=17.07.2019 15:57:20 Vmax=5.2 Vmin=4.4 Vmid=4.9 Napr=210 uakb=13.92 usb=13.76 temp=20.62 hum=69.74 prs=992.91 Log=290374 Err=0
id=663739 time=17.07.2019 15:56:09 Vmax=5.2 Vmin=4.6 Vmid=4.9 Napr=212 uakb=13.94 usb=13.74 temp=20.64 hum=69.65 prs=992.91 Log=290373 Err=0
id=663738 time=17.07.2019 15:53:48 Vmax=6.4 Vmin=5.7 Vmid=5.9 Napr=213 uakb=13.98 usb=13.84 temp=20.7 hum=69.45 prs=992.85 Log=290371 Err=0
id=663737 time=17.07.2019 15:52:37 Vmax=6.4 Vmin=5.1 Vmid=5.8 Napr=213 uakb=14.02 usb=14.18 temp=20.72 hum=69.33 prs=992.81 Log=290370 Err=0
id=663736 time=17.07.2019 15:51:27 Vmax=4.4 Vmin=3.9 Vmid=4.1 Napr=213 uakb=14.02 usb=14.16 temp=20.72 hum=69.24 prs=992.81 Log=290369 Err=0
id=663735 time=17.07.2019 15:49:07 Vmax=5.4 Vmin=4.7 Vmid=4.9 Napr=213 uakb=14.06 usb=14.32 temp=20.76 hum=69.01 prs=992.8 Log=290367 Err=0
id=663734 time=17.07.2019 15:47:56 Vmax=5.9 Vmin=5.4 Vmid=5.6 Napr=212 uakb=14.04 usb=14.36 temp=20.81 hum=68.89 prs=992.81 Log=290366 Err=0
id=663733 time=17.07.2019 15:46:47 Vmax=6.3 Vmin=4.7 Vmid=5.6 Napr=211 uakb=14.06 usb=14.36 temp=20.85 hum=68.76 prs=992.78 Log=290365 Err=0
id=663732 time=17.07.2019 15:45:36 Vmax=4.4 Vmin=3.7 Vmid=4 Napr=207 uakb=14.08 usb=14.38 temp=20.87 hum=68.65 prs=992.79 Log=290364 Err=0
id=663731 time=17.07.2019 15:44:24 Vmax=5.2 Vmin=4.2 Vmid=4.8 Napr=207 uakb=14.08 usb=14.38 temp=20.87 hum=68.51 prs=992.73 Log=290363 Err=0
id=663730 time=17.07.2019 15:43:14 Vmax=5.5 Vmin=4.9 Vmid=5.2 Napr=207 uakb=14.08 usb=14.4 temp=20.89 hum=68.39 prs=992.73 Log=290362 Err=0
id=663729 time=17.07.2019 15:42:03 Vmax=6.8 Vmin=5.7 Vmid=6.1 Napr=208 uakb=14.08 usb=14.4 temp=20.92 hum=68.25 prs=992.68 Log=290361 Err=0
id=663728 time=17.07.2019 15:40:52 Vmax=6.4 Vmin=5 Vmid=5.4 Napr=209 uakb=14.08 usb=14.4 temp=20.93 hum=68.11 prs=992.65 Log=290360 Err=0
id=663727 time=17.07.2019 15:39:42 Vmax=5.8 Vmin=4.7 Vmid=5.4 Napr=211 uakb=14.08 usb=14.4 temp=20.95 hum=67.83 prs=992.63 Log=290359 Err=0
id=663726 time=17.07.2019 15:38:32 Vmax=6.1 Vmin=5.1 Vmid=5.5 Napr=208 uakb=14.08 usb=14.38 temp=20.97 hum=67.83 prs=992.62 Log=290358 Err=0
id=663725 time=17.07.2019 15:37:21 Vmax=5.6 Vmin=5.1 Vmid=5.4 Napr=207 uakb=14.08 usb=14.38 temp=21.01 hum=67.69 prs=992.65 Log=290357 Err=0
id=663724 time=17.07.2019 15:36:10 Vmax=5.9 Vmin=5.7 Vmid=5.8 Napr=209 uakb=14.08 usb=14.38 temp=21.06 hum=67.55 prs=992.67 Log=290356 Err=0
id=663723 time=17.07.2019 15:33:49 Vmax=6.9 Vmin=5.9 Vmid=6.3 Napr=213 uakb=14.08 usb=14.4 temp=21.22 hum=67.28 prs=992.65 Log=290354 Err=0
id=663722 time=17.07.2019 15:32:48 Vmax=6.6 Vmin=6.1 Vmid=6.2 Napr=213 uakb=14.06 usb=14.38 temp=21.3 hum=67.16 prs=992.71 Log=290353 Err=0
id=663721 time=17.07.2019 15:27:08 Vmax=6.4 Vmin=5.1 Vmid=5.7 Napr=210 uakb=14.06 usb=14.38 temp=21.73 hum=66.64 prs=992.64 Log=290348 Err=0
id=663720 time=17.07.2019 15:24:43 Vmax=6.2 Vmin=5.1 Vmid=5.5 Napr=209 uakb=14.08 usb=14.38 temp=21.92 hum=66.47 prs=992.63 Log=290346 Err=0
id=663719 time=17.07.2019 15:06:13 Vmax=4.7 Vmin=4.3 Vmid=4.4 Napr=207 uakb=14.08 usb=14.38 temp=23.11 hum=66.12 prs=992.63 Log=290331 Err=0
id=663718 time=17.07.2019 14:59:13 Vmax=5.2 Vmin=4.2 Vmid=4.4 Napr=208 uakb=14.08 usb=14.38 temp=23.29 hum=66.37 prs=992.52 Log=290325 Err=0
id=663717 time=17.07.2019 14:53:26 Vmax=5.6 Vmin=5 Vmid=5.1 Napr=207 uakb=14.08 usb=14.4 temp=23.36 hum=66.6 prs=992.55 Log=290320 Err=0
id=663716 time=17.07.2019 14:49:58 Vmax=5.1 Vmin=4.3 Vmid=4.6 Napr=206 uakb=14.08 usb=14.38 temp=23.34 hum=66.8 prs=992.48 Log=290317 Err=0
id=663715 time=17.07.2019 14:47:35 Vmax=5.1 Vmin=4.9 Vmid=4.9 Napr=204 uakb=14.06 usb=14.38 temp=23.38 hum=66.93 prs=992.48 Log=290315 Err=0
id=663714 time=17.07.2019 14:42:54 Vmax=4.9 Vmin=4.2 Vmid=4.3 Napr=211 uakb=14.08 usb=14.38 temp=23.35 hum=67.28 prs=992.56 Log=290311 Err=0
id=663713 time=17.07.2019 14:31:53 Vmax=4.3 Vmin=3.4 Vmid=3.9 Napr=212 uakb=14.08 usb=14.4 temp=22.46 hum=67.76 prs=992.47 Log=290302 Err=0
id=663712 time=17.07.2019 14:24:54 Vmax=4.6 Vmin=3.5 Vmid=4.1 Napr=211 uakb=14.08 usb=14.4 temp=21.69 hum=67.48 prs=992.46 Log=290296 Err=0
id=663711 time=17.07.2019 14:18:33 Vmax=4.2 Vmin=3.6 Vmid=3.9 Napr=211 uakb=14.08 usb=14.4 temp=21.05 hum=66.95 prs=992.49 Log=290291 Err=0
id=663710 time=17.07.2019 14:15:07 Vmax=5.6 Vmin=4.4 Vmid=5 Napr=221 uakb=14.08 usb=14.38 temp=20.84 hum=66.6 prs=992.55 Log=290288 Err=0
id=663709 time=17.07.2019 14:05:46 Vmax=4.9 Vmin=3.6 Vmid=4.3 Napr=224 uakb=13.98 usb=14.12 temp=20.96 hum=65.57 prs=992.54 Log=290280 Err=0
id=663708 time=17.07.2019 14:03:30 Vmax=5.2 Vmin=4.2 Vmid=4.6 Napr=223 uakb=13.94 usb=13.94 temp=21.08 hum=65.37 prs=992.48 Log=290278 Err=0
id=663707 time=17.07.2019 13:50:35 Vmax=4.4 Vmin=3.5 Vmid=4 Napr=215 uakb=14.08 usb=14.38 temp=22.09 hum=64.54 prs=992.35 Log=290267 Err=0
id=663706 time=17.07.2019 13:41:43 Vmax=4 Vmin=3.5 Vmid=3.7 Napr=223 uakb=14.08 usb=14.38 temp=22.3 hum=64.11 prs=992.32 Log=290260 Err=0
id=663705 time=17.07.2019 13:40:26 Vmax=4.3 Vmin=2.9 Vmid=3.5 Napr=222 uakb=14.08 usb=14.38 temp=22.37 hum=64.06 prs=992.32 Log=290259 Err=0
id=663704 time=17.07.2019 13:32:18 Vmax=4.2 Vmin=3.9 Vmid=4.1 Napr=210 uakb=14.08 usb=14.38 temp=23.01 hum=63.81 prs=992.18 Log=290252 Err=0
id=663703 time=17.07.2019 13:18:34 Vmax=3.5 Vmin=2.7 Vmid=2.8 Napr=217 uakb=14.08 usb=14.38 temp=23.83 hum=63.91 prs=992.11 Log=290241 Err=0
id=663702 time=17.07.2019 13:17:23 Vmax=3.9 Vmin=3.3 Vmid=3.5 Napr=228 uakb=14.08 usb=14.38 temp=23.93 hum=63.98 prs=992.1 Log=290240 Err=0
id=663701 time=17.07.2019 13:16:13 Vmax=3.5 Vmin=3.4 Vmid=3.4 Napr=245 uakb=14.08 usb=14.36 temp=24.02 hum=64.12 prs=992.1 Log=290239 Err=0
id=663700 time=17.07.2019 13:15:03 Vmax=3 Vmin=1.3 Vmid=2.1 Napr=290 uakb=14.08 usb=14.38 temp=24.05 hum=64.26 prs=992.06 Log=290238 Err=0
id=663699 time=17.07.2019 13:12:43 Vmax=1.8 Vmin=1.3 Vmid=1.4 Napr=312 uakb=14.08 usb=14.38 temp=24.03 hum=64.64 prs=992.06 Log=290236 Err=0
id=663698 time=17.07.2019 13:11:32 Vmax=1.6 Vmin=0.9 Vmid=1.3 Napr=312 uakb=14.08 usb=14.38 temp=24 hum=64.86 prs=992.03 Log=290235 Err=0
id=663697 time=17.07.2019 13:09:11 Vmax=1.5 Vmin=1.2 Vmid=1.3 Napr=312 uakb=14.08 usb=14.38 temp=23.91 hum=65.24 prs=992.01 Log=290233 Err=0
id=663696 time=17.07.2019 13:08:00 Vmax=1.5 Vmin=0.6 Vmid=1.1 Napr=312 uakb=14.08 usb=14.38 temp=23.86 hum=65.33 prs=992.04 Log=290232 Err=0
id=663695 time=17.07.2019 13:06:49 Vmax=0.6 Vmin=0.5 Vmid=0.5 Napr=312 uakb=14.08 usb=14.38 temp=23.81 hum=65.24 prs=992.04 Log=290231 Err=0
id=663694 time=17.07.2019 13:04:28 Vmax=1.6 Vmin=1.3 Vmid=1.4 Napr=312 uakb=14.08 usb=14.38 temp=23.82 hum=65.49 prs=992.01 Log=290229 Err=0
id=663693 time=17.07.2019 13:03:19 Vmax=1.8 Vmin=1.3 Vmid=1.4 Napr=312 uakb=14.08 usb=14.38 temp=23.86 hum=65.61 prs=991.99 Log=290228 Err=0
id=663692 time=17.07.2019 13:02:07 Vmax=2.2 Vmin=1.6 Vmid=1.9 Napr=312 uakb=14.08 usb=14.38 temp=23.92 hum=65.78 prs=991.95 Log=290227 Err=0
id=663691 time=17.07.2019 13:00:56 Vmax=2 Vmin=1.5 Vmid=1.6 Napr=312 uakb=14.08 usb=14.38 temp=23.99 hum=66 prs=991.96 Log=290226 Err=0
id=663690 time=17.07.2019 12:59:46 Vmax=2.2 Vmin=1.6 Vmid=1.9 Napr=312 uakb=14.08 usb=14.38 temp=24.07 hum=66.22 prs=991.96 Log=290225 Err=0
id=663689 time=17.07.2019 12:57:25 Vmax=2.2 Vmin=2 Vmid=2 Napr=313 uakb=14.08 usb=14.38 temp=24.28 hum=66.72 prs=991.96 Log=290223 Err=0
id=663688 time=17.07.2019 12:56:14 Vmax=2.2 Vmin=1.2 Vmid=1.5 Napr=313 uakb=14.08 usb=14.38 temp=24.37 hum=67 prs=991.98 Log=290222 Err=0
id=663687 time=17.07.2019 12:55:04 Vmax=2.3 Vmin=1.5 Vmid=2 Napr=313 uakb=14.08 usb=14.38 temp=24.45 hum=67.29 prs=991.95 Log=290221 Err=0
id=663686 time=17.07.2019 12:53:52 Vmax=1.8 Vmin=1.2 Vmid=1.4 Napr=313 uakb=14.08 usb=14.38 temp=24.49 hum=67.6 prs=991.96 Log=290220 Err=0
id=663685 time=17.07.2019 12:52:41 Vmax=1.8 Vmin=1.4 Vmid=1.5 Napr=313 uakb=14.08 usb=14.38 temp=24.49 hum=67.92 prs=991.93 Log=290219 Err=0
id=663684 time=17.07.2019 12:46:52 Vmax=1.1 Vmin=0.5 Vmid=0.7 Napr=313 uakb=14.1 usb=14.38 temp=24.62 hum=69.58 prs=991.9 Log=290214 Err=0
id=663683 time=17.07.2019 12:45:41 Vmax=1.4 Vmin=0.9 Vmid=1.2 Napr=313 uakb=14.08 usb=14.38 temp=24.61 hum=69.96 prs=991.9 Log=290213 Err=0
id=663682 time=17.07.2019 12:44:30 Vmax=1.9 Vmin=0.9 Vmid=1.4 Napr=313 uakb=14.08 usb=14.38 temp=24.56 hum=70.33 prs=991.9 Log=290212 Err=0
id=663681 time=17.07.2019 12:43:19 Vmax=2 Vmin=1.3 Vmid=1.6 Napr=313 uakb=14.08 usb=14.4 temp=24.53 hum=70.68 prs=991.9 Log=290211 Err=0
id=663680 time=17.07.2019 12:40:58 Vmax=1.8 Vmin=0.9 Vmid=1.4 Napr=313 uakb=14.08 usb=14.38 temp=24.5 hum=71.36 prs=991.89 Log=290209 Err=0
id=663679 time=17.07.2019 12:39:47 Vmax=1.5 Vmin=1.2 Vmid=1.3 Napr=313 uakb=14.08 usb=14.38 temp=24.52 hum=71.74 prs=991.89 Log=290208 Err=0
id=663678 time=17.07.2019 12:36:16 Vmax=2 Vmin=1.1 Vmid=1.4 Napr=315 uakb=14.08 usb=14.38 temp=24.45 hum=72.86 prs=991.9 Log=290205 Err=0
id=663677 time=17.07.2019 12:35:08 Vmax=2 Vmin=1.1 Vmid=1.4 Napr=320 uakb=14.08 usb=14.38 temp=24.35 hum=73.24 prs=991.92 Log=290204 Err=0
id=663676 time=17.07.2019 12:33:55 Vmax=1.5 Vmin=0.9 Vmid=1.2 Napr=320 uakb=14.08 usb=14.38 temp=24.2 hum=73.59 prs=991.92 Log=290203 Err=0
id=663675 time=17.07.2019 12:32:44 Vmax=1.5 Vmin=0.8 Vmid=1.1 Napr=320 uakb=14.1 usb=14.38 temp=24.03 hum=73.92 prs=991.92 Log=290202 Err=0
id=663674 time=17.07.2019 12:31:34 Vmax=1.5 Vmin=0 Vmid=1.1 Napr=320 uakb=14.08 usb=14.38 temp=23.81 hum=74.26 prs=991.89 Log=290201 Err=0
id=663673 time=17.07.2019 12:30:23 Vmax=1.1 Vmin=0 Vmid=0.4 Napr=320 uakb=14.08 usb=14.4 temp=23.51 hum=74.59 prs=991.91 Log=290200 Err=0
id=663672 time=17.07.2019 12:28:03 Vmax=1.6 Vmin=0.5 Vmid=0.9 Napr=320 uakb=14.08 usb=14.38 temp=22.85 hum=75.09 prs=991.9 Log=290198 Err=0
id=663671 time=17.07.2019 12:26:52 Vmax=1.3 Vmin=0.2 Vmid=0.7 Napr=320 uakb=14.1 usb=14.38 temp=22.56 hum=75.33 prs=991.89 Log=290197 Err=0
id=663670 time=17.07.2019 12:26:01 Vmax=1.4 Vmin=0.4 Vmid=0.7 Napr=320 uakb=14.1 usb=14.38 temp=22.27 hum=75.56 prs=991.88 Log=290196 Err=0
id=663669 time=17.07.2019 12:24:31 Vmax=0.7 Vmin=0.1 Vmid=0.4 Napr=320 uakb=14.08 usb=14.4 temp=22.01 hum=75.78 prs=991.88 Log=290195 Err=0
id=663668 time=17.07.2019 12:23:21 Vmax=1.3 Vmin=0.6 Vmid=0.9 Napr=320 uakb=14.08 usb=14.4 temp=21.84 hum=75.99 prs=991.86 Log=290194 Err=0
id=663667 time=17.07.2019 12:22:10 Vmax=1.6 Vmin=1.3 Vmid=1.4 Napr=320 uakb=14.08 usb=14.4 temp=21.76 hum=76.23 prs=991.83 Log=290193 Err=0
id=663666 time=17.07.2019 12:20:59 Vmax=1.3 Vmin=0.9 Vmid=1.1 Napr=320 uakb=14.1 usb=14.38 temp=21.69 hum=76.49 prs=991.84 Log=290192 Err=0
id=663665 time=17.07.2019 12:19:49 Vmax=1.3 Vmin=0.7 Vmid=1.1 Napr=320 uakb=14.08 usb=14.38 temp=21.64 hum=76.72 prs=991.82 Log=290191 Err=0
id=663664 time=17.07.2019 12:18:37 Vmax=1.3 Vmin=0.4 Vmid=0.8 Napr=320 uakb=14.1 usb=14.38 temp=21.6 hum=76.97 prs=991.84 Log=290190 Err=0
id=663663 time=17.07.2019 12:17:27 Vmax=1.8 Vmin=1.1 Vmid=1.3 Napr=320 uakb=14.08 usb=14.4 temp=21.57 hum=77.21 prs=991.89 Log=290189 Err=0
id=663662 time=17.07.2019 12:16:17 Vmax=3 Vmin=1.9 Vmid=2.3 Napr=316 uakb=14.08 usb=14.4 temp=21.6 hum=77.42 prs=991.89 Log=290188 Err=0
id=663661 time=17.07.2019 12:15:07 Vmax=3.5 Vmin=2.5 Vmid=2.9 Napr=309 uakb=14.08 usb=14.4 temp=21.62 hum=77.68 prs=991.87 Log=290187 Err=0
id=663660 time=17.07.2019 12:13:57 Vmax=2.9 Vmin=2.1 Vmid=2.5 Napr=307 uakb=14.1 usb=14.38 temp=21.57 hum=77.96 prs=991.87 Log=290186 Err=0
id=663659 time=17.07.2019 12:12:47 Vmax=4 Vmin=2.3 Vmid=3.2 Napr=304 uakb=14.08 usb=14.38 temp=21.48 hum=78.19 prs=991.86 Log=290185 Err=0
id=663658 time=17.07.2019 12:09:14 Vmax=3.2 Vmin=2 Vmid=2.3 Napr=323 uakb=14.1 usb=14.4 temp=21.44 hum=78.88 prs=991.87 Log=290182 Err=0
id=663657 time=17.07.2019 12:08:03 Vmax=4.1 Vmin=3.2 Vmid=3.6 Napr=328 uakb=14.1 usb=14.38 temp=21.48 hum=79.13 prs=991.88 Log=290181 Err=0
id=663656 time=17.07.2019 12:03:24 Vmax=1.8 Vmin=1.4 Vmid=1.5 Napr=349 uakb=14.08 usb=14.4 temp=21.4 hum=80.07 prs=991.9 Log=290177 Err=0
id=663655 time=17.07.2019 12:02:14 Vmax=2 Vmin=0.6 Vmid=1.3 Napr=349 uakb=14.08 usb=14.38 temp=21.38 hum=80.32 prs=991.9 Log=290176 Err=0
id=663654 time=17.07.2019 11:58:44 Vmax=3 Vmin=2.3 Vmid=2.8 Napr=350 uakb=14.1 usb=14.4 temp=21.44 hum=80.98 prs=991.92 Log=290173 Err=0
id=663653 time=17.07.2019 11:55:11 Vmax=2.7 Vmin=1.2 Vmid=1.8 Napr=343 uakb=14.08 usb=14.4 temp=21.66 hum=81.67 prs=991.93 Log=290170 Err=0
id=663652 time=17.07.2019 11:54:01 Vmax=4 Vmin=2.6 Vmid=3.2 Napr=349 uakb=14.1 usb=14.38 temp=21.79 hum=81.9 prs=991.88 Log=290169 Err=0
id=663651 time=17.07.2019 11:52:50 Vmax=3 Vmin=1.9 Vmid=2.3 Napr=317 uakb=14.08 usb=14.38 temp=21.92 hum=82.17 prs=991.88 Log=290168 Err=0
id=663650 time=17.07.2019 11:50:30 Vmax=3.9 Vmin=2 Vmid=2.9 Napr=309 uakb=14.08 usb=14.4 temp=22.2 hum=82.66 prs=991.92 Log=290166 Err=0
id=663649 time=17.07.2019 11:48:09 Vmax=3.2 Vmin=1.8 Vmid=2.5 Napr=286 uakb=14.08 usb=14.4 temp=22.15 hum=83.2 prs=991.92 Log=290164 Err=0
id=663648 time=17.07.2019 11:46:58 Vmax=3.9 Vmin=2.2 Vmid=3.3 Napr=291 uakb=14.1 usb=14.4 temp=22.08 hum=83.42 prs=991.9 Log=290163 Err=0
id=663647 time=17.07.2019 11:45:48 Vmax=3.7 Vmin=2.7 Vmid=3.3 Napr=301 uakb=14.1 usb=14.4 temp=22 hum=83.64 prs=991.91 Log=290162 Err=0
id=663646 time=17.07.2019 11:42:21 Vmax=3.5 Vmin=1.4 Vmid=2.5 Napr=328 uakb=14.1 usb=14.4 temp=21.65 hum=84.21 prs=991.87 Log=290159 Err=0
id=663645 time=17.07.2019 11:35:16 Vmax=3.5 Vmin=2 Vmid=2.5 Napr=5 uakb=14.1 usb=14.38 temp=20.71 hum=85.23 prs=991.85 Log=290153 Err=0
id=663644 time=17.07.2019 11:33:06 Vmax=4.1 Vmin=2.5 Vmid=3.3 Napr=359 uakb=14.1 usb=14.4 temp=20.51 hum=85.49 prs=991.88 Log=290151 Err=0
id=663643 time=17.07.2019 11:30:43 Vmax=4.3 Vmin=2.7 Vmid=3.3 Napr=355 uakb=14.1 usb=14.4 temp=20.39 hum=85.77 prs=991.86 Log=290149 Err=0
id=663642 time=17.07.2019 11:29:26 Vmax=4.2 Vmin=2.5 Vmid=3.5 Napr=349 uakb=14.1 usb=14.4 temp=20.33 hum=85.92 prs=991.87 Log=290148 Err=0
id=663641 time=17.07.2019 11:27:06 Vmax=4.6 Vmin=3.4 Vmid=3.9 Napr=352 uakb=14.1 usb=14.4 temp=20.38 hum=86.17 prs=991.83 Log=290146 Err=0
id=663640 time=17.07.2019 11:22:26 Vmax=4.7 Vmin=2.7 Vmid=3.6 Napr=9 uakb=14.08 usb=14.38 temp=20.66 hum=86.65 prs=991.81 Log=290142 Err=0
id=663639 time=17.07.2019 11:20:06 Vmax=4.1 Vmin=2.6 Vmid=3.2 Napr=351 uakb=14.08 usb=14.4 temp=20.89 hum=86.83 prs=991.81 Log=290140 Err=0
id=663638 time=17.07.2019 11:17:46 Vmax=5 Vmin=3.5 Vmid=4 Napr=326 uakb=14.1 usb=14.4 temp=21.33 hum=87 prs=991.75 Log=290138 Err=0
id=663637 time=17.07.2019 11:16:33 Vmax=4 Vmin=2.8 Vmid=3.2 Napr=306 uakb=14.1 usb=14.4 temp=21.45 hum=87.16 prs=991.7 Log=290137 Err=0
id=663636 time=17.07.2019 11:15:24 Vmax=2.6 Vmin=2.2 Vmid=2.5 Napr=310 uakb=14.1 usb=14.4 temp=21.53 hum=87.28 prs=991.76 Log=290136 Err=0
id=663635 time=17.07.2019 11:14:13 Vmax=2.7 Vmin=1.3 Vmid=1.9 Napr=318 uakb=14.1 usb=14.4 temp=21.58 hum=87.39 prs=991.73 Log=290135 Err=0
id=663634 time=17.07.2019 11:10:42 Vmax=2.5 Vmin=1.3 Vmid=2 Napr=348 uakb=14.1 usb=14.4 temp=21.71 hum=87.63 prs=991.74 Log=290132 Err=0
id=663633 time=17.07.2019 11:07:16 Vmax=1.4 Vmin=0.7 Vmid=0.9 Napr=19 uakb=14.1 usb=14.38 temp=21.31 hum=87.89 prs=991.71 Log=290129 Err=0
id=663632 time=17.07.2019 11:04:51 Vmax=1.4 Vmin=0.8 Vmid=1.2 Napr=19 uakb=14.1 usb=14.4 temp=21.09 hum=88.14 prs=991.68 Log=290127 Err=0
id=663631 time=17.07.2019 11:02:30 Vmax=1.3 Vmin=0 Vmid=0.8 Napr=19 uakb=14.1 usb=14.4 temp=20.91 hum=88.13 prs=991.72 Log=290125 Err=0
id=663630 time=17.07.2019 11:01:21 Vmax=1.4 Vmin=0.6 Vmid=0.9 Napr=19 uakb=14.1 usb=14.4 temp=20.85 hum=88.17 prs=991.76 Log=290124 Err=0
id=663629 time=17.07.2019 11:00:09 Vmax=1.6 Vmin=1.2 Vmid=1.4 Napr=19 uakb=14.1 usb=14.4 temp=20.76 hum=88.22 prs=991.75 Log=290123 Err=0
id=663628 time=17.07.2019 10:57:51 Vmax=1.6 Vmin=0.9 Vmid=1.3 Napr=19 uakb=14.1 usb=14.4 temp=20.45 hum=88.32 prs=991.73 Log=290121 Err=0
id=663627 time=17.07.2019 10:55:31 Vmax=2.3 Vmin=1.5 Vmid=1.9 Napr=19 uakb=14.1 usb=14.4 temp=20.14 hum=88.42 prs=991.69 Log=290119 Err=0
id=663626 time=17.07.2019 10:54:19 Vmax=2 Vmin=0.9 Vmid=1.4 Napr=19 uakb=14.1 usb=14.4 temp=20.01 hum=88.45 prs=991.74 Log=290118 Err=0
id=663625 time=17.07.2019 10:53:09 Vmax=2.6 Vmin=1.9 Vmid=2.1 Napr=21 uakb=14.1 usb=14.4 temp=19.89 hum=88.48 prs=991.72 Log=290117 Err=0
id=663624 time=17.07.2019 10:51:59 Vmax=3.2 Vmin=1.9 Vmid=2.6 Napr=26 uakb=14.1 usb=14.4 temp=19.74 hum=88.55 prs=991.71 Log=290116 Err=0
id=663623 time=17.07.2019 10:47:20 Vmax=3.2 Vmin=2.6 Vmid=2.7 Napr=16 uakb=14.1 usb=14.4 temp=19.21 hum=88.69 prs=991.69 Log=290112 Err=0
id=663622 time=17.07.2019 10:46:08 Vmax=3.7 Vmin=2.6 Vmid=3.4 Napr=6 uakb=14.1 usb=14.42 temp=19.19 hum=88.7 prs=991.7 Log=290111 Err=0
id=663621 time=17.07.2019 10:40:19 Vmax=4.1 Vmin=3.2 Vmid=3.5 Napr=358 uakb=14.1 usb=14.4 temp=19.15 hum=88.88 prs=991.67 Log=290106 Err=0
id=663620 time=17.07.2019 10:36:48 Vmax=1.9 Vmin=1.2 Vmid=1.6 Napr=41 uakb=14.1 usb=14.4 temp=19.08 hum=88.99 prs=991.63 Log=290103 Err=0
id=663619 time=17.07.2019 10:34:28 Vmax=2.7 Vmin=1.8 Vmid=2.2 Napr=16 uakb=14.1 usb=14.4 temp=18.91 hum=89.05 prs=991.58 Log=290101 Err=0
id=663618 time=17.07.2019 10:32:07 Vmax=2.6 Vmin=2.1 Vmid=2.3 Napr=22 uakb=14.1 usb=14.4 temp=18.76 hum=89.1 prs=991.56 Log=290099 Err=0
id=663617 time=17.07.2019 10:28:37 Vmax=3 Vmin=1.6 Vmid=2.3 Napr=28 uakb=14.1 usb=14.4 temp=18.69 hum=89.17 prs=991.53 Log=290096 Err=0
id=663616 time=17.07.2019 10:26:18 Vmax=3.5 Vmin=2.2 Vmid=2.7 Napr=26 uakb=14.1 usb=14.4 temp=18.63 hum=89.21 prs=991.51 Log=290094 Err=0
id=663615 time=17.07.2019 10:23:57 Vmax=4.4 Vmin=2.9 Vmid=3.6 Napr=18 uakb=14.1 usb=14.4 temp=18.62 hum=89.26 prs=991.53 Log=290092 Err=0
id=663614 time=17.07.2019 10:22:46 Vmax=4 Vmin=2.3 Vmid=3 Napr=14 uakb=14.1 usb=14.4 temp=18.63 hum=89.28 prs=991.53 Log=290091 Err=0
id=663613 time=17.07.2019 10:20:27 Vmax=4.2 Vmin=2.5 Vmid=3 Napr=6 uakb=14.1 usb=14.4 temp=18.58 hum=89.32 prs=991.56 Log=290089 Err=0
id=663612 time=17.07.2019 10:19:22 Vmax=3 Vmin=2.5 Vmid=2.7 Napr=354 uakb=14.12 usb=14.4 temp=18.54 hum=89.36 prs=991.57 Log=290088 Err=0
id=663611 time=17.07.2019 10:15:47 Vmax=3.5 Vmin=2.6 Vmid=3 Napr=18 uakb=14.1 usb=14.4 temp=18.43 hum=89.41 prs=991.55 Log=290085 Err=0
id=663610 time=17.07.2019 10:13:24 Vmax=3.6 Vmin=2.1 Vmid=2.8 Napr=14 uakb=14.1 usb=14.4 temp=18.36 hum=89.46 prs=991.54 Log=290083 Err=0
id=663609 time=17.07.2019 10:08:38 Vmax=3.4 Vmin=2.1 Vmid=2.6 Napr=10 uakb=14.1 usb=14.42 temp=18.28 hum=89.53 prs=991.53 Log=290079 Err=0
id=663608 time=17.07.2019 10:06:19 Vmax=3.6 Vmin=2.6 Vmid=2.9 Napr=349 uakb=14.1 usb=14.4 temp=18.18 hum=89.53 prs=991.53 Log=290077 Err=0
id=663607 time=17.07.2019 10:05:07 Vmax=5.4 Vmin=2.9 Vmid=4.4 Napr=345 uakb=14.1 usb=14.4 temp=18.15 hum=89.57 prs=991.48 Log=290076 Err=0
id=663606 time=17.07.2019 10:00:32 Vmax=4.1 Vmin=3 Vmid=3.5 Napr=356 uakb=14.1 usb=14.4 temp=18.16 hum=89.63 prs=991.39 Log=290072 Err=0
id=663605 time=17.07.2019 09:55:50 Vmax=4.1 Vmin=2.9 Vmid=3.4 Napr=347 uakb=14.1 usb=14.4 temp=18.25 hum=89.68 prs=991.38 Log=290068 Err=0
id=663604 time=17.07.2019 09:53:30 Vmax=4.7 Vmin=3.5 Vmid=4.2 Napr=347 uakb=14.1 usb=14.4 temp=18.33 hum=89.68 prs=991.43 Log=290066 Err=0
id=663603 time=17.07.2019 09:52:20 Vmax=4.6 Vmin=3.4 Vmid=3.9 Napr=342 uakb=14.1 usb=14.4 temp=18.35 hum=89.72 prs=991.43 Log=290065 Err=0
id=663602 time=17.07.2019 09:50:08 Vmax=4.7 Vmin=1.9 Vmid=3 Napr=354 uakb=14.1 usb=14.4 temp=18.38 hum=89.74 prs=991.43 Log=290063 Err=0
id=663601 time=17.07.2019 09:48:51 Vmax=2.9 Vmin=2 Vmid=2.5 Napr=4 uakb=14.1 usb=14.4 temp=18.3 hum=89.76 prs=991.43 Log=290062 Err=0
id=663600 time=17.07.2019 09:47:39 Vmax=3.4 Vmin=2.9 Vmid=3.2 Napr=356 uakb=14.1 usb=14.4 temp=18.23 hum=89.76 prs=991.43 Log=290061 Err=0
id=663599 time=17.07.2019 09:46:27 Vmax=3.9 Vmin=3 Vmid=3.5 Napr=346 uakb=14.1 usb=14.4 temp=18.16 hum=89.78 prs=991.44 Log=290060 Err=0
id=663598 time=17.07.2019 09:45:17 Vmax=4.4 Vmin=2.8 Vmid=3.6 Napr=353 uakb=14.1 usb=14.4 temp=18.14 hum=89.79 prs=991.41 Log=290059 Err=0
id=663597 time=17.07.2019 09:44:07 Vmax=3.7 Vmin=2.2 Vmid=3.2 Napr=355 uakb=14.08 usb=14.4 temp=18.08 hum=89.83 prs=991.39 Log=290058 Err=0
id=663596 time=17.07.2019 09:41:45 Vmax=4 Vmin=2.7 Vmid=3.3 Napr=1 uakb=14.12 usb=14.4 temp=18.06 hum=89.82 prs=991.41 Log=290056 Err=0
id=663595 time=17.07.2019 09:40:35 Vmax=5.1 Vmin=4 Vmid=4.3 Napr=354 uakb=14.1 usb=14.4 temp=18.06 hum=89.83 prs=991.42 Log=290055 Err=0
id=663594 time=17.07.2019 09:38:15 Vmax=3.6 Vmin=2.1 Vmid=2.9 Napr=4 uakb=14.1 usb=14.4 temp=17.99 hum=89.86 prs=991.45 Log=290053 Err=0
id=663593 time=17.07.2019 09:30:05 Vmax=5.1 Vmin=3.5 Vmid=4.2 Napr=344 uakb=14.1 usb=14.4 temp=17.71 hum=89.93 prs=991.46 Log=290046 Err=0
id=663592 time=17.07.2019 09:27:45 Vmax=5.2 Vmin=3.6 Vmid=4.4 Napr=353 uakb=14.1 usb=14.4 temp=17.68 hum=89.94 prs=991.48 Log=290044 Err=0
id=663591 time=17.07.2019 09:25:27 Vmax=5.1 Vmin=3.7 Vmid=4.1 Napr=359 uakb=14.1 usb=14.4 temp=17.69 hum=89.95 prs=991.5 Log=290042 Err=0
id=663590 time=17.07.2019 09:24:16 Vmax=5 Vmin=3.2 Vmid=4 Napr=359 uakb=14.1 usb=14.4 temp=17.68 hum=89.97 prs=991.47 Log=290041 Err=0
id=663589 time=17.07.2019 09:18:26 Vmax=3.5 Vmin=2.9 Vmid=3.3 Napr=359 uakb=14.1 usb=14.4 temp=17.51 hum=90 prs=991.47 Log=290036 Err=0
id=663588 time=17.07.2019 09:17:17 Vmax=4.1 Vmin=2.7 Vmid=3.2 Napr=8 uakb=14.1 usb=14.4 temp=17.51 hum=89.98 prs=991.48 Log=290035 Err=0
id=663587 time=17.07.2019 09:16:18 Vmax=3.9 Vmin=3 Vmid=3.4 Napr=14 uakb=14.1 usb=14.4 temp=17.49 hum=89.99 prs=991.49 Log=290034 Err=0
id=663586 time=17.07.2019 09:14:55 Vmax=3.7 Vmin=2.6 Vmid=3 Napr=24 uakb=14.1 usb=14.4 temp=17.48 hum=90 prs=991.47 Log=290033 Err=0
id=663585 time=17.07.2019 09:13:50 Vmax=4.2 Vmin=2.9 Vmid=3.6 Napr=23 uakb=14.1 usb=14.42 temp=17.47 hum=90 prs=991.47 Log=290032 Err=0
id=663584 time=17.07.2019 09:12:34 Vmax=3.9 Vmin=2.8 Vmid=3.3 Napr=18 uakb=14.1 usb=14.4 temp=17.47 hum=90 prs=991.47 Log=290031 Err=0
id=663583 time=17.07.2019 09:10:13 Vmax=4.9 Vmin=3.3 Vmid=3.9 Napr=19 uakb=14.1 usb=14.4 temp=17.42 hum=90.03 prs=991.45 Log=290029 Err=0
id=663582 time=17.07.2019 09:09:03 Vmax=4.6 Vmin=2.7 Vmid=3.6 Napr=11 uakb=14.08 usb=14.42 temp=17.43 hum=90 prs=991.42 Log=290028 Err=0
id=663581 time=17.07.2019 09:05:35 Vmax=5.7 Vmin=3.6 Vmid=4.8 Napr=358 uakb=14.1 usb=14.4 temp=17.5 hum=90.02 prs=991.36 Log=290025 Err=0
id=663580 time=17.07.2019 09:02:04 Vmax=3.9 Vmin=2.8 Vmid=3 Napr=359 uakb=14.08 usb=14.4 temp=17.49 hum=90.04 prs=991.34 Log=290022 Err=0
id=663579 time=17.07.2019 09:00:55 Vmax=4.4 Vmin=2.7 Vmid=3.5 Napr=357 uakb=14.1 usb=14.4 temp=17.48 hum=90.04 prs=991.3 Log=290021 Err=0
id=663578 time=17.07.2019 08:55:05 Vmax=4 Vmin=3.5 Vmid=3.6 Napr=2 uakb=14.08 usb=14.42 temp=17.44 hum=90.02 prs=991.24 Log=290016 Err=0
id=663577 time=17.07.2019 08:53:55 Vmax=4.6 Vmin=3.2 Vmid=3.6 Napr=3 uakb=14.08 usb=14.4 temp=17.44 hum=90.04 prs=991.19 Log=290015 Err=0
id=663576 time=17.07.2019 08:51:34 Vmax=4.7 Vmin=2 Vmid=3.4 Napr=356 uakb=14.08 usb=14.4 temp=17.41 hum=90.04 prs=991.17 Log=290013 Err=0
id=663575 time=17.07.2019 08:49:14 Vmax=4.8 Vmin=3.3 Vmid=4.1 Napr=9 uakb=14.08 usb=14.4 temp=17.44 hum=90.05 prs=991.11 Log=290011 Err=0
id=663574 time=17.07.2019 08:48:06 Vmax=5.1 Vmin=3.5 Vmid=4 Napr=3 uakb=14.08 usb=14.4 temp=17.46 hum=90.05 prs=991.09 Log=290010 Err=0
id=663573 time=17.07.2019 08:36:24 Vmax=4.6 Vmin=2.6 Vmid=3.7 Napr=355 uakb=14.08 usb=14.4 temp=17.37 hum=90.03 prs=991.12 Log=290000 Err=0
id=663572 time=17.07.2019 08:30:38 Vmax=4.1 Vmin=2.6 Vmid=3.5 Napr=6 uakb=14.08 usb=14.4 temp=17.24 hum=90.04 prs=990.97 Log=289995 Err=0
id=663571 time=17.07.2019 08:29:25 Vmax=3.6 Vmin=2.6 Vmid=3.2 Napr=2 uakb=14.06 usb=14.42 temp=17.19 hum=90.01 prs=990.96 Log=289994 Err=0
id=663570 time=17.07.2019 08:25:56 Vmax=4.2 Vmin=3.7 Vmid=4 Napr=1 uakb=14.08 usb=14.4 temp=17.09 hum=90.01 prs=990.92 Log=289991 Err=0
id=663569 time=17.07.2019 08:24:48 Vmax=4.7 Vmin=3.9 Vmid=4.3 Napr=354 uakb=14.06 usb=14.4 temp=17.11 hum=90.02 prs=990.9 Log=289990 Err=0
id=663568 time=17.07.2019 08:21:18 Vmax=3.9 Vmin=2.5 Vmid=2.9 Napr=11 uakb=14.06 usb=14.4 temp=17.03 hum=90.02 prs=990.89 Log=289987 Err=0
id=663567 time=17.07.2019 08:18:56 Vmax=4 Vmin=2.5 Vmid=3.5 Napr=9 uakb=14.04 usb=14.4 temp=16.96 hum=90.01 prs=990.83 Log=289985 Err=0
id=663566 time=17.07.2019 08:16:39 Vmax=4.3 Vmin=2.8 Vmid=3.6 Napr=8 uakb=14.04 usb=14.4 temp=16.94 hum=90.01 prs=990.78 Log=289983 Err=0
id=663565 time=17.07.2019 08:15:26 Vmax=2.8 Vmin=2.1 Vmid=2.3 Napr=19 uakb=14.06 usb=14.4 temp=16.91 hum=90 prs=990.74 Log=289982 Err=0
id=663564 time=17.07.2019 08:10:50 Vmax=4.6 Vmin=3.5 Vmid=4.1 Napr=6 uakb=14.04 usb=14.4 temp=16.84 hum=89.97 prs=990.77 Log=289978 Err=0
id=663563 time=17.07.2019 08:09:48 Vmax=4.1 Vmin=3.3 Vmid=3.7 Napr=352 uakb=14.04 usb=14.4 temp=16.8 hum=89.97 prs=990.77 Log=289977 Err=0
id=663562 time=17.07.2019 08:07:18 Vmax=3 Vmin=2.3 Vmid=2.6 Napr=6 uakb=13.84 usb=14.2 temp=16.73 hum=89.97 prs=990.73 Log=289975 Err=0
id=663561 time=17.07.2019 08:04:57 Vmax=4 Vmin=2.3 Vmid=3.2 Napr=2 uakb=13.66 usb=14 temp=16.65 hum=89.98 prs=990.66 Log=289973 Err=0
id=663560 time=17.07.2019 08:03:47 Vmax=3.4 Vmin=2.2 Vmid=2.7 Napr=7 uakb=13.6 usb=13.92 temp=16.6 hum=89.98 prs=990.69 Log=289972 Err=0
id=663559 time=17.07.2019 08:02:43 Vmax=3.7 Vmin=2.3 Vmid=3 Napr=4 uakb=13.52 usb=13.84 temp=16.56 hum=89.97 prs=990.71 Log=289971 Err=0
id=663558 time=17.07.2019 08:00:16 Vmax=2.8 Vmin=2 Vmid=2.2 Napr=25 uakb=13.42 usb=13.76 temp=16.53 hum=89.95 prs=990.72 Log=289969 Err=0
id=663557 time=17.07.2019 07:57:56 Vmax=4.6 Vmin=3.7 Vmid=4.2 Napr=343 uakb=13.36 usb=13.68 temp=16.51 hum=89.96 prs=990.69 Log=289967 Err=0
id=663556 time=17.07.2019 07:56:47 Vmax=5.2 Vmin=4.4 Vmid=4.8 Napr=348 uakb=13.32 usb=13.62 temp=16.52 hum=89.94 prs=990.69 Log=289966 Err=0
id=663555 time=17.07.2019 07:55:36 Vmax=5 Vmin=2.9 Vmid=4 Napr=354 uakb=13.32 usb=13.62 temp=16.55 hum=89.94 prs=990.69 Log=289965 Err=0
id=663554 time=17.07.2019 07:54:27 Vmax=3.9 Vmin=3.3 Vmid=3.5 Napr=351 uakb=13.3 usb=13.5 temp=16.53 hum=89.95 prs=990.69 Log=289964 Err=0
id=663553 time=17.07.2019 07:52:05 Vmax=3.7 Vmin=2.6 Vmid=3.2 Napr=358 uakb=13.24 usb=13.33 temp=16.5 hum=89.93 prs=990.7 Log=289962 Err=0
id=663552 time=17.07.2019 07:49:46 Vmax=4 Vmin=2.6 Vmid=3.4 Napr=355 uakb=13.22 usb=13.11 temp=16.5 hum=89.91 prs=990.7 Log=289960 Err=0
id=663551 time=17.07.2019 07:46:20 Vmax=2.3 Vmin=1.8 Vmid=2 Napr=359 uakb=13.18 usb=13.03 temp=16.38 hum=89.92 prs=990.61 Log=289957 Err=0
id=663550 time=17.07.2019 07:42:48 Vmax=3.5 Vmin=2.3 Vmid=2.8 Napr=8 uakb=13.18 usb=13.15 temp=16.4 hum=89.89 prs=990.57 Log=289954 Err=0
id=663549 time=17.07.2019 07:41:37 Vmax=4.4 Vmin=2.6 Vmid=3.3 Napr=359 uakb=13.18 usb=13.17 temp=16.41 hum=89.88 prs=990.57 Log=289953 Err=0
id=663548 time=17.07.2019 07:40:26 Vmax=2.8 Vmin=2.2 Vmid=2.3 Napr=351 uakb=13.16 usb=13.15 temp=16.41 hum=89.88 prs=990.55 Log=289952 Err=0
id=663547 time=17.07.2019 07:39:15 Vmax=4.1 Vmin=2.1 Vmid=3.4 Napr=350 uakb=13.14 usb=12.87 temp=16.39 hum=89.87 prs=990.55 Log=289951 Err=0
id=663546 time=17.07.2019 07:36:56 Vmax=4.2 Vmin=3.4 Vmid=3.7 Napr=340 uakb=13.12 usb=12.99 temp=16.39 hum=89.89 prs=990.55 Log=289949 Err=0
id=663545 time=17.07.2019 07:31:08 Vmax=5 Vmin=3.6 Vmid=4 Napr=340 uakb=13.1 usb=13.03 temp=16.38 hum=89.83 prs=990.44 Log=289944 Err=0
id=663544 time=17.07.2019 07:27:38 Vmax=3.6 Vmin=2.7 Vmid=3 Napr=348 uakb=13.08 usb=12.91 temp=16.44 hum=89.83 prs=990.39 Log=289941 Err=0
id=663543 time=17.07.2019 07:25:18 Vmax=4.4 Vmin=3.2 Vmid=3.9 Napr=351 uakb=13.1 usb=12.93 temp=16.4 hum=89.83 prs=990.42 Log=289939 Err=0
id=663542 time=17.07.2019 07:17:01 Vmax=3.7 Vmin=3 Vmid=3.3 Napr=347 uakb=13.12 usb=13.25 temp=16.34 hum=89.78 prs=990.27 Log=289932 Err=0
id=663541 time=17.07.2019 07:14:38 Vmax=4.4 Vmin=2.7 Vmid=3.6 Napr=347 uakb=13.14 usb=13.31 temp=16.3 hum=89.77 prs=990.24 Log=289930 Err=0
id=663540 time=17.07.2019 07:11:09 Vmax=4.2 Vmin=3.5 Vmid=3.7 Napr=2 uakb=13.04 usb=13.03 temp=16.3 hum=89.75 prs=990.21 Log=289927 Err=0
id=663539 time=17.07.2019 07:08:48 Vmax=4.2 Vmin=2.9 Vmid=3.4 Napr=3 uakb=12.98 usb=12.83 temp=16.31 hum=89.76 prs=990.15 Log=289925 Err=0
id=663538 time=17.07.2019 07:07:38 Vmax=4.3 Vmin=2.2 Vmid=3.5 Napr=5 uakb=12.96 usb=12.91 temp=16.26 hum=89.75 prs=990.16 Log=289924 Err=0
id=663537 time=17.07.2019 07:04:09 Vmax=4.1 Vmin=2.8 Vmid=3.6 Napr=1 uakb=12.94 usb=12.85 temp=16.27 hum=89.72 prs=990.14 Log=289921 Err=0
id=663536 time=17.07.2019 07:01:48 Vmax=4.7 Vmin=2.1 Vmid=3.4 Napr=8 uakb=12.94 usb=12.79 temp=16.27 hum=89.73 prs=990.12 Log=289919 Err=0
id=663535 time=17.07.2019 06:59:28 Vmax=3.6 Vmin=2.7 Vmid=3.3 Napr=7 uakb=12.9 usb=12.67 temp=16.34 hum=89.68 prs=990.13 Log=289917 Err=0
id=663534 time=17.07.2019 06:57:08 Vmax=4.3 Vmin=3.4 Vmid=3.6 Napr=11 uakb=12.9 usb=12.67 temp=16.33 hum=89.69 prs=990.07 Log=289915 Err=0
id=663533 time=17.07.2019 06:55:59 Vmax=4.4 Vmin=3.5 Vmid=3.9 Napr=13 uakb=12.92 usb=12.81 temp=16.32 hum=89.67 prs=990.1 Log=289914 Err=0
id=663532 time=17.07.2019 06:53:37 Vmax=4.6 Vmin=3.2 Vmid=3.7 Napr=10 uakb=12.9 usb=12.91 temp=16.3 hum=89.66 prs=990.03 Log=289912 Err=0
id=663531 time=17.07.2019 06:50:11 Vmax=3.9 Vmin=2.8 Vmid=3.3 Napr=19 uakb=12.88 usb=12.83 temp=16.32 hum=89.61 prs=989.99 Log=289909 Err=0
id=663530 time=17.07.2019 06:46:39 Vmax=3.6 Vmin=3.2 Vmid=3.3 Napr=9 uakb=12.82 usb=12.67 temp=16.29 hum=89.63 prs=989.97 Log=289906 Err=0
id=663529 time=17.07.2019 06:45:31 Vmax=4.7 Vmin=2.2 Vmid=3.5 Napr=16 uakb=12.8 usb=12.75 temp=16.24 hum=89.64 prs=990.01 Log=289905 Err=0
id=663528 time=17.07.2019 06:41:59 Vmax=4.8 Vmin=3.3 Vmid=4.1 Napr=11 uakb=12.78 usb=12.67 temp=16.23 hum=89.61 prs=989.99 Log=289902 Err=0
id=663527 time=17.07.2019 06:40:48 Vmax=5.4 Vmin=4 Vmid=4.3 Napr=14 uakb=12.74 usb=12.59 temp=16.23 hum=89.58 prs=990.04 Log=289901 Err=0
id=663526 time=17.07.2019 06:37:18 Vmax=5 Vmin=3.3 Vmid=4 Napr=10 uakb=12.72 usb=12.43 temp=16.2 hum=89.55 prs=990.01 Log=289898 Err=0
id=663525 time=17.07.2019 06:36:07 Vmax=3.5 Vmin=2.5 Vmid=3.2 Napr=14 uakb=12.7 usb=12.53 temp=16.22 hum=89.56 prs=989.98 Log=289897 Err=0
id=663524 time=17.07.2019 06:34:58 Vmax=3.7 Vmin=2.6 Vmid=3.3 Napr=6 uakb=12.7 usb=12.45 temp=16.2 hum=89.55 prs=989.98 Log=289896 Err=0
id=663523 time=17.07.2019 06:33:47 Vmax=3.4 Vmin=2.9 Vmid=3.2 Napr=20 uakb=12.68 usb=12.25 temp=16.19 hum=89.55 prs=989.97 Log=289895 Err=0
id=663522 time=17.07.2019 06:32:37 Vmax=3.6 Vmin=2.9 Vmid=3.2 Napr=6 uakb=12.7 usb=12.37 temp=16.18 hum=89.55 prs=989.95 Log=289894 Err=0
id=663521 time=17.07.2019 06:31:28 Vmax=4.3 Vmin=3.3 Vmid=3.7 Napr=2 uakb=12.68 usb=12.31 temp=16.17 hum=89.54 prs=989.96 Log=289893 Err=0
id=663520 time=17.07.2019 06:30:16 Vmax=4.2 Vmin=2.9 Vmid=3.2 Napr=3 uakb=12.68 usb=12.35 temp=16.18 hum=89.52 prs=989.95 Log=289892 Err=0
id=663519 time=17.07.2019 06:27:58 Vmax=4 Vmin=3 Vmid=3.5 Napr=19 uakb=12.68 usb=12.22 temp=16.15 hum=89.51 prs=989.92 Log=289890 Err=0
id=663518 time=17.07.2019 06:26:47 Vmax=5.4 Vmin=3.3 Vmid=4.2 Napr=12 uakb=12.66 usb=12.16 temp=16.16 hum=89.51 prs=989.9 Log=289889 Err=0
id=663517 time=17.07.2019 06:22:07 Vmax=3.4 Vmin=2.5 Vmid=2.9 Napr=19 uakb=12.68 usb=12.35 temp=16.15 hum=89.48 prs=989.88 Log=289885 Err=0
id=663516 time=17.07.2019 06:19:48 Vmax=4.7 Vmin=3.2 Vmid=3.5 Napr=27 uakb=12.7 usb=12.37 temp=16.15 hum=89.47 prs=989.82 Log=289883 Err=0
id=663515 time=17.07.2019 06:18:37 Vmax=4.4 Vmin=2.9 Vmid=3.9 Napr=9 uakb=12.68 usb=12.31 temp=16.13 hum=89.49 prs=989.83 Log=289882 Err=0
id=663514 time=17.07.2019 06:16:17 Vmax=4.8 Vmin=3 Vmid=4.1 Napr=9 uakb=12.68 usb=12.47 temp=16.17 hum=89.45 prs=989.85 Log=289880 Err=0
id=663513 time=17.07.2019 06:13:56 Vmax=5 Vmin=3.5 Vmid=4.3 Napr=5 uakb=12.66 usb=12.45 temp=16.18 hum=89.43 prs=989.81 Log=289878 Err=0
id=663512 time=17.07.2019 06:12:46 Vmax=6.2 Vmin=4.1 Vmid=4.7 Napr=10 uakb=12.64 usb=12.1 temp=16.17 hum=89.41 prs=989.83 Log=289877 Err=0
id=663511 time=17.07.2019 06:10:26 Vmax=4.3 Vmin=3.4 Vmid=3.7 Napr=13 uakb=12.64 usb=12.04 temp=16.2 hum=89.42 prs=989.82 Log=289875 Err=0
id=663510 time=17.07.2019 06:09:15 Vmax=4.3 Vmin=2.5 Vmid=3.3 Napr=11 uakb=12.64 usb=12.33 temp=16.19 hum=89.41 prs=989.83 Log=289874 Err=0
id=663509 time=17.07.2019 06:05:45 Vmax=5.4 Vmin=4.2 Vmid=4.6 Napr=1 uakb=12.62 usb=12.14 temp=16.13 hum=89.41 prs=989.82 Log=289871 Err=0
id=663508 time=17.07.2019 06:04:35 Vmax=6.1 Vmin=3.7 Vmid=4.8 Napr=17 uakb=12.62 usb=11.98 temp=16.12 hum=89.37 prs=989.87 Log=289870 Err=0
id=663507 time=17.07.2019 06:03:25 Vmax=4.4 Vmin=2.7 Vmid=3.5 Napr=1 uakb=12.62 usb=12.16 temp=16.15 hum=89.37 prs=989.83 Log=289869 Err=0
id=663506 time=17.07.2019 06:01:05 Vmax=5 Vmin=4.1 Vmid=4.6 Napr=349 uakb=12.62 usb=12 temp=16.16 hum=89.35 prs=989.82 Log=289867 Err=0
id=663505 time=17.07.2019 05:59:54 Vmax=4.9 Vmin=3.7 Vmid=4.6 Napr=355 uakb=12.6 usb=12.29 temp=16.19 hum=89.35 prs=989.88 Log=289866 Err=0
id=663504 time=17.07.2019 05:58:53 Vmax=4.8 Vmin=3.9 Vmid=4.2 Napr=1 uakb=12.6 usb=12.25 temp=16.19 hum=89.33 prs=989.87 Log=289865 Err=0
id=663503 time=17.07.2019 05:56:24 Vmax=4.4 Vmin=3.9 Vmid=4 Napr=6 uakb=12.6 usb=11.94 temp=16.18 hum=89.33 prs=989.84 Log=289863 Err=0
id=663502 time=17.07.2019 05:55:13 Vmax=4.2 Vmin=3.4 Vmid=3.6 Napr=2 uakb=12.6 usb=12.12 temp=16.18 hum=89.34 prs=989.81 Log=289862 Err=0
id=663501 time=17.07.2019 05:54:04 Vmax=4.3 Vmin=2.8 Vmid=3.6 Napr=4 uakb=12.6 usb=12.16 temp=16.17 hum=89.3 prs=989.83 Log=289861 Err=0
id=663500 time=17.07.2019 05:52:53 Vmax=5.2 Vmin=4.1 Vmid=4.7 Napr=2 uakb=12.6 usb=12.24 temp=16.18 hum=89.29 prs=989.8 Log=289860 Err=0
id=663499 time=17.07.2019 05:51:43 Vmax=3.6 Vmin=2.9 Vmid=3.2 Napr=10 uakb=12.6 usb=12.06 temp=16.17 hum=89.3 prs=989.78 Log=289859 Err=0
id=663498 time=17.07.2019 05:48:13 Vmax=4.7 Vmin=3 Vmid=4 Napr=3 uakb=12.58 usb=12.08 temp=16.13 hum=89.28 prs=989.74 Log=289856 Err=0
id=663497 time=17.07.2019 05:47:03 Vmax=5.9 Vmin=4.7 Vmid=5.2 Napr=8 uakb=12.58 usb=12.04 temp=16.14 hum=89.26 prs=989.75 Log=289855 Err=0
id=663496 time=17.07.2019 05:43:33 Vmax=5.6 Vmin=4.1 Vmid=4.6 Napr=13 uakb=12.6 usb=11.94 temp=16.13 hum=89.25 prs=989.8 Log=289852 Err=0
id=663495 time=17.07.2019 05:42:23 Vmax=5 Vmin=4.1 Vmid=4.6 Napr=1 uakb=12.58 usb=11.96 temp=16.15 hum=89.23 prs=989.76 Log=289851 Err=0
id=663494 time=17.07.2019 05:41:12 Vmax=5.6 Vmin=4.1 Vmid=4.9 Napr=2 uakb=12.58 usb=11.98 temp=16.15 hum=89.23 prs=989.79 Log=289850 Err=0
id=663493 time=17.07.2019 05:40:03 Vmax=5.2 Vmin=4.3 Vmid=4.8 Napr=355 uakb=12.58 usb=12.06 temp=16.17 hum=89.23 prs=989.75 Log=289849 Err=0
id=663492 time=17.07.2019 05:38:53 Vmax=5.1 Vmin=4.1 Vmid=4.6 Napr=354 uakb=12.58 usb=12.04 temp=16.18 hum=89.21 prs=989.72 Log=289848 Err=0
id=663491 time=17.07.2019 05:35:22 Vmax=4.1 Vmin=3.2 Vmid=3.5 Napr=9 uakb=12.58 usb=11.94 temp=16.23 hum=89.2 prs=989.75 Log=289845 Err=0
id=663490 time=17.07.2019 05:34:15 Vmax=4 Vmin=2.6 Vmid=3.5 Napr=21 uakb=12.58 usb=12.12 temp=16.24 hum=89.2 prs=989.75 Log=289844 Err=0
id=663489 time=17.07.2019 05:33:01 Vmax=4.2 Vmin=2.5 Vmid=3.2 Napr=9 uakb=12.58 usb=12.06 temp=16.26 hum=89.18 prs=989.76 Log=289843 Err=0
id=663488 time=17.07.2019 05:31:52 Vmax=3.7 Vmin=2.9 Vmid=3.4 Napr=2 uakb=12.58 usb=12.08 temp=16.25 hum=89.18 prs=989.7 Log=289842 Err=0
id=663487 time=17.07.2019 05:30:41 Vmax=3.7 Vmin=2.7 Vmid=3.2 Napr=13 uakb=12.58 usb=11.94 temp=16.26 hum=89.17 prs=989.66 Log=289841 Err=0
id=663486 time=17.07.2019 05:29:30 Vmax=3 Vmin=2.5 Vmid=2.7 Napr=11 uakb=12.58 usb=11.34 temp=16.23 hum=89.17 prs=989.65 Log=289840 Err=0
id=663485 time=17.07.2019 05:28:20 Vmax=3.5 Vmin=2.6 Vmid=3 Napr=10 uakb=12.58 usb=11.76 temp=16.18 hum=89.17 prs=989.63 Log=289839 Err=0
id=663484 time=17.07.2019 05:26:02 Vmax=4.7 Vmin=4 Vmid=4.3 Napr=14 uakb=12.56 usb=11.16 temp=16.18 hum=89.13 prs=989.61 Log=289837 Err=0
id=663483 time=17.07.2019 05:25:01 Vmax=4.3 Vmin=3.2 Vmid=3.6 Napr=9 uakb=12.58 usb=10.71 temp=16.19 hum=89.14 prs=989.65 Log=289836 Err=0
id=663482 time=17.07.2019 05:23:39 Vmax=3.7 Vmin=3.3 Vmid=3.4 Napr=8 uakb=12.56 usb=10.87 temp=16.19 hum=89.13 prs=989.59 Log=289835 Err=0
id=663481 time=17.07.2019 05:19:00 Vmax=3.9 Vmin=2.6 Vmid=3.2 Napr=15 uakb=12.58 usb=8.84 temp=16.17 hum=89.08 prs=989.59 Log=289831 Err=0
id=663480 time=17.07.2019 05:17:50 Vmax=4.2 Vmin=3.3 Vmid=3.7 Napr=15 uakb=12.58 usb=8.84 temp=16.15 hum=89.09 prs=989.55 Log=289830 Err=0
id=663479 time=17.07.2019 05:16:39 Vmax=3.6 Vmin=2.3 Vmid=3 Napr=16 uakb=12.58 usb=9.2 temp=16.12 hum=89.09 prs=989.51 Log=289829 Err=0
id=663478 time=17.07.2019 05:15:30 Vmax=4 Vmin=2.3 Vmid=3.2 Napr=17 uakb=12.58 usb=9.18 temp=16.12 hum=89.08 prs=989.53 Log=289828 Err=0